Aviation Digital Data Service (ADDS)

Output produced by METARs form (0156 UTC 28 February 2015)
found at http://aviationweather.gov/adds/metars/
 
K04V 280136Z AUTO 00000KT 1 1/2SM -SN OVC012 M05/M06 A2977 RMK AO2
K04W 280154Z AUTO 20005KT 10SM CLR M13/M20 A3045 RMK AO2
K05U 280135Z AUTO 13004KT 10SM FEW050 SCT065 BKN080 00/M01 A2962 RMK AO1
K06D 280135Z AUTO 19010KT 10SM CLR M15/M18 A3019 RMK AO2
K0A9 280135Z AUTO 00000KT 10SM CLR M07/M09 A3046 RMK
K0CO 280134Z AUTO 34004KT 1/2SM -SN OVC003 M16/M20 A2966 RMK AO2
K0E0 280135Z AUTO 14008KT 4SM -SN OVC019 M09/M12 A2992 RMK AO2 T10951118
K0F2 280135Z AUTO 04003KT 2 1/2SM -SN OVC020 M06/M07 A3042 RMK AO2 T10651073
K0J4 280058Z AUTO 36004KT 10SM CLR 07/01 A3034 RMK AO2 SLP274 T00670011 $
K0V4 280135Z AUTO 32005KT 10SM CLR 00/M09 A3050 RMK AO1 T10031095
K0VG 280135Z AUTO 00000KT 10SM CLR M06/M13 A3052 RMK AO2
K11R 280135Z AUTO 02006KT 10SM OVC030 06/M01 A3034 RMK AO2 T00551007
K12N 280154Z AUTO 00000KT M13/M18 A3053 RMK AO1 SLP362 T11331178
K14Y 280158Z AUTO 17005KT 10SM CLR M15/M19 A3042 RMK AO2
K19A 280135Z AUTO 31007KT 10SM CLR 04/M02 A3038 RMK AO2
K1A5 280135Z AUTO 00000KT 10SM M03/M06 A3040 RMK AO2 T10291058
K1A6 280135Z AUTO 00000KT 10SM CLR M06/M11 A3054 RMK AO2 T10571106
K1A9 280135Z AUTO 01005KT 10SM CLR 05/M04 A3039 RMK AO2 T00481040
K1B7 272227Z 06018KT 10SM SKC 10/05 A3029 RMK LAST
K1F0 280135Z AUTO 06005KT 10SM OVC070 M06/M08 A3046 RMK AO2
K1H2 280135Z AUTO 00000KT 10SM CLR M11/M18 A3068 RMK AO2 T11151185
K1II 280135Z AUTO 00000KT 10SM CLR M12/M18 A3065 RMK AO2
K1J0 280058Z AUTO 00000KT 10SM CLR 08/05 A3033 RMK AO2 SLP257 T00780050
K1K1 280135Z AUTO 10003KT 7SM -SN OVC100 M10/M12 A3049 RMK AO2 T10971118
K1L0 280135Z AUTO 04008KT 10SM CLR 09/00 A3036 RMK AO2 T00900002
K1M4 280056Z AUTO 00000KT 10SM M03/M08 A3049 RMK AO2 T10271077 SLP331 $
K1P1 280135Z AUTO 00000KT 10SM CLR M17/M20 A3043 RMK AO2 T11701201
K1QW 280056Z AUTO 35036G41KT M /// /// M 03/M01 A2967 RMK AO2 PK WND 35037/54 SLP067 T00301010 $
K1R7 280155Z AUTO 34009KT CLR 03/00 A3042 RMK AO2
K1S5 280155Z AUTO 01013G17KT 10SM BKN110 09/M01 A2975 RMK AO2 T00871007
K1V4 280154Z AUTO M17/M22 A3044 RMK AO1 SLP339 T11721222
K1V6 280135Z AUTO 14004KT 10SM OVC024 M10/M12 A2994 RMK AO2
K1YT 280056Z AUTO 06022G27KT 10SM BKN075 08/00 A2975 RMK AO2 PK WND 06029/26 SLPNO T00830002
K20U 280135Z AUTO 21003KT 10SM CLR M10/M14 A3002 RMK AO2
K20V 280135Z AUTO 00000KT 10SM BKN060 OVC070 M05/M11 A2975 RMK AO2
K21D 280150Z AUTO 20005KT 10SM CLR M13/M18 A3053 RMK AO2
K24J 280155Z AUTO 05005KT 3SM CLR 10/04 A3036 RMK AO1
K28J 280135Z AUTO 02009KT 10SM FEW016 OVC025 10/08 A3032 RMK AO2
K2C8 280135Z AUTO 19007KT 10SM CLR M13/M18 A3030 RMK AO2
K2D5 280135Z AUTO 16009KT M17/M19 A3033 RMK AO2
K2DP 280056Z AUTO 01008KT 10SM CLR 00/M02 A3050 RMK AO2 SLPNO T00021019
K2G4 280150Z AUTO 31003KT 10SM CLR M14/M22 A3040 RMK AO1
K2G9 280135Z AUTO 31007KT 10SM CLR M13/M20 A3046 RMK AO2
K2I0 280135Z AUTO 02006KT 10SM SCT110 M05/M11 A3064 RMK AO2 T10471115
K2J9 280135Z AUTO 08005KT 10SM CLR 07/04 A3035 RMK AO1
K2V5 280135Z AUTO 16010KT 10SM SCT009 SCT014 M10/M13 A3014 RMK AO2 T11011130
K2W6 280149Z AUTO 00000KT 10SM CLR M04/M08 A3059 RMK AO1
K2WX 280056Z AUTO 16007KT M07/M12 A2993 RMK AO1 SLP201 T10671122
K33V 280135Z AUTO 00000KT 10SM CLR M10/M15 A2973 RMK AO2
K36U 280135Z AUTO 21003KT 10SM OVC060 00/M05 A2969 RMK AO2
K3AU 280135Z AUTO 09004KT 7SM -SN OVC100 M10/M12 A3049 RMK AO2
K3D2 280135Z AUTO 23006KT 10SM CLR M11/M20 A3046 RMK AO2 T11081203
K3I2 280135Z AUTO 00000KT 10SM BKN036 BKN044 M07/M15 A3065 RMK AO2
K3J7 280135Z AUTO 00000KT 10SM CLR 07/00 A3035 RMK AO2
K3K3 280135Z AUTO 14010KT 5SM -SN SCT018 SCT041 M10/M12 A3020 RMK AO2
K3LF 280135Z AUTO 00000KT 10SM CLR M14/M19 A3066 RMK AO2 T11401190
K3N8 280135Z AUTO 18007KT 10SM CLR M16/M20 A3036 RMK AO2 T11601201
K3R7 280135Z AUTO 02006KT 10SM CLR 05/00 A3039 RMK AO2 T00480000
K3T5 280135Z AUTO 01005KT 10SM BKN027 06/00 A3031 RMK AO2 T00550000
K40J 280140Z AUTO 05004KT 10SM CLR 09/04 A3034 RMK AO2 T00910044
K42J 280135Z AUTO 03008KT 8SM SCT018 OVC027 09/04 A3032 RMK AO1 TSNO
K46D 280135Z AUTO 10SM CLR M15/M18 A3026 RMK AO2
K4A6 280135Z AUTO 01005KT 10SM CLR 00/M07 A3048 RMK AO2
K4A9 280135Z AUTO 05004KT 10SM CLR M02/M07 A3044 RMK AO2
K4BM 280136Z AUTO 21004KT 10SM SCT004 SCT050 BKN100 M12/M14 A2970 RMK AO2
K4I3 280135Z AUTO 30005KT 10SM CLR M13/M20 A3059 RMK AO2
K4I7 280155Z AUTO 06003KT 10SM CLR M12/M20 A3064 RMK AO2
K4M9 280135Z AUTO 08008KT 10SM OVC032 M05/M11 A3064 RMK AO2
K4MR 280056Z AUTO 12013KT 10SM -SHSN OVC014 M10/M12 A3010 RMK AO2 SHSNB27E46SHSNB51 SLP243 T11051118 $
K4O4 280135Z AUTO 04007KT 3SM BKN007 OVC011 M03/M05 A3048 RMK AO2
K54J 280135Z AUTO 35005KT 10SM CLR 08/01 A3033 RMK AO2 T00790014
K5A6 280135Z AUTO 03005KT 10SM BKN110 02/M05 A3047 RMK AO2 T00151054
K5C1 280135Z AUTO 03007KT 4SM OVC006 M01/M02 A3030 RMK AO1
K5H4 280135Z AUTO 14006KT 10SM CLR M15/M18 A3022 RMK AO2
K5SM 280135Z AUTO 00000KT 3SM -SN BKN011 BKN017 OVC046 M09/M10 A2971 RMK AO2
K5T9 280135Z AUTO 08008KT 3SM BR SCT006 SCT011 OVC027 03/02 A3027 RMK A01
K65S 280135Z AUTO 05006KT 10SM OVC070 02/M09 A2991 RMK AO2
K66R 280135Z AUTO 06005KT 10SM OVC022 06/02 A3030 RMK AO2 T00580016
K6A2 280135Z AUTO 35004KT 10SM CLR 06/M04 A3038 RMK AO2
K6B0 280135Z AUTO 00000KT 10SM CLR M15/M19 A3047 RMK AO2 T11521195
K6I2 280130Z AUTO 00000KT 10SM CLR M07/M14 A3062 RMK AO2
K6L4 280135Z AUTO 00000KT 10SM CLR M08/M14 A3050 RMK AO2
K6R3 280133Z AUTO 00000KT 10SM SCT100 06/01 A3036 RMK AO2
K6R6 280153Z AUTO 08012KT 02/M02 A3017 RMK AO1 SLP220 T00171017
K79J 280056Z AUTO 04006KT 10SM CLR 11/M02 A3033 RMK AO2 SLP272 T01061017
K7BM 280134Z AUTO 00000KT 10SM SCT041 SCT050 M08/M11 A2970 RMK AO2
K7L2 280135Z AUTO 15014G18KT 10SM CLR M13/M17 A3021 RMK AO2
K7N0 280135Z AUTO 36007KT 10SM CLR A3035 RMK AO1
K7R3 272019Z 03009KT 10SM CLR 12/02 A3030
K7R4 272241Z 03003KT 7SM SKC 09/M03 A3030
K7W4 280135Z AUTO 02003KT 10SM CLR M02/M11 A3055 RMK AO1 T10211108
K82C 280135Z AUTO 00000KT 10SM CLR M15/M20 A3055 RMK AO2 T11501205
K82V 280135Z AUTO 17012KT 10SM OVC024 M10/M14 A2994 RMK AO2
K8A0 280135Z AUTO 36005KT 10SM CLR 00/M03 A3042 RMK AO2
K8D3 280056Z AUTO 19007KT M14/M19 A3039 RMK AO1 SLP345 T11441189
K8S0 280140Z 35006KT
K8W2 280135Z AUTO 34004KT 10SM CLR M07/M13 A3054 RMK AO1 T10661134
K96D 280135Z AUTO 18005KT M13/M18 A3029 RMK AO2
K9D7 280135Z AUTO 17009KT 10SM CLR M16/M18 A3024 RMK AO2
K9F2 272205Z 06014KT 7SM SKC 08/04 A3028 RMK LAST
K9L2 280055Z AUTO 28033G40KT 10SM CLR 15/02 A2965 RMK AO2 PK WND 28042/0007 SLP035 T01500017 $
K9MN 280153Z AUTO 18005KT 10SM CLR M16/M21 A3052 RMK AO1 T11641207
K9V9 280135Z AUTO 14008KT 10SM CLR M11/M20 A3029 RMK AO2 T11081201
KA08 280135Z AUTO 35007KT 10SM CLR 04/M04 A3043 RMK AO2 T00381039
KAAA 280135Z AUTO 00000KT 10SM CLR M12/M16 A3069 RMK AO2 T11241165
KAAF 280153Z AUTO 04008KT 10SM CLR 11/04 A3031 RMK AO2 SLP265 T01110044
KAAO 280054Z AUTO 12004KT 9SM -SN FEW055 OVC100 M10/M13 A3047 RMK AO2 SLP348 P0000 T11001128
KAAT 280103Z AUTO 17007KT 10SM BKN030 BKN080 02/01 A2965 RMK AO2 T00170006
KABE 280151Z 32004KT 10SM CLR M08/M18 A3056 RMK AO2 SLP356 T10781183
KABI 280152Z 07006KT 3SM BR OVC005 M07/M08 A3034 RMK AO2 SLP292 I1001 T10671078
KABQ 280152Z 35008KT 2SM -SN BR SCT012 BKN025 OVC040 M04/M06 A2989 RMK AO2 SLP148 MTNS OBSC NE-SE P0002 T10441056
KABR 280153Z AUTO 14008KT 10SM CLR M16/M19 A3034 RMK AO2 SLP314 T11561194
KABY 280153Z 00000KT 10SM CLR 08/03 A3037 RMK AO2 SLP286 T00830028
KACB 280136Z AUTO 00000KT 10SM OVC030 M12/M16 A3052 RMK AO2 T11161162
KACJ 280135Z AUTO 36003KT 10SM CLR 07/02 A3037 RMK AO2
KACK 280153Z 29007KT 10SM CLR M06/M12 A3046 RMK AO2 SLP313 T10561117
KACP 280135Z AUTO 02005KT 10SM CLR 04/M02 A3041 RMK AO2 T00431017
KACQ 280139Z AUTO 19004KT 10SM CLR M17/M20 A3053 RMK AO2
KACT 280151Z 03009KT 6SM -FZRA BR SCT007 BKN013 OVC031 M02/M03 A3040 RMK AO2 SLP299 P0001 I1001 T10171028
KACV 280153Z AUTO 00000KT 10SM FEW060 BKN095 09/08 A2980 RMK AO2 RAE23 SLP099 P0001 T00890078
KACY 280054Z 28007KT 10SM CLR M04/M12 A3054 RMK AO2 SLP343 T10391122
KADC 280152Z AUTO 21003KT 10SM CLR M17/M21 A3039 RMK AO2
KADF 280056Z AUTO 05008KT 10SM CLR M01/M11 A3052 RMK AO2 T10111111 SLP351 $
KADG 280153Z AUTO 25003KT 10SM CLR M14/M20 A3062 RMK AO2 SLP393 T11441200 TSNO
KADH 280135Z AUTO 00000KT 10SM SCT009 SCT060 OVC070 M07/M07 A3047 RMK AO2
KADM 280055Z 03008KT 7SM -SN SCT016 BKN033 OVC044 M06/M07 A3045
KADS 280049Z 06007G15KT 8SM OVC015 M03/M06 A3045
KADU 280135Z AUTO 00000KT 10SM CLR M18/M22 A3053 RMK AO2
KADW 280055Z 03004KT 10SM CLR M05/M11 A3055 RMK SLP356 AO2 T10531115 $
KAEG 280147Z 02007KT 3/4SM SN BR OVC007 M06/M07 A2988
KAEJ 280135Z AUTO 24003KT 10SM CLR M14/M17 A2974 RMK AO2 T11441169
KAEL 280152Z AUTO 00000KT 10SM CLR M16/M18 A3051 RMK AO2
KAEX 280153Z 03009KT 10SM OVC110 02/M04 A3044 RMK AO2 SLP312 T00171039
KAFF 280144Z AUTO 17007KT 7SM -SN BKN002 OVC016 M13/M16 A2986 RMK AO2 SNB14E15SNB39 CIG 002V017 BKN V SCT
KAFJ 280135Z AUTO 00000KT 10SM CLR M13/M20 A3059 RMK AO1
KAFK 280135Z AUTO 15003KT 10SM CLR M10/M21 A3052 RMK AO2 T11001207
KAFN 280152Z AUTO 00000KT 10SM CLR M18/M23 A3041 RMK AO2 SLP330 T11831228
KAFO 280135Z AUTO 02004KT 10SM SCT028 SCT034 OVC050 M05/M06 A2972 RMK AO2
KAFP 280135Z AUTO 04003KT 10SM CLR 03/M02 A3046 RMK AO2 T00311025
KAFW 280153Z 02009KT 2SM -SN BR BKN015 OVC023 M05/M07 A3044 RMK AO2 FZRAE41SNB41 SLP324 P0001 I1000 T10501067
KAGC 280153Z 32003KT 10SM CLR M11/M21 A3058 RMK AO2 SLP388 T11111206
KAGS 280153Z 00000KT 10SM CLR 05/02 A3041 RMK AO2 SLP297 T00500017
KAHN 280151Z AUTO 32004KT 10SM CLR 05/M06 A3039 RMK AO2 SLP297 T00501056
KAHQ 280135Z AUTO 13006KT 10SM CLR M12/M16 A3049 RMK AO2 T11201165
KAIA 280153Z AUTO 17018G23KT 10SM OVC032 M08/M14 A3003 RMK AO2 PK WND 17027/0142 SLP235 T10831139
KAIB 280135Z AUTO 31003KT 10SM BKN049 00/M03 A2978 RMK AO2
KAID 272049Z 31010KT 10SM CLR M08/M18 A2959
KAIG 280135Z AUTO 25006KT 10SM CLR M16/M21 A3043 RMK AO2 T11611211
KAIK 280155Z AUTO 08003KT 10SM CLR 05/02 A3043 RMK AO2
KAIO 280135Z AUTO 03003KT 10SM CLR M14/M19 A3054 RMK AO2
KAIT 280154Z AUTO 20003KT 10SM CLR M11/M22 A3039 RMK AO2
KAIZ 280135Z AUTO 07005KT 10SM BKN085 M07/M18 A3056 RMK AO1
KAJG 280135Z AUTO 00000KT 10SM CLR M06/M16 A3067 RMK AO2
KAJO 280056Z AUTO 28007KT 10SM SCT040 SCT060 16/10 A2976 RMK AO2 T01610100 SLP075 $
KAJZ 280135Z AUTO 00000KT 10SM CLR 01/M01 A2978 RMK AO2 T00101011
KAKH 280054Z AUTO 05005KT 10SM CLR 04/M04 A3041 RMK AO2 SLP303 T00441039
KAKO 280153Z AUTO 16013KT 10SM FEW010 M13/M16 A3002 RMK AO2 SLP248 T11281156
KAKQ 280054Z AUTO 00000KT 10SM CLR M01/M04 A3053 RMK AO2 SLP343 T10111044 TSNO
KAKR 280054Z AUTO 25003KT 10SM CLR M14/M20 A3058 RMK AO2 SLP383 T11391200 $
KALB 280151Z 31011KT 10SM CLR M10/M18 A3055 RMK AO2 SLP353 T11001183
KALI 280153Z AUTO 03011KT 3SM BR OVC007 08/07 A3022 RMK AO2 RAE32 CIG 005V010 SLP234 P0002 T00830067
KALK 280056Z AUTO 22023G29KT 10SM CLR 15/M02 A2979 RMK AO2 PK WND 22030/0006 SLP032 T01501022
KALM 280135Z AUTO 10SM CLR 02/M05 A2991 RMK AO2
KALN 280154Z 06007KT 10SM SCT120 M10/M20 A3067
KALO 280054Z AUTO 19004KT 10SM CLR M17/M21 A3059 RMK AO2 SLP388 T11721206
KALS 280152Z AUTO 28004KT 10SM FEW070 SCT085 M08/M11 A2976 RMK AO2 SLP127 T10781106
KALW 280153Z VRB03KT 10SM FEW060 OVC085 11/02 A2969 RMK AO2 SLP056 T01060022
KALX 280135Z AUTO 03005KT 10SM CLR 05/M06 A3041 RMK AO2 T00531064
KAMA 280153Z 15012KT 9SM -SN BKN010 OVC038 M11/M13 A3020 RMK AO2 SLP270 P0000 T11061128
KAMG 280153Z AUTO 10004KT 10SM CLR 07/03 A3038 RMK AO2 SLP286 T00720033
KAMN 280133Z AUTO 24004KT 10SM CLR M12/M17 A3058 RMK AO2 T11161171
KAMW 280153Z AUTO 09003KT 10SM CLR M17/M21 A3058 RMK AO2 SLP383 I1000 T11721206
KANB 280153Z AUTO 00000KT 10SM CLR 02/M05 A3044 RMK AO2 SLP321 T00171050
KAND 280056Z AUTO 00000KT 10SM CLR 05/M02 A3037 RMK AO2 SLP288 T00501017
KANE 280147Z 21006KT 10SM CLR M11/M17 A3051
KANJ 280055Z AUTO 23005KT 10SM CLR M14/M19 A3045 RMK AO2 SLP331 T11391194
KANK 280135Z AUTO 13010G14KT 10SM BKN050 BKN070 OVC090 M07/M11 A2983 RMK AO1 T10751107
KANQ 280215Z AUTO 00000KT 10SM CLR M17/M21 A3059 RMK
KANW 280135Z AUTO 16009KT 10SM CLR M08/M18 A3022 RMK AO2 T10811184
KAOH 280153Z AUTO 16006KT 10SM CLR M13/M21 A3063 RMK AO2 SLP395 T11281206
KAOO 280153Z AUTO 30006KT 10SM CLR M12/M21 A3054 RMK AO2 SLP376 T11171206
KAPA 280153Z 02005KT 9SM -SN SCT020 SCT060 OVC085 M11/M14 A2989 RMK AO2 SNB04 SLP217 P0000 T11061139
KAPC 280054Z 26018G30KT 10SM CLR 13/07 A2972 RMK AO2 PK WND 26030/0045 SLP055 T01280072
KAPF 280153Z 05010KT 10SM FEW011 16/13 A3017 RMK AO2 SLP215 T01560133
KAPG 280055Z 31006KT 7SM SKC M04/M13 A3057 RMK LAST
KAPN 280154Z AUTO 25003KT 10SM CLR M18/M22 A3051 RMK AO2 SLP352 T11781217
KAPY 280135Z AUTO 32009KT 7SM OVC016 04/02 A3023 RMK AO2 T00460020
KAQO 280135Z AUTO 00000KT 4SM BR FEW001 BKN008 OVC012 M01/M02 A3038 RMK AO2
KAQP 280134Z AUTO 17004KT 10SM CLR M13/M18 A3045 RMK AO2
KAQR 272300Z AUTO 02004KT 3SM -SN OVC013 M05/M07 A3049 RMK AO2
KAQV 280056Z AUTO 04008G16KT 10SM OVC100 03/M04 A3039 RMK AO2 SLP293 T00331039
KAQW 280152Z AUTO 27008KT 250V310 10SM CLR M11/M19 A3050 RMK AO2 SLP346 T11061189
KAQX 280135Z AUTO 00000KT 10SM CLR 06/04 A3040 RMK AO2
KARA 280153Z 01010KT 10SM CLR 07/01 A3038 RMK AO2 SLP287 T00720011
KARB 280153Z AUTO 26003KT 10SM CLR M17/M21 A3060 RMK AO2 SLP385 T11671206
KARG 280135Z AUTO 02012KT 9SM CLR M05/M12 A3062 RMK AO1
KARM 280135Z AUTO 03005KT 10SM SCT023 04/01 A3031 RMK AO2 T00400014
KARR 280152Z 25005KT 10SM CLR M18/M23 A3064 RMK AO2 SLP399 T11781228
KART 280149Z AUTO 24012G21KT 1 1/2SM -SN BKN017 BKN023 OVC040 M10/M13 A3057 RMK AO2 P0001 T11001128
KARV 280135Z AUTO 24005KT 10SM CLR M11/M20 A3039 RMK AO2 T11151205
KARW 280155Z AUTO 00000KT 10SM CLR 07/04 A3041 RMK AO2
KASD 280153Z AUTO 00000KT 10SM SCT120 06/00 A3037 RMK AO2 SLP283 T00560000
KASE 280153Z 19006KT 7SM FEW016 SCT025 M08/M11 A2973 RMK AO2 SLP088 T10831106
KASG 280148Z 06006KT 4SM BR SCT045 BKN055 OVC065 M08/M10 A3049
KASH 280151Z AUTO 00000KT 10SM CLR M11/M21 A3047 RMK AO2 FZRANO T11111211 SLP589 $
KASJ 280135Z AUTO 00000KT 10SM CLR M01/M04 A3055 RMK AO2 T10121040
KASL 280135Z AUTO 00000KT 10SM SCT085 01/M06 A3047 RMK AO1 T00061057
KASN 280135Z AUTO 00000KT 10SM CLR 03/M05 A3044 RMK AO2 T00251053
KAST 280055Z AUTO 02006KT 10SM FEW022 SCT035 OVC049 10/07 A2972 RMK AO2 RAB25E44 SLP062 P0001 T01000072
KASW 280135Z AUTO 22003KT 10SM CLR M12/M17 A3063 RMK AO2
KASX 280153Z AUTO 21008KT 10SM CLR M12/M21 A3045 RMK AO2 SLP335 T11221211
KATL 280152Z 34009KT 10SM FEW250 03/M06 A3040 RMK AO2 SLP304 T00281061
KATP 280135Z AUTO 08022KT 10SM BKN031 OVC039 18/12 A3020 RMK A01
KATS 280135Z AUTO 14010KT 10SM OVC017 M04/M06 A3013 RMK AO2
KATT 280151Z AUTO 03008KT 6SM BR BKN011 OVC023 00/M02 A3035 RMK AO2 UPE0058FZRAB0058E15 SLP288 P0000 I1001 T00001017 $
KATW 280145Z 23006KT 10SM SKC M12/M21 A3052
KATY 280153Z AUTO 16009KT 10SM CLR M15/M19 A3035 RMK AO2 SLP331 T11501189
KAUG 280153Z AUTO 35005KT 10SM CLR M11/M23 A3042 RMK AO2 SLP310 T11061233
KAUH 280135Z AUTO 17008KT 10SM CLR M09/M18 A3040 RMK AO2 T10901176
KAUM 280135Z AUTO 00000KT 10SM CLR M18/M21 A3052 RMK AO2
KAUN 280135Z AUTO 19006KT 10SM CLR 13/08 A2967 RMK AO1
KAUO 280135Z AUTO 01008KT 10SM CLR 04/M06 A3040 RMK AO1
KAUS 280153Z 01014KT 7SM -FZDZ SCT010 OVC025 00/M02 A3035 RMK AO2 DZE50FZDZB50 SLP287 P0000 T00001017
KAUW 280054Z AUTO 29004KT 10SM CLR M13/M20 A3045 RMK AO2 SLP350 T11281200
KAVC 280136Z AUTO 00000KT 10SM CLR M01/M04 A3057 RMK AO2 T10061044
KAVK 280135Z AUTO 12007KT 9SM FEW028 SCT036 OVC065 M09/M12 A3045 RMK AO2
KAVL 280054Z 34010KT 10SM CLR M02/M10 A3040 RMK AO2 SLP310 T10221100
KAVP 280054Z AUTO 00000KT 10SM CLR M08/M19 A3048 RMK AO2 SLP339 T10831194
KAVQ 280135Z AUTO 25012KT 10SM CLR 21/01 A2969 RMK AO2 T02060013
KAVX 280151Z AUTO 32008KT 6SM BR OVC006 11/11 A2979 RMK AO2 CIG 002V008 SLP086 T01060106
KAWG 280135Z AUTO 12004KT 10SM CLR M17/M19 A3064 RMK AO2
KAWM 280153Z AUTO 03011KT 10SM OVC100 M03/M07 A3057 RMK AO2 SLP355 T10331072
KAWO 280135Z AUTO 33006KT 10SM BKN070 OVC085 09/06 A2984 RMK AO1
KAXA 280135Z AUTO 17008KT 10SM CLR M18/M21 A3053 RMK AO2
KAXH 280135Z AUTO 05005KT 10SM SCT033 10/06 A3031 RMK AO2 T01000055
KAXN 280153Z AUTO 19006KT 10SM CLR M15/M21 A3041 RMK AO2 SLP338 T11501206
KAXO 272245Z 08018KT 7SM SKC 11/07 A3029 RMK LAST
KAXS 280135Z AUTO 10005KT 2SM -SN OVC009 M07/M09 A3043 RMK AO2 T10681095
KAXV 280151Z AUTO 00000KT 10SM CLR M16/M20 A3065 RMK AO2
KAXX 280135Z AUTO 16007KT 3SM -SN OVC009 M07/M09 A2978 RMK AO2 T10711086
KAYS 280135Z AUTO 10005KT 10SM CLR 09/05 A3037 RMK AO2 T00910047
KAZC 280135Z AUTO 20003KT 10SM BKN100 08/M02 A2969 RMK AO2 T00801022
KAZE 280135Z AUTO 09004KT 10SM CLR 09/05 A3037 RMK AO2 T00900048
KAZO 280153Z 24004KT 10SM CLR M13/M19 A3060 RMK AO2 SLP388 T11331194
KBAB 280058Z AUTO 16009KT 10SM CLR 18/07 A2962 RMK AO2 SLP106 T01790068 $
KBAC 280135Z AUTO 18010KT 10SM CLR M15/M18 A3031 RMK AO2
KBAD 280058Z AUTO 06005KT 10SM OVC085 00/M07 A3045 RMK AO2 SLPNO T00021070
KBAF 280153Z 32008KT 10SM CLR M08/M18 A3050 RMK AO2 SLP338 T10831183
KBAK 280150Z 00000KT 10SM SKC M15/M20 A3065
KBAN 280152Z AUTO VRB03KT 3SM -SN OVC032 00/M04 A2961 RMK AO2 SNB21 SLP019 P0000 T00001044 $
KBAX 280135Z AUTO 20006KT 10SM CLR M13/M18 A3055 RMK AO2 T11351185
KBAZ 280151Z AUTO 02013KT 10SM BKN015 OVC020 01/M02 A3032 RMK AO2 SLP269 T00111022
KBBB 280154Z AUTO 19005KT 10SM CLR M14/M18 A3044 RMK AO2
KBBD 280135Z AUTO 04009KT 5SM BR OVC006 M05/M06 A3030 RMK
KBBF 280135Z AUTO 08029G34KT 6SM HZ OVC019 15/11 A3018 RMK A01
KBBG 280145Z 00000KT 5SM -SN OVC008 M08/M10 A3051
KBBP 280155Z AUTO 04006KT 10SM CLR 06/M07 A3046 RMK AO2
KBBW 280153Z AUTO 17011G20KT 10SM CLR M08/M19 A3028 RMK AO2 SLP309 T10831189
KBCB 280135Z AUTO 35007KT 10SM CLR M06/M14 A3047 RMK AO2 T10621137
KBCE 280153Z AUTO 33005KT 1/2SM SN FZFG BKN008 OVC027 M03/M04 A2970 RMK AO2 SLP066 P0000 T10281039
KBCK 280135Z AUTO 00000KT 10SM CLR M16/M23 A3054 RMK AO2 T11631226
KBCT 280152Z 07016KT 10SM OVC013 22/20 A3017
KBDE 280153Z AUTO 21006KT 10SM CLR M14/M22 A3030 RMK AO2 SLP299 T11441222 TSNO
KBDG 280135Z AUTO 00000KT 10SM SCT012 BKN017 OVC090 M01/M02 A2983 RMK AO1 T10101016
KBDH 280135Z AUTO 15003KT 10SM CLR M16/M19 A3047 RMK AO2
KBDL 280151Z 35004KT 10SM CLR M07/M19 A3051 RMK AO2 SLP333 T10721194
KBDN 280135Z AUTO 00000KT 9SM -RA BKN012 BKN025 OVC032 02/01 A2967 RMK AO2 P0001
KBDR 280152Z 34005KT 10SM CLR M06/M17 A3053 RMK AO2 SLP338 T10611167
KBDU 280137Z AUTO 00000KT 10SM OVC060 M11/M14 A2993 RMK AO2
KBEA 280135Z AUTO 04008KT 7SM OVC018 07/05 A3024 RMK AO2 T00660053
KBED 280056Z 00000KT 10SM CLR M12/M19 A3044 RMK AO2 SLP326 T11171189
KBEH 280153Z AUTO 19005KT 10SM CLR M13/M18 A3063 RMK AO2 SLP388 T11281183
KBFD 280153Z AUTO 30003KT 10SM CLR M17/M23 A3046 RMK AO2 SLP369 T11721228
KBFF 280153Z AUTO 17009KT 10SM OVC034 M07/M13 A3002 RMK AO2 SNB12E24 SLP226 P0000 T10721128
KBFI 280153Z AUTO 33004KT 10SM FEW070 OVC100 12/06 A2981 RMK AO2 SLP093 T01170056 TSNO
KBFL 280054Z 32004KT 10SM BKN090 19/07 A2971 RMK AO2 SLP059 T01890072
KBFM 280153Z 35009KT 10SM CLR 09/00 A3037 RMK AO2 SLP285 T00940000
KBFW 280134Z AUTO 00000KT 10SM CLR M11/M22 A3035 RMK AO2
KBGD 280151Z AUTO 14009KT 10SM SCT018 OVC038 M09/M13 A3024 RMK AO2 SLP281 T10891128
KBGE 280135Z AUTO 06005KT 10SM CLR 11/07 A3034 RMK AO2
KBGF 280135Z AUTO 02008KT 10SM CLR M03/M11 A3049 RMK
KBGM 280153Z 34005KT 10SM CLR M14/M20 A3047 RMK AO2 SLP359 T11441200
KBGR 280153Z 26004KT 10SM CLR M14/M23 A3041 RMK AO2 SLP304 T11391228
KBHB 280135Z 27005KT 10SM CLR M11/M18 A3040 RMK AO1
KBHC 280135Z AUTO 09003KT 10SM CLR 07/06 A3037 RMK AO2
KBHK 280151Z AUTO 17004KT 10SM OVC042 M09/M13 A3000 RMK AO2 SLP219 T10941133
KBHM 280153Z 02003KT 10SM CLR 00/M07 A3047 RMK AO2 SLP324 T00001067
KBID 280135Z AUTO 32008G14KT 10SM CLR M04/M16 A3046 RMK AO1
KBIE 280135Z AUTO 14004KT 10SM CLR M09/M17 A3048 RMK AO2 T10881175
KBIF 280058Z 08011KT 10SM FEW090 FEW230 05/M06 A2989 RMK AO2A SLP118 T00521058 $
KBIH 280056Z AUTO 29011KT 10SM CLR 14/M08 RMK AO2 SLPNO T01441083 $
KBIJ 280135Z AUTO 00000KT 7SM CLR 08/05 A3035 RMK AO2
KBIL 280153Z 04010KT 10SM FEW050 FEW120 M07/M16 A2998 RMK AO2 SLP216 T10721161
KBIS 280152Z AUTO 10004KT 10SM CLR M13/M17 A3021 RMK AO2 SLP280 T11281167
KBIV 280153Z AUTO 21004KT 10SM CLR M13/M18 A3061 RMK AO2 SLP383 T11331183 $
KBIX 280058Z AUTO 03008KT 10SM CLR 09/01 A3033 RMK AO2 SLP274 T00940006
KBJC 280150Z 34003KT 10SM SCT030 BKN100 M12/M14 A2991
KBJI 280153Z AUTO 21004KT 10SM CLR M13/M21 A3034 RMK AO2 T11331208
KBJJ 280056Z AUTO 00000KT 10SM CLR M16/M21 A3060 RMK AO2 SLP394 T11611211 TSNO
KBKB 280154Z AUTO 02006KT 10SM CLR 04/M04 A3039 RMK AO2 SLP324 T00391039
KBKD 280135Z AUTO 06005KT 5SM -SN SCT009 BKN028 OVC043 M05/M06 A3039 RMK AO2 T10511060
KBKE 280153Z AUTO 05004KT 10SM FEW055 04/M01 A2965 RMK AO2 SLP056 T00391006 TSNO
KBKF 280058Z 33006KT 10SM SCT080 BKN200 M12/M15 A2989 RMK AO2A SLP201 T11161148
KBKL 280153Z 24007KT 10SM CLR M13/M19 A3065 RMK AO2 SLP391 T11331194
KBKS 280135Z AUTO 01010KT 5SM OVC007 10/09 A3020 RMK AO1 T00970085
KBKT 280135Z AUTO 07004KT 10SM CLR M02/M04 A3051 RMK AO1 T10181045
KBKV 280153Z AUTO 05010KT 10SM BKN017 OVC036 12/08 A3026 RMK AO2 SLP245 T01220078
KBKW 280151Z AUTO 00000KT 10SM CLR M11/M17 A3046 RMK AO2 SLP375 T11111167
KBLF 280152Z AUTO 33003KT 10SM CLR M08/M15 A3042 RMK AO2 SLP342 T10831150
KBLH 280152Z AUTO 20015KT 9SM BKN032 22/06 A2959 RMK AO2 SLP015 T02220061
KBLI 280153Z 02013G25KT 10SM BKN100 10/M04 A2987 RMK AO2 PK WND 02032/0057 SLP123 T01001039
KBLM 280135Z AUTO 29006KT 10SM CLR M04/M16 A3053 RMK AO1
KBLU 280152Z AUTO 20005KT 10SM BKN010 BKN013 03/01 A2968 RMK AO2 LTG DSNT SE CIG 007V011 SLP037 T00330006
KBLV 280058Z AUTO 07005KT 10SM BKN110 M09/M16 A3065 RMK AO2 SLP393 T10871164
KBMC 280135Z AUTO 34013KT 10SM SCT065 OVC090 03/M01 A2972 RMK AO1 T00271006
KBMG 280153Z 36005KT 10SM CLR M12/M18 A3063 RMK AO2 SLP391 T11171178
KBMI 280056Z 00000KT 10SM CLR M15/M19 A3064 RMK AO2 T11501188 SLP418
KBML 280152Z AUTO 00000KT 10SM CLR M22/M27 A3037 RMK AO2 SLP323 T12221272
KBMQ 280153Z AUTO 04010G16KT 6SM BR OVC006 M02/M03 A3035 RMK AO2 FZRAE46 CIG 005V010 SLP286 P0000 I1001 T10221033
KBMT 280135Z AUTO 36006KT 10SM CLR 06/02 A3037 RMK AO2 T00610018
KBNA 280153Z 03011KT 10SM SCT150 BKN250 M03/M14 A3059 RMK AO2 SLP365 T10331139
KBNL 280155Z AUTO 00000KT 10SM CLR 06/03 A3042 RMK AO2
KBNO 280153Z AUTO 26005KT 10SM BKN065 01/M01 A2963 RMK AO2 SLP052 T00111011 PWINO FZRANO
KBNW 280135Z AUTO 18004KT 10SM CLR M15/M19 A3054 RMK AO2
KBOI 280153Z 15007KT 10SM CLR 07/M01 A2963 RMK AO2 SLP040 T00721011
KBOK 280131Z AUTO 00000KT 8SM BKN008 BKN016 OVC022 09/09 A2979 RMK AO2 CIG 001V012 RAB09E19 P0000
KBOS 280054Z 33003KT 10SM CLR M05/M18 A3045 RMK AO2 SLP310 T10501178
KBOW 280135Z AUTO 04010KT 10SM BKN016 OVC030 13/09 A3025 RMK AO2
KBPC 280135Z AUTO 14008KT 10SM -SN BKN018 OVC046 M08/M11 A3028 RMK AO2
KBPG 280135Z AUTO 05010KT 10SM OVC009 M07/M09 A3026 RMK AO2 T10691089
KBPI 280153Z AUTO 05009KT 10SM FEW023 BKN044 OVC060 M08/M11 A2974 RMK AO2 SLP120 T10781111
KBPK 280153Z AUTO 09005KT 3SM -SN BR FEW043 BKN065 OVC075 M08/M09 A3053 RMK AO2 SLP355 P0000 T10781094
KBPT 280153Z 11006KT 10SM CLR 06/01 A3037 RMK AO2 SLP283 T00560011
KBQK 280135Z AUTO 03005KT 10SM CLR 08/03 A3039 RMK AO1
KBQP 280135Z AUTO 01007KT 10SM OVC090 00/M06 A3051 RMK AO2 T00001060
KBQX 280135Z AUTO 08022G35KT 070V160 7SM OVC017 11/09 A3024 RMK A01
KBRD 280153Z AUTO 20004KT 10SM CLR M13/M23 A3041 RMK AO2 SLP335 T11331228
KBRL 280153Z AUTO 12003KT 10SM CLR M17/M21 A3064 RMK AO2 SLP397 T11671206
KBRO 280153Z 06005KT 10SM SCT035 BKN042 OVC080 17/14 A3015 RMK AO2 SLP209 T01670139
KBTA 280135Z AUTO 13005KT 10SM CLR M10/M15 A3049 RMK AO2 T10961155
KBTL 280153Z 22005KT 10SM CLR M13/M20 A3059 RMK AO2 SLP386 T11331200
KBTM 280053Z AUTO 17014G19KT 10SM OVC048 M05/M12 A2980 RMK AO2 SLP162 T10501122
KBTP 280135Z AUTO 00000KT 10SM CLR M14/M20 A3058 RMK AO1
KBTR 280053Z 04006KT 10SM CLR 08/M01 A3034 RMK AO2 SLP275 T00831006
KBTV 280054Z 00000KT 10SM CLR M13/M21 A3047 RMK AO2 SLP328 T11331206
KBUF 280054Z 23010KT 10SM FEW100 M14/M18 A3059 RMK AO2 SLP379 T11441178
KBUR 280053Z 20005KT 10SM OVC050 16/10 A2975 RMK AO2 SLP066 T01560100
KBUU 280135Z AUTO 21005KT 10SM CLR M17/M22 A3061 RMK AO2 T11681222
KBUY 280054Z AUTO 03005KT 10SM CLR 02/M07 A3046 RMK AO2 SLP321 T00171072
KBVE 280151Z AUTO 01006KT 10SM CLR 10/05 A3034 RMK AO2 SLP274 T01000050
KBVI 280047Z 00000KT 10SM CLR M12/M19 A3057
KBVN 280135Z AUTO 15007KT 10SM CLR M10/M20 A3039 RMK AO2 T10961196
KBVO 280053Z AUTO 08003KT 6SM -SN BR OVC050 M08/M11 A3055 RMK AO2 SLP355 P0000 T10831106
KBVS 280135Z AUTO 00000KT 10SM SCT095 08/08 A2985 RMK A01 P000
KBVU 280135Z AUTO 15005KT 10SM CLR 16/M03 A2960 RMK AO2
KBVX 280135Z AUTO 05005KT 10SM FEW027 SCT034 OVC040 M06/M11 A3058 RMK AO1
KBVY 280053Z AUTO 32003KT 10SM CLR M09/M21 A3044 RMK AO2 SLP306 T10941211
KBWD 280135Z AUTO 04007KT 5SM BR OVC007 M04/M05 A3037 RMK AO2
KBWG 280053Z AUTO 05006KT 10SM CLR M04/M14 A3061 RMK AO2 SLP373 T10391144
KBWI 280054Z 32005KT 10SM CLR M03/M14 A3055 RMK AO2 SLP348 T10331139
KBWP 280135Z AUTO 18008KT 10SM CLR M13/M19 A3041 RMK AO1
KBXA 280135Z AUTO 01006KT 10SM 06/01 A3038 RMK AO2 T00570007
KBXK 280135Z AUTO 20009G19KT 10SM CLR 20/06 A2963 RMK AO1
KBYG 280053Z AUTO 30005KT 10SM CLR M09/M16 A2985 RMK AO2 SLP186 T10891161
KBYH 272055Z 03010KT 10SM BKN028 M04/M09 A3058
KBYI 280053Z AUTO 07008KT 10SM BKN080 04/M03 A2967 RMK AO2 SLP050 T00441028
KBYS 280055Z AUTO 24031G41KT 10SM CLR 15/05 A2958 RMK AO2 PK WND 24042/0043 LTG DSNT NW SLP020 T01450047 $
KBYY 280135Z AUTO 06008KT 10SM CLR 05/03 A3028 RMK AO2 T00560033
KBZN 280056Z 23005KT 10SM FEW055 BKN065 OVC100 M03/M11 A2987 RMK AO2 SLP177 T10281106
KC09 280135Z AUTO 00000KT 10SM CLR M16/M20 A3065 RMK AO2 T11651200
KC29 280135Z AUTO 22004KT 10SM CLR M13/M21 A3057 RMK AO1 T11301215
KC35 280135Z AUTO 25006KT 10SM CLR M12/M20 A3055 RMK AO2 T11231200
KC75 280135Z AUTO 00000KT 10SM CLR M18/M23 A3066 RMK AO2 T11851230
KCAD 280135Z AUTO 22005KT 10SM CLR M15/M18 A3046 RMK AO2 T11551190
KCAE 280056Z 00000KT 10SM SCT250 07/02 A3039 RMK AO2 SLP291 T00720022
KCAG 280053Z AUTO 00000KT 10SM CLR M02/M11 A2974 RMK AO2 SLP125 T10171111 $
KCAK 280151Z 24003KT 10SM CLR M14/M20 A3060 RMK AO2 SLP393 T11391200
KCAO 280127Z AUTO 17018KT 3SM -SN BR BKN013 OVC019 M11/M13 A3002 RMK AO2 P0000 T11111133
KCAR 280054Z AUTO 25007KT 10SM CLR M14/M23 A3025 RMK AO2 SLP266 T11391233 $
KCAV 280135Z AUTO 15008KT 10SM CLR M20/M23 A3055 RMK AO2
KCBE 280149Z AUTO 33006KT 10SM CLR M06/M17 A3064 RMK AO1
KCBF 280135Z AUTO 12004KT 10SM FEW031 M11/M16 A3050 RMK AO2
KCBG 280141Z AUTO 19004KT 10SM CLR M12/M18 A3047 RMK AO2
KCBK 280135Z AUTO 15012G15KT 10SM SCT021 OVC027 M08/M11 A3024 RMK AO2
KCBM 280058Z AUTO 01008KT 10SM BKN140 OVC160 02/M07 A3049 RMK AO2 CIG 120 RWY13C SLP330 T00231069 $
KCCA 280135Z AUTO 04003KT 9SM -SN OVC055 M05/M08 A3057 RMK AO2
KCCO 280135Z AUTO 01009KT 10SM CLR 04/M06 A3039 RMK AO2 T00361061
KCCR 280053Z 25015KT 10SM CLR 16/06 A2973 RMK AO2 SLP055 T01560061
KCCU 280135Z AUTO 25007KT 1 1/4SM -SN SCT002 BKN008 OVC065 M11/M15 A2966 RMK AO2
KCCY 280135Z AUTO 19005KT 10SM CLR M18/M21 A3056 RMK AO2
KCDA 280135Z AUTO 24003KT 10SM CLR M13/M24 A3040 RMK AO2 T11271243
KCDC 280053Z AUTO 22006KT 10SM FEW085 05/M05 A2964 RMK AO2 SLP036 T00501050
KCDD 280128Z AUTO 25003KT 10SM CLR M11/M27 A3035 RMK AO2
KCDH 280135Z AUTO 10SM CLR M02/M09 A3052 RMK AO2
KCDJ 280152Z AUTO 00000KT M09/M16 A3061 RMK AO1 SLP397 T10941156
KCDN 280155Z AUTO 04004KT 10SM CLR 05/M00 A3044 RMK AO2 TSNO
KCDR 280053Z AUTO 18013KT 10SM BKN033 M07/M13 A3003 RMK AO2 SLP237 T10671128
KCDS 280053Z AUTO 10007KT 5SM -SN BR BKN013 OVC019 M09/M11 A3036 RMK AO2 SNB03 SLP309 P0000 T10891111
KCDW 280053Z AUTO 32004KT 10SM CLR M06/M18 A3053 RMK AO2 SLP345 T10561178 TSNO
KCEC 280144Z AUTO 00000KT 4SM RA BR FEW011 BKN042 OVC050 09/09 A2981 RMK AO2 P0007 T00940089
KCEF 280058Z 31007KT 10SM CLR M09/M19 A3046 RMK AO2A SLP326 T10901192
KCEU 280054Z AUTO 00000KT 10SM CLR 08/M03 A3038 RMK AO2 SLP291 T00831033
KCEW 280053Z AUTO 36004KT 10SM CLR 08/01 A3033 RMK AO2 SLP270 T00830006
KCEY 280135Z AUTO 04009KT 10SM BKN070 OVC080 M05/M12 A3060 RMK AO1
KCEZ 280053Z AUTO 00000KT 4SM -SN BR SCT038 OVC065 00/M01 A2976 RMK AO2 SNEMMB28 SLP080 P0000 T00001011 $
KCFD 280135Z AUTO 01009KT 10SM OVC030 03/M03 A3038 RMK AO2 T00251035
KCFE 280125Z AUTO 18004KT 10SM CLR M13/M18 A3051 RMK AO2
KCFS 280134Z AUTO 00000KT 10SM CLR M15/M19 A3056 RMK AO2 T11461192
KCFV 280152Z AUTO 09003KT 10SM OVC060 M08/M11 A3055 RMK AO2 SNE0057 SLP360 P0000 T10781111
KCGC 280135Z AUTO 06007KT 10SM BKN028 OVC033 12/05 A3026 RMK AO2
KCGE 280149Z AUTO 36004KT 10SM CLR M02/M10 A3058 RMK AO1
KCGF 280145Z 20004KT 10SM SKC M15/M18 A3063
KCGI 280053Z AUTO 02007KT 10SM OVC095 M05/M12 A3063 RMK AO2 SLP378 T10501122 TSNO
KCGS 280145Z AUTO 35008KT 10SM CLR M02/M13 A3060 RMK AO1
KCGZ 280135Z AUTO 23007KT 10SM CLR 21/01 A2965 RMK AO1
KCHA 280053Z 03008KT 10SM CLR 02/M10 A3048 RMK AO2 SLP325 T00171100
KCHD 280147Z 22014KT 15SM SCT150 BKN250 21/04 A2964
KCHK 280135Z AUTO 08007KT 10SM CLR M07/M09 A3045 RMK AO2
KCHO 280153Z 00000KT 10SM CLR M03/M12 A3053 RMK AO2 SLP344 T10281117
KCHS 280056Z 09004KT 10SM SCT200 07/02 A3042 RMK AO2 SLP300 T00670017
KCIC 280047Z 18010KT 25SM BKN150 BKN250 18/04 A2964
KCID 280152Z 00000KT 10SM CLR M20/M23 A3060 RMK AO2 SLP392 T12001228
KCIN 280135Z AUTO 17004KT 10SM CLR M16/M20 A3053 RMK AO2
KCIR 280135Z AUTO 03008KT 10SM BKN060 OVC065 M03/M11 A3064 RMK AO2 T10351115
KCIU 280135Z AUTO 00000KT 10SM CLR M16/M17 A3045 RMK AO1
KCJR 280137Z AUTO 01003KT 10SM CLR M03/M13 A3057 RMK AO2
KCKB 280053Z 31004KT 10SM CLR M08/M17 A3056 RMK AO2 SLP367 T10831167
KCKC 280133Z AUTO 25004KT 10SM SCT090 M14/M26 A3028 RMK AO2
KCKF 280135Z AUTO 06003KT 10SM CLR 08/05 A3036 RMK AO2 T00760048
KCKI 280155Z AUTO 00000KT 10SM CLR 06/06 A3044 RMK AO2
KCKM 280135Z AUTO 01010G17KT 10SM FEW050 BKN065 OVC080 M02/M05 A3055 RMK AO1
KCKN 280134Z AUTO 21008KT 10SM CLR M14/M18 A3038 RMK AO2
KCKP 280135Z AUTO 16004KT 10SM CLR M17/M20 A3051 RMK AO2 T11701204
KCKV 280152Z AUTO 01008KT 10SM OVC100 M05/M12 A3062 RMK AO2 SLP376 T10501117
KCLE 280151Z 22004KT 10SM CLR M13/M19 A3066 RMK AO2 SLP403 T11281194 $
KCLI 280135Z AUTO 24004KT 10SM CLR M11/M21 A3051 RMK AO2
KCLK 280135Z AUTO 7SM -SN SCT017 OVC033 M08/M11 A3040 RMK AO2 TSNO
KCLL 280053Z 02010KT 10SM OVC030 04/M03 A3034 RMK AO2 SLP276 T00391033
KCLM 280053Z AUTO 13004KT 10SM BKN037 OVC047 08/06 A2986 RMK AO2 RAE47 SLP111 P0001 T00780061
KCLS 280155Z AUTO 01010KT 10SM FEW044 BKN050 OVC060 09/08 A2977 RMK AO2
KCLT 280152Z 06008KT 350V080 10SM CLR 05/M06 A3044 RMK AO2 SLP312 T00501056
KCLW 280135Z AUTO 06007KT 020V100 10SM OVC024 15/08 A3022 RMK AO2
KCMA 280055Z 25007KT 10SM CLR 18/11 A2973 RMK AO2 SLP076 T01780111
KCMD 280135Z AUTO 34004KT 10SM CLR M01/M09 A3048 RMK AO2 T10151091
KCMH 280151Z 01003KT 10SM CLR M12/M19 A3064 RMK AO2 SLP394 T11171194
KCMI 280153Z 00000KT 10SM CLR M14/M19 A3064 RMK AO2 SLP396 T11391194
KCMX 280053Z AUTO 26011KT 10SM CLR M12/M22 A3034 RMK AO2 SLP306 T11221217
KCMY 280135Z AUTO 24003KT 10SM CLR M14/M21 A3057 RMK AO2 T11391210
KCNB 280134Z AUTO 16005KT 10SM CLR M14/M18 A3045 RMK AO2 T11381183
KCNC 280135Z AUTO 16004KT 10SM CLR M14/M20 A3058 RMK AO2
KCNI 280135Z AUTO 00000KT 10SM CLR 00/M08 A3041 RMK AO2
KCNK 280055Z AUTO 15006KT 10SM CLR M11/M16 A3046 RMK AO2 SLP345 T11061161
KCNM 280053Z AUTO 12008KT 10SM OVC016 M03/M08 A3013 RMK AO2 SLP216 T10331078 $
KCNO 280053Z 26007KT 9SM SCT027 BKN050 16/10 A2977 RMK AO2 SLP078 T01610100
KCNU 280152Z AUTO 06005KT 8SM -SN OVC070 M08/M12 A3053 RMK AO2 SNE06B44 SLP357 P0000 T10781117
KCNW 280052Z 01007KT 10SM OVC032 M01/M03 A3040
KCNY 280053Z AUTO 07010KT 10SM SCT065 06/M06 A2969 RMK AO2 SLP055 T00611056
KCOD 280135Z 32003KT 10SM CLR M07/M12 A2986 RMK AO1
KCOE 280135Z AUTO 02015G18KT 10SM CLR 04/M08 A2981 RMK AO1
KCOF 280150Z AUTO 34013KT 9SM -RA OVC004 15/14 A3023 RMK AO2 DZE04RAB04E45RAB50 $
KCOM 280135Z AUTO 05009KT 4SM BR OVC008 M05/M05 A3034 RMK AO2 T10471050
KCON 280151Z AUTO 00000KT 10SM CLR M14/M21 A3045 RMK AO2 SLP321 T11391206
KCOQ 280137Z AUTO 22006KT 10SM CLR M12/M23 A3039 RMK AO2
KCOS 280123Z 13008KT 2SM -SN BR BKN014 BKN025 BKN150 M13/M14 A2990 RMK AO2 SFC VIS 2 1/2 P0000 T11281144
KCOT 280053Z AUTO 04004KT 9SM OVC020 03/00 A3026 RMK AO2 SLP246 T00330000
KCOU 280054Z 07009KT 10SM OVC110 M09/M16 A3058 RMK AO2 SLP376 T10891156
KCPC 280130Z AUTO 04003KT 10SM CLR 06/00 A3044 RMK AO2 T00561001
KCPK 280135Z AUTO 00000KT 10SM CLR 00/M03 A3055 RMK AO2
KCPR 280053Z 00000KT 10SM CLR M04/M12 A2980 RMK AO2 SLP161 T10441117
KCPS 280053Z AUTO 07005KT 10SM BKN120 M08/M17 A3066 RMK AO2 SLP391 T10831167 TSNO
KCPT 280135Z AUTO 05008KT 5SM -RA BKN010 OVC016 M03/M04 A3041 RMK AO2
KCPW 280134Z AUTO 21017G22KT 1/2SM SN OVC001 M12/M13 A2973 RMK AO2
KCQB 280135Z AUTO 08006KT 10SM SCT014 OVC050 M06/M07 A3050 RMK AO2
KCQC 280153Z AUTO 13011KT 7SM -SN OVC006 M12/M14 A2985 RMK AO2 CIG 004V008 SLP182 P0001 T11221144
KCQF 280135Z AUTO 01007KT 10SM CLR 08/00 A3034 RMK AO2
KCQM 280135Z AUTO 22005KT 10SM CLR M12/M23 A3034 RMK AO2
KCQT 280147Z AUTO VRB04KT 10SM OVC050 16/11 A2976 RMK AO2 SLPNO T01610106
KCQW 280135Z AUTO 05005KT 10SM CLR 03/M03 A3045 RMK AO2
KCQX 280052Z AUTO 30003KT 10SM CLR M11/M15 A3045 RMK AO2 SLP313 T11061150
KCRE 280053Z 00000KT 10SM CLR 04/02 A3043 RMK AO1 SLP304 T00440017
KCRG 280104Z 04014G21KT 10SM SCT023 BKN033 OVC040 11/05 A3033 RMK AO2 T01060050
KCRH 280135Z AUTO 07021KT 9SM FEW029 SCT034 SCT047 10/04 A3032 RMK A01
KCRP 280151Z 05016G21KT 7SM OVC010 09/07 A3021 RMK AO2 PK WND 05027/0129 RAE25 SLP230 P0000 T00940072 $
KCRQ 280134Z AUTO 21007KT 9SM BKN018 BKN036 OVC050 16/12 A2976 RMK AO2 T01610117 TSNO $
KCRS 280053Z AUTO 06009KT 10SM UP OVC046 00/M07 A3041 RMK AO2 UPB16 SLP302 P0000 T00001072
KCRW 280154Z 05004KT 10SM CLR M08/M16 A3060 RMK AO2 SLP380 T10781156 $
KCRX 280135Z AUTO 01008KT 10SM OVC085 01/M13 A3054 RMK AO2
KCSG 280151Z AUTO 03007G14KT 10SM CLR 07/M06 A3038 RMK AO2 SLP288 T00721056
KCSM 280053Z AUTO 08009KT 4SM -SN OVC013 M08/M11 A3038 RMK AO2 SLP315 P0000 T10831111
KCSQ 280135Z AUTO 13005KT 10SM CLR M14/M19 A3054 RMK AO2
KCSV 280153Z AUTO 02006KT 10SM CLR M05/M13 A3047 RMK AO2 SLP343 T10501128
KCTB 280128Z AUTO 34010KT 2SM -SN BKN019 OVC026 M09/M12 A3005 RMK AO2 P0000 T10941122
KCTJ 280135Z AUTO 36006KT 10SM CLR 01/M07 A3043 RMK AO2
KCTY 280153Z AUTO 05006KT 10/03 A3031 RMK AO1 SLP264 T01000028
KCTZ 280135Z AUTO 02005KT 10SM CLR 05/M01 A3048 RMK AO2 T00481009
KCUB 280053Z AUTO 00000KT 10SM FEW055 07/02 A3041 RMK AO2 SLP297 T00720022
KCUH 280135Z AUTO 06005KT 10SM -SN OVC018 M08/M09 A3051 RMK AO2
KCUL 280135Z AUTO 03005KT 10SM OVC090 M06/M12 A3066 RMK AO2 T10601117
KCUT 280053Z AUTO VRB05KT 3SM -SN FEW014 OVC020 M11/M14 A2986 RMK AO2 SLP218 P0000 T11111139
KCVB 280135Z AUTO 04010G16KT 5SM BR OVC007 01/00 A3032 RMK AO2 T00070000
KCVC 280135Z AUTO 33007KT 10SM CLR 06/M02 A3038 RMK AO2
KCVG 280152Z 34005KT 10SM BKN230 M10/M17 A3064 RMK AO2 SLP391 T11001172
KCVH 280130Z AUTO 26012KT 10SM OVC045 15/09 A2979 RMK AO1
KCVN 280135Z AUTO 14009KT 10SM OVC017 M11/M14 A3012 RMK AO1
KCVO 280135Z AUTO 14006KT 10SM SCT015 BKN046 OVC050 10/08 A2971 RMK AO1 P0001
KCVS 280058Z 14010KT 6SM -SN OVC003 M11/M13 A3010 RMK SLP247 P0000 T11081126 $
KCVW 280135Z AUTO 06005KT 10SM BKN037 07/02 A3040 RMK A01
KCVX 280134Z AUTO 00000KT 10SM OVC029 M10/M15 A3051 RMK AO2 T11051152
KCWA 280050Z 25004KT 10SM SKC M13/M20 A3047
KCWC 280135Z AUTO 04007KT 7SM -SN SCT012 SCT070 M06/M07 A3044 RMK AO2 T10591074
KCWF 272350Z 08006KT 10SM SKC 09/02 A3034
KCWI 280135Z AUTO 00000KT 10SM CLR M18/M20 A3065 RMK AO1
KCWN 280131Z AUTO 15005KT 6SM -SN OVC011 M15/M16 A2953 RMK AO2 CIG 004V011 $
KCWV 280135Z AUTO 00000KT 10SM CLR 06/05 A3039 RMK AO2
KCXE 280135Z AUTO 00000KT 10SM CLR 00/M07 A3050 RMK AO1 T10041071
KCXO 280053Z 04008KT 10SM OVC044 06/M02 A3034 RMK AO2 SLP273 T00611017
KCXP 280135Z AUTO 28006KT 10SM SCT050 BKN060 OVC075 07/M05 A2964 RMK AO2
KCXY 280056Z 29009KT 10SM CLR M06/M17 A3057 RMK AO2 SLP360 T10561172
KCYS 280109Z 19012KT 9SM OVC014 M12/M16 A2984 RMK AO2 T11171156
KCZT 280135Z AUTO 05004KT 2 1/2SM DZ BKN005 OVC013 01/01 A3029 RMK AO2
KCZZ 280152Z AUTO 23010KT 11/08 A2975 RMK AO1 SLP064 T01060083
KD07 280056Z AUTO 15011KT M05/M16 A3006 RMK AO1 SLP241 T10501156
KD25 280135Z AUTO 23004KT 10SM CLR M14/M24 A3039 RMK AO2 T11411240
KD39 280132Z AUTO 18005KT 10SM CLR M15/M20 A3044 RMK AO2 T11551200
KD50 280135Z AUTO 04004KT 10SM BKN049 M14/M17 A3009 RMK AO2
KD57 280135Z AUTO 11006KT 10SM FEW050 M12/M17 A3012 RMK AO2
KD60 280135Z AUTO 13008KT 10SM CLR M12/M15 A3009 RMK AO2
KD95 280133Z AUTO 22003KT 10SM CLR M15/M20 A3057 RMK AO2 T11521199
KDAA 280058Z AUTO 00000KT 10SM CLR M03/M12 A3057 RMK AO2 SLP356 T10311117
KDAB 280053Z 01010G18KT 3SM -RA BR OVC013 13/11 A3027 RMK AO2 RAB49 SLP249 P0000 T01280106
KDAG 280150Z AUTO 26029G38KT 10SM CLR 16/03 A2962 RMK AO2 PK WND 25038/0144 SLP019 T01610033
KDAL 280053Z 07008KT 6SM -SN OVC049 M03/M07 A3045 RMK AO2 SNB53 SLP314 P0000 T10281067
KDAN 280153Z AUTO 01005KT 10SM CLR 00/M11 A3052 RMK AO2 SLP334 T00001111
KDAW 280151Z AUTO 30007KT 10SM CLR M09/M22 A3044 RMK AO2 SLP310 T10891222
KDAY 280056Z 05004KT 10SM CLR M11/M18 A3062 RMK AO2 SLP392 T11111178
KDBN 280135Z AUTO 00000KT 10SM CLR 06/06 A3040 RMK AO2
KDBQ 280153Z AUTO 22003KT 10SM CLR M21/M25 A3058 RMK AO2 SLP396 T12111250
KDCA 280152Z 36010KT 10SM CLR M02/M12 A3060 RMK AO2 SLP362 T10171122
KDCM 280155Z AUTO 06005KT 10SM CLR 05/M01 A3044 RMK AO2
KDCU 280053Z AUTO 10SM CLR M01/M09 A3048 RMK AO2 SLP329 T10111089
KDCY 280135Z AUTO 30003KT 10SM CLR M09/M17 A3066 RMK AO2 T10911168
KDDC 280152Z AUTO 15011KT 8SM FEW014 OVC060 M11/M14 A3032 RMK AO2 SNB28E38 SLP313 P0000 T11111144
KDDH 280054Z AUTO 23005KT 10SM CLR M11/M18 A3046 RMK AO2 SLP332 T11061183
KDEC 280054Z 18003KT 10SM CLR M13/M19 A3065 RMK AO2 SLP396 T11331189
KDED 280135Z AUTO 35008KT 10SM BKN013 A3028 RMK AO1
KDEH 280135Z AUTO 00000KT 10SM CLR M18/M23 A3055 RMK AO2
KDEN 280053Z 33009KT 10SM SCT050 BKN090 M11/M15 A2990 RMK AO2 SLP208 T11111150
KDEQ 280104Z AUTO 06005KT 3SM -SN OVC045 M03/M06 A3047 RMK AO2 P0000 T10281061
KDET 280053Z 28003KT 10SM CLR M08/M19 A3060 RMK AO2 SLP377 T10831189
KDEW 280053Z AUTO 05012KT 10SM CLR 06/M07 A2982 RMK AO2 SLP113 T00611067
KDFI 280053Z AUTO 00000KT 10SM CLR M14/M19 A3063 RMK AO2 SLP393 T11391194
KDFW 280131Z 07008KT 3SM -SN BR FEW009 SCT013 OVC050 M03/M06 A3044 RMK AO2 FZDZE30 SCT V BKN P0001 I1000 T10331056
KDGW 280053Z AUTO 15009KT 10SM CLR M07/M12 A2984 RMK AO2 SLP178 T10671122
KDHN 280053Z 02003KT 10SM CLR 08/01 A3035 RMK AO2 SLP280 T00830006
KDHT 280127Z AUTO 17013KT 6SM -SN BKN011 OVC033 M09/M12 A3014 RMK AO2 P0000 T10941122
KDIJ 280056Z AUTO 01005KT 8SM OVC046 M03/M06 A2972 RMK AO2 T10331061 SNE26 P0000 SLP075
KDIK 280056Z AUTO 14009KT 10SM OVC049 M07/M14 A3002 RMK AO2 SLP222 T10671144
KDKB 280135Z AUTO 24005KT 10SM CLR M18/M22 A3062 RMK AO2 T11761225
KDKK 280053Z AUTO 20007KT 10SM CLR M16/M19 A3062 RMK AO2 SLP390 T11611189
KDKR 280130Z AUTO 04010KT 10SM SCT050 OVC090 03/M02 A3042 RMK AO2
KDLF 280128Z AUTO 11006KT 10SM BKN006 OVC017 03/02 A3025 RMK AO2 CIG 005V013
KDLH 280055Z 24008KT 10SM CLR M10/M22 A3036 RMK AO2 SLP323 T11001217
KDLL 280130Z AUTO 23006KT 10SM CLR M13/M21 A3054 RMK AO2 T11351206
KDLN 280053Z AUTO 05019KT 10SM SCT055 OVC090 M04/M13 A2976 RMK AO2 PK WND 05026/0042 SLP135 T10441128
KDLP 280135Z AUTO 03012KT 10SM OVC029 13/05 A3031 RMK A01
KDLS 280101Z AUTO 24007KT 5SM -RA BR FEW020 SCT029 OVC040 07/06 A2978 RMK AO2 P0000 T00720056
KDLZ 280147Z AUTO 33003KT 10SM SCT110 M17/M21 A3063 RMK AO2
KDMA 280058Z AUTO 24013G21KT 10SM CLR 21/M01 A2969 RMK AO2 SLP030 T02081008 $
KDMH 280054Z AUTO M02/M13 A3056 RMK AO1 SLP347 T10221133
KDMN 280053Z AUTO 12009KT 10SM CLR 11/M04 A2981 RMK AO2 SLP078 T01061044
KDMO 280053Z AUTO 07005KT 10SM OVC095 M07/M16 A3058 RMK AO2 SLP373 T10671161
KDMW 280150Z AUTO 30007KT 10SM SCT090 M07/M17 A3056 RMK AO2
KDNL 280053Z AUTO 02004KT 10SM CLR 11/00 A3038 RMK AO2 SLP286 T01060000
KDNN 280135Z AUTO 35007KT 10SM CLR 00/M06 A3046 RMK AO2
KDNS 280135Z AUTO 12004KT 10SM CLR M16/M20 A3050 RMK AO2
KDNV 280135Z AUTO 36005KT 10SM CLR M14/M18 A3063 RMK AO2 T11401183
KDOV 280058Z AUTO 35004KT 10SM CLR M06/M11 A3057 RMK AO2 SLP356 T10561113
KDPA 280152Z 22004KT 10SM CLR M16/M22 A3063 RMK AO2 SLP392 T11611222
KDPL 280135Z AUTO 01004KT 10SM SCT100 03/M02 A3048 RMK AO2 T00321022
KDQH 280135Z AUTO 07003KT 10SM CLR 09/04 A3038 RMK AO2
KDRA 280052Z AUTO 20011KT 10SM CLR 15/M06 A2957 RMK AO2 SLP988 T01501056
KDRI 280135Z AUTO 00000KT 10SM BKN100 05/M03 A3041 RMK AO2 T00481032
KDRM 280135Z AUTO 27003KT 10SM SCT023 M12/M16 A3047 RMK AO2 T11251160
KDRO 280143Z AUTO 06005KT 9SM FEW009 BKN023 BKN042 M04/M05 A2976 RMK AO2 T10391050
KDRT 280111Z AUTO 11006KT 4SM BR BKN006 OVC011 03/02 A3024 RMK AO2 CIG 004V009 T00330022
KDSM 280054Z 19004KT 10SM FEW250 M12/M19 A3058 RMK AO2 SLP379 T11171194
KDSV 280054Z AUTO 00000KT 10SM CLR M14/M22 A3059 RMK AO2 SLP386 T11391217
KDTA 280135Z AUTO 06007KT 10SM CLR 05/M08 A2967 RMK AO1 T00471078
KDTL 280135Z AUTO 19006KT 10SM CLR M13/M18 A3038 RMK AO2
KDTN 280053Z 06006KT 10SM OVC085 00/M08 A3046 RMK AO2 SLP314 T00001078
KDTO 280103Z 05008KT 9SM FEW009 BKN026 OVC060 M05/M07 A3045 RMK AO2 T10501067
KDTS 280053Z AUTO 03003KT 10SM CLR 11/03 A3030 RMK AO2 SLP261 T01110028 TSNO
KDTW 280053Z 18006KT 10SM FEW050 M13/M19 A3061 RMK AO2 SLP383 T11281194
KDUA 280135Z AUTO 03006KT 10SM UP SCT009 OVC070 M05/M06 A3048 RMK AO2
KDUB 280135Z AUTO 19003KT 10SM OVC034 M11/M13 A2972 RMK AO2
KDUC 280135Z AUTO 08005KT 5SM BR SCT055 OVC070 M06/M07 A3044 RMK AO2
KDUG 280056Z AUTO 23017G27KT 10SM CLR 18/M04 A2977 RMK AO2 PK WND 23030/0030 SLP045 T01781039
KDUH 280134Z AUTO 00000KT 10SM CLR M11/M19 A3064 RMK AO2
KDUJ 280153Z AUTO 26003KT 10SM CLR M14/M21 A3050 RMK AO2 SLP374 T11441211
KDUX 280135Z AUTO 14011KT 10SM -SN SCT006 SCT010 OVC031 M10/M13 A3017 RMK AO2 T11031128
KDVK 280135Z AUTO 00000KT 10SM CLR M08/M13 A3062 RMK AO2
KDVL 280135Z AUTO 18007KT 10SM CLR M14/M19 A3026 RMK AO1
KDVN 280152Z AUTO 00000KT 10SM CLR M20/M24 A3064 RMK AO2 SLP401 T12001239
KDVO 280135Z AUTO 27017G24KT CLR 13/07 A2974 RMK AO2
KDVP 280133Z AUTO 00000KT 10SM CLR M17/M20 A3043 RMK AO2 T11671202
KDVT 280053Z 21013KT 10SM CLR 21/01 A2961 RMK AO2 SLP015 T02110006
KDWH 280053Z 06007KT 10SM OVC041 08/00 A3031 RMK AO2 SLP264 T00780000
KDWU 280135Z AUTO 03005KT 10SM CLR M07/M14 A3062 RMK AO1
KDWX 280135Z AUTO 00000KT 10SM CLR M04/M10 A2977 RMK AO2 T10361100
KDXR 280053Z 00000KT 10SM CLR M11/M17 A3048 RMK AO2 SLP331 T11061172
KDXX 280133Z AUTO 19007KT 10SM CLR M14/M19 A3045 RMK AO2
KDYA 280135Z AUTO 36004KT 10SM CLR 04/M04 A3045 RMK AO2 T00381043
KDYB 280135Z AUTO 00000KT 10SM CLR 06/03 A3043 RMK AO1
KDYL 280054Z AUTO 28004KT 10SM CLR M07/M15 A3052 RMK AO2 SLP346 T10671150
KDYR 280135Z 03010KT 10SM BKN060 M04/M16 A3061 RMK AO1
KDYS 280103Z AUTO 06008KT 7SM -FZDZ OVC005 M07/M08 A3033 RMK AO2 $
KDYT 280133Z AUTO 21009KT 10SM CLR M09/M21 A3045 RMK AO2
KDZB 280135Z AUTO 06006KT OVC005 M01/M01 A3033 RMK AO2 T10151015 PWINO
KE11 280135Z AUTO 09011KT 10SM OVC006 M08/M08 A3019 RMK AO2 T10791085
KE16 280135Z AUTO 29009G14KT 10SM CLR 13/05 A2979 RMK AO2
KE38 280135Z AUTO 04005KT 3SM OVC002 M04/M04 A3011 RMK AO2 T10361041
KE80 280135Z AUTO 03006KT 7SM -SN SCT003 BKN008 OVC022 M02/M03 A2988 RMK AO2 T10251026
KEAR 280135Z 17009KT 10SM CLR M11/M21 A3036 RMK AO1
KEAT 280055Z AUTO 30007KT 10SM FEW038 OVC120 07/02 A2983 RMK AO2 SLP106 T00720022
KEAU 280056Z 22006KT 10SM CLR M13/M20 A3051 RMK AO2 SLP360 T11331200
KEBG 280135Z AUTO 36008KT 7SM OVC005 12/10 A3018 RMK AO2 T01200098
KEBS 280135Z AUTO 17004KT 10SM CLR M16/M19 A3054 RMK AO2
KECG 280054Z 03010KT 10SM CLR M01/M03 A3052 RMK AO2 SLP335 T10061033
KECP 280053Z 02004KT 10SM CLR 09/04 A3029 RMK AO2 SLP270 T00890039
KECS 280135Z AUTO 12012G16KT 10SM SCT042 M07/M12 A2994 RMK AO2
KECU 280130Z AUTO 00000KT 3SM BR OVC005 M01/M02 A3025 RMK AO2
KEDC 280135Z AUTO 01013KT 4SM -RA SCT008 OVC024 00/M01 A3035 RMK AO2
KEDE 280135Z AUTO 05003KT 10SM CLR 00/M03 A3053 RMK AO2 T10031026
KEDJ 280130Z AUTO 00000KT 10SM CLR M14/M19 A3062 RMK AO1
KEDN 280135Z AUTO 01004KT 10SM CLR 07/00 A3034 RMK AO2
KEDU 280135Z AUTO 26007KT 10SM CLR 16/04 A2966 RMK AO1
KEDW 280113Z 23021G27KT 20SM VCBLDU FEW048 SCT055 BKN290 14/07 A2967 RMK AO2A
KEED 280056Z AUTO VRB04KT 10SM FEW095 23/M03 A2956 RMK AO2 SLP993 T02281033
KEEN 280135Z AUTO 00000KT 10SM CLR M13/M19 A3045 RMK AO1
KEEO 280053Z AUTO 00000KT 10SM CLR M04/M11 A2973 RMK AO2 SLP115 T10391106
KEET 280053Z AUTO 03005KT 10SM CLR 04/M07 A3041 RMK AO2 SLP302 T00391072
KEFD 280050Z 02007KT 10SM FEW030 SCT100 08/01 A3030
KEFK 280135Z AUTO 00000KT 10SM CLR M15/M23 A3042 RMK AO2 T11511231
KEFT 280135Z AUTO 23006KT 10SM CLR M15/M20 A3057 RMK AO2
KEGE 280150Z 07005KT 8SM -SN BR BKN010 OVC040 M02/M04 A2978
KEGI 280055Z 01005KT 10SM FEW220 BKN300 07/02 A3030 RMK AO2A SLP264 T00710016 $
KEGV 280130Z AUTO 24004KT 10SM CLR M14/M23 A3038 RMK AO2 T11451227
KEHA 280148Z AUTO 15014KT M11/M16 RMK AO1 PK WND 20 000 T11061155
KEHC 280135Z AUTO 05027KT 10SM CLR 12/06 A3029 RMK A01
KEHO 280135Z AUTO 06004KT 10SM CLR 04/M03 A3042 RMK AO2 T00411027
KEHR 280135Z AUTO 02006KT 10SM SCT120 M06/M13 A3065 RMK AO1
KEHY 280135Z AUTO 10SM SCT043 M08/M13 A2970 RMK AO2
KEIK 280135Z AUTO 00000KT 10SM CLR M13/M15 A2994 RMK AO2 T11351152
KEIR 280135Z AUTO 06022KT 10SM OVC029 11/05 A3033 RMK A01
KEKM 280050Z 27004KT 10SM SCT110 M12/M21 A3062 RMK AO2
KEKN 280151Z AUTO 00000KT 9SM CLR M17/M18 A3051 RMK AO2 SLPNO T11671183 TSNO
KEKO 280056Z AUTO 17006KT 10SM FEW048 BKN070 05/M03 A2960 RMK AO2 SLP032 T00501028
KEKQ 280056Z AUTO 03007KT 10SM CLR M06/M13 A3060 RMK AO2 T10611127 SLP381
KELA 280135Z AUTO 05006KT 10SM OVC024 06/02 A3031 RMK AO2 T00610022
KELD 280053Z AUTO 05012KT 10SM OVC080 M01/M08 A3049 RMK AO2 SLP328 T10111078
KELK 280135Z AUTO 09006KT 10SM OVC014 M09/M11 A3041 RMK AO2
KELM 280053Z AUTO 00000KT 10SM CLR M14/M19 A3054 RMK AO2 SLP367 T11441194
KELN 280053Z AUTO 28006KT 10SM FEW050 FEW075 OVC090 08/02 A2978 RMK AO2 SLP090 T00780017
KELO 280121Z AUTO 22005KT 10SM CLR M12/M23 A3032 RMK AO2
KELP 280151Z 06007KT 10SM FEW070 FEW230 03/M06 A2990 RMK AO2 SLP118 T00331056
KELY 280053Z AUTO 24003KT 10SM BKN060 OVC080 04/M10 A2962 RMK AO2 SLP030 T00441100
KELZ 280056Z AUTO 29011KT 10SM CLR M16/M23 A3045 RMK AO2 SLP367 T11561228
KEMK 280135Z AUTO 05026KT 10SM OVC018 16/11 A3022 RMK A01
KEMM 280055Z AUTO 14003KT 10SM SCT045 BKN065 OVC085 M03/M07 A2969 RMK AO2
KEMP 280053Z AUTO 16006KT 5SM -SN BKN050 OVC070 M09/M13 A3051 RMK AO2 SNE30B46 SLP361 P0000 T10891128
KEMT 280145Z 25004KT 10SM BKN025 OVC035 16/11 A2977
KEMV 280135Z AUTO 00000KT 10SM CLR M01/M03 A3056 RMK AO2
KEND 280058Z AUTO 09006KT 10SM OVC075 M10/M12 A3045 RMK AO2 SLP337 T10961123 $
KENL 280135Z AUTO 05004KT 10SM CLR M09/M17 A3066 RMK AO2 T10911166
KENV 280135Z AUTO 27003KT 10SM SCT065 OVC100 07/M07 A2965 RMK AO1
KENW 280153Z 24006KT 10SM CLR M17/M22 A3061 RMK AO2 SLP388 T11671222
KEOE 280135Z AUTO 00000KT 10SM CLR 03/01 A3043 RMK AO2
KEOK 280135Z AUTO 12003KT 10SM SCT120 M13/M18 A3064 RMK AO2
KEPH 280053Z AUTO 36015G22KT 10SM CLR 09/01 A2978 RMK AO2 SLP091 T00890006
KEQA 280135Z AUTO 10004KT 7SM -SN OVC100 M08/M11 A3048 RMK AO2
KEQY 280053Z AUTO 05006KT 10SM CLR 04/M03 A3041 RMK AO2 SLP318 T00441028
KERI 280151Z 18005KT 10SM CLR M17/M21 A3063 RMK AO2 SLP392 T11671206
KERV 280135Z AUTO 04007KT 7SM UP OVC010 M02/M03 A3027 RMK AO2 T10181030
KERY 280134Z AUTO 20006KT 10SM CLR M15/M18 A3042 RMK AO2 T11551181
KESC 280135Z AUTO 22008KT 10SM CLR M11/M17 A3046 RMK AO1
KESF 280053Z AUTO 03005KT 10SM OVC110 03/M04 A3041 RMK AO2 SLP299 T00331044
KESN 272255Z 01005KT 10SM SKC M01/M09 A3054
KEST 280152Z AUTO 19008KT 10SM CLR M18/M21 A3049 RMK AO2 SLP367 T11781206
KETB 280130Z AUTO 22005KT 10SM CLR M13/M20 A3056 RMK AO2
KETC 280135Z AUTO 06006KT 10SM CLR 01/M02 A3053 RMK AO2 T00101025
KETH 280136Z AUTO 16008KT 10SM CLR M13/M19 A3044 RMK AO2
KEUF 280058Z AUTO 33004KT 10SM CLR 09/M01 A3034 RMK AO2 SLP274 T00891011 $
KEUG 280141Z 18010KT 10SM BKN022 BKN029 OVC040 09/07 A2972 RMK AO2 RAB18E41 P0001 T00940067
KEUL 280135Z AUTO 27009KT 10SM BKN060 BKN070 OVC100 08/M01 A2965 RMK AO1
KEVB 280147Z 36018G26KT 7SM OVC010 13/12 A3028
KEVM 280131Z AUTO 22004KT 10SM CLR M11/M23 A3035 RMK AO2
KEVV 280054Z 01007KT 10SM BKN120 M06/M14 A3066 RMK AO2 SLP391 T10611144
KEVW 280053Z AUTO 22004KT 10SM BKN055 M02/M08 A2968 RMK AO2 SLP081 T10171078
KEWB 280053Z 00000KT 10SM CLR M10/M13 A3044 RMK AO2 SLP308 T11001133
KEWK 280135Z AUTO 13007KT 10SM OVC100 M10/M14 A3047 RMK AO1
KEWN 280054Z 01003KT 10SM CLR 03/M03 A3047 RMK AO2 SLP316 T00331028 PNO
KEWR 280151Z 33011KT 10SM CLR M04/M16 A3056 RMK AO2 SLP347 T10441161
KEXX 280135Z AUTO 01003KT 10SM CLR 02/M05 A3046 RMK AO2 T00201051
KEYE 280053Z AUTO 33004KT 10SM CLR M12/M18 A3063 RMK AO2 SLP391 T11171183
KEYF 280135Z AUTO 00000KT 10SM CLR 05/00 A3046 RMK AO2 T00451003
KEYW 280053Z 02015G23KT 10SM FEW011 OVC019 20/18 A3012 RMK AO2 SLP200 T02000183
KEZF 280135Z AUTO 35007KT 10SM CLR M01/M10 A3057 RMK AO2 T10121104
KEZM 280135Z AUTO 00000KT 10SM CLR 06/06 A3040 RMK AO2 T00600060
KEZS 280135Z AUTO 23004KT 10SM CLR M10/M21 A3051 RMK AO2 T11051207
KF05 280135Z AUTO 07008KT 7SM SCT005 OVC013 M07/M10 A3043 RMK AO1 T10701097
KF17 280135Z AUTO 05006KT 10SM OVC100 00/M06 A3043 RMK AO2 T00011058
KF44 280135Z AUTO 06008KT 10SM OVC048 M01/M07 A3042 RMK AO2
KF46 280135Z AUTO 03007KT 10SM OVC048 M03/M05 A3044 RMK AO2 T10301054
KF70 280135Z AUTO 23008KT 10SM SCT018 BKN049 13/10 A2977 RMK AO1
KFAF 280058Z AUTO 08003KT 10SM CLR M02/M04 A3052 RMK AO2 SLP338 T10161043 $
KFAM 280135Z AUTO 10005KT 10SM BKN070 M07/M14 A3062 RMK AO1
KFAR 280053Z 18008KT 10SM CLR M11/M18 A3039 RMK AO2 SLP317 T11111178
KFAT 280053Z 33009KT 10SM FEW060 FEW080 17/06 A2973 RMK AO2 SLP064 T01720061
KFAY 280153Z AUTO 01007KT 10SM CLR 03/M03 A3047 RMK AO2 SLP316 T00281028
KFBG 280146Z AUTO 01003KT 10SM CLR 03/M04 A3047 RMK AO2
KFBL 280134Z AUTO 19004KT 10SM CLR M16/M19 A3052 RMK AO2
KFBR 280135Z AUTO 18007KT 1 1/2SM -SN BKN004 BKN014 OVC029 M03/M04 A2973 RMK AO2 T10351040
KFCI 280055Z AUTO 07004KT 10SM CLR M01/M11 A3053 RMK AO1
KFCM 280053Z 21004KT 10SM CLR M14/M19 A3051 RMK AO2 SLP358 T11391194
KFCS 280055Z 00000KT 1SM -SN BR OVC003 M13/M14 A2991 RMK CIG 001V004 RVRNO
KFDK 280145Z AUTO 34011KT 10SM CLR M04/M18 A3063 RMK AO2
KFDR 280053Z AUTO 07011KT 3SM BR SCT010 OVC018 M08/M09 A3040 RMK AO2 SNE33 SLP308 P0000 T10781094 $
KFDW 280155Z AUTO 05009KT 10SM CLR 06/01 A3041 RMK AO1
KFDY 280053Z AUTO 18003KT 10SM CLR M15/M21 A3062 RMK AO2 SLP387 T11501211
KFEP 280135Z AUTO 24006KT 10SM CLR M16/M22 A3063 RMK AO2 T11651220
KFET 280135Z AUTO 14006KT 10SM CLR M09/M15 A3049 RMK AO2 T10891153
KFEW 280056Z AUTO 21009KT 10SM -SN OVC013 M12/M15 A2980 RMK AO2 SLP192 T11221146 $
KFFA 280135Z AUTO 04006G14KT 10SM CLR 01/M02 A3050 RMK AO2 T00101016
KFFC 280053Z AUTO 34010KT 10SM CLR 05/M07 A3040 RMK AO2 SLP302 T00501072
KFFL 280135Z AUTO 09004KT 10SM CLR M16/M22 A3063 RMK AO2
KFFM 280134Z AUTO 16006KT 10SM CLR M15/M20 A3044 RMK AO2
KFFO 280058Z 02002KT 10SM FEW250 M11/M18 A3063 RMK AO2A SLP394 T11121185
KFFT 280053Z AUTO 00000KT 10SM CLR M07/M15 A3061 RMK AO2 SLP379 T10721150
KFFX 280135Z AUTO 20004KT 10SM CLR M13/M18 A3056 RMK AO2 T11301184
KFFZ 280047Z 23008KT 40SM BKN120 22/M01 A2963 RMK WIND ESTIMATED
KFGN 280134Z AUTO 22008KT 10SM CLR M13/M18 A3029 RMK AO2
KFGX 280135Z AUTO 02003KT 10SM CLR M09/M16 A3064 RMK AO2 T10931165
KFHB 280135Z AUTO 02010G20KT 10SM OVC046 12/05 A3034 RMK AO1
KFHR 280053Z AUTO 35008KT 10SM OVC065 09/02 A2987 RMK AO2 SLP113 T00940022
KFHU 280055Z 22017G23KT 10SM FEW070 SCT280 16/M02 A2977 RMK PK WND 21030/38 SLP054
KFIG 280054Z AUTO 25006KT 10SM CLR M12/M22 A3052 RMK AO2 SLP371 T11171217
KFIN 280135Z AUTO 36011KT 10SM OVC019 12/10 A3030 RMK AO2 T01200095
KFIT 280152Z AUTO 00000KT 10SM CLR M13/M19 A3047 RMK AO2 SLP327 T11331189
KFKA 280135Z AUTO 21004KT 10SM CLR M18/M21 A3053 RMK AO2 T11801211
KFKL 280135Z AUTO 00000KT 10SM CLR M15/M20 A3055 RMK AO1
KFKN 280135Z AUTO 03003KT 10SM CLR M02/M04 A3056 RMK AO2 T10161042
KFKR 280135Z AUTO 00000KT 10SM CLR M16/M19 A3067 RMK AO2 T11561190
KFKS 280132Z AUTO 23008KT 10SM BKN030 M08/M13 A3051 RMK AO2 T10801135
KFLD 280153Z AUTO 22008KT 10SM CLR M12/M19 A3055 RMK AO2 SLP366 T11221194
KFLG 280057Z 24013G25KT 10SM -RA BKN035 OVC048 04/M05 A2973 RMK AO2 RAB57 SLP056 P0000 T00391050
KFLL 280112Z 35006KT 10SM OVC016 20/18 A3014 RMK AO2 T02000183
KFLO 280053Z 08005KT 10SM CLR 06/M01 A3041 RMK AO2 SLP298 T00611006
KFLP 280135Z 10004KT 5SM CLR M07/M11 A3054 RMK AO1
KFLY 280132Z AUTO 17006KT 3SM -SN OVC016 M15/M16 A2987 RMK AO2 T11501165
KFME 280148Z AUTO 32005KT 10SM CLR M04/M13 A3061 RMK AO1
KFMH 280135Z AUTO 00000KT 10SM CLR M12/M15 A3045 RMK AO2 FZRANO
KFMM 280135Z AUTO 15010KT 10SM CLR M11/M15 A3002 RMK AO2 T11111147
KFMN 280058Z 10009KT 6SM -SN BR FEW008 BKN032 OVC070 00/M02 A2976 RMK AO2 P0000 T00001017
KFMY 280133Z 05010KT 10SM OVC009 14/13 A3018 RMK AO2 T01440128
KFNB 280053Z AUTO 14004KT 10SM SCT100 SCT120 M09/M19 A3054 RMK AO2 SLP363 T10941189
KFNL 280135Z AUTO 34003KT 10SM CLR M12/M17 A2995 RMK AO1
KFNT 280053Z 20005KT 10SM CLR M11/M18 A3057 RMK AO2 SLP374 T11061183
KFOA 280135Z AUTO 00000KT 10SM CLR M10/M16 A3068 RMK AO2 T11001161
KFOD 280135Z AUTO 15003KT 10SM CLR M17/M19 A3055 RMK AO1
KFOE 280053Z 05004KT 10SM BKN080 M07/M17 A3053 RMK AO2 SLP357 T10721172
KFOK 280053Z 00000KT 10SM CLR M11/M18 A3050 RMK AO2 SLP329 T11111178
KFOT 280135Z AUTO 31004KT 10SM FEW020 SCT024 OVC037 09/08 A2982 RMK AO1
KFOZ 280133Z AUTO 00000KT 10SM CLR M14/M25 A3034 RMK AO2
KFPK 280135Z AUTO 24003KT 10SM CLR M12/M18 A3057 RMK AO2 T11171176
KFPR 280134Z AUTO 06005KT 7SM SCT006 BKN013 OVC025 19/18 A3020 RMK AO2 RAB18E27 P0000 T01890183
KFQD 280135Z AUTO 35003KT 10SM CLR 03/M07 A3043 RMK AO2 T00261067
KFRG 280138Z 32008KT 10SM CLR M04/M16 A3053 RMK AO2 T10391161
KFRI 280058Z AUTO 08005KT 10SM BKN044 OVC055 M08/M16 A3051 RMK AO2 SLP352 T10781160
KFRM 280135Z AUTO 20005KT 10SM CLR M17/M21 A3048 RMK AO1
KFRR 280135Z AUTO 03003KT 10SM CLR M05/M15 A3055 RMK AO1
KFSD 280056Z 15009KT 10SM CLR M12/M17 A3042 RMK AO2 SLP342 T11171172
KFSE 280135Z AUTO 18008KT 10SM CLR M19/M22 A3036 RMK AO2
KFSI 280152Z AUTO 07006KT 1 1/4SM R35/3000FT -SN BR OVC017 M08/M09 A3041 RMK AO2 VIS 1V2 CIG 017V023 OVC V FEW
KFSM 280053Z 06006KT 4SM -SN OVC050 M05/M08 A3053 RMK AO2 SNB2358 SLP346 P0000 T10501083
KFSO 280135Z AUTO 00000KT 10SM CLR M18/M22 A3049 RMK AO2 T11761220
KFST 280119Z AUTO 07013KT 2 1/2SM BR OVC003 M04/M04 A3014 RMK AO2 I1001 T10391039
KFSW 280135Z AUTO 00000KT 10SM CLR M14/M20 A3064 RMK AO2
KFTG 272250Z 15012KT 10SM FEW120 SCT200 M07/M13 A2989
KFTK 280058Z AUTO 02005KT 10SM BKN140 M06/M15 A3059 RMK AO2 SLP375 T10581153
KFTN 280230Z AUTO 03009KT BKN004 BKN011 OVC021 02/02 A3028 RMK AO1
KFTW 280109Z 02008KT 2SM -SN BR OVC012 M03/M06 A3042 RMK AO2 P0000 T10331056
KFTY 280153Z 01003KT 10SM CLR 02/M07 A3042 RMK AO2 SLP305 T00171072
KFUL 280053Z 23006KT 10SM FEW032 FEW046 BKN060 17/11 A2975 RMK AO2 SLP073 T01720106
KFVE 280053Z AUTO 24007KT 10SM CLR M15/M23 A3020 RMK AO2 SLP252 T11501228
KFVX 280135Z AUTO 34003KT 10SM CLR 00/M05 A3051 RMK AO2 T10051053
KFWA 280054Z 26003KT 10SM FEW034 M14/M18 A3063 RMK AO2 SLP393 T11391178
KFWB 280135Z AUTO 07003KT 5SM -SN OVC070 M08/M10 A3050 RMK AO2 P0003
KFWC 280135Z AUTO 02003KT 10SM OVC120 M08/M15 A3067 RMK AO1 T10811147
KFWN 280053Z AUTO 32003KT 10SM CLR M07/M19 A3051 RMK AO2 SLP339 T10671194
KFWS 280135Z AUTO 04005KT 7SM -RA OVC011 M03/M04 A3043 RMK AO2 P0001 T10311043
KFWZ 280135Z AUTO 10SM BKN080 M08/M11 RMK AO2
KFXE 280053Z 34006KT 10SM BKN008 20/18 A3014 RMK AO2 SLP210 T02000183
KFXY 280135Z AUTO 17005KT 10SM CLR M20/M23 A3053 RMK AO2
KFYG 280135Z AUTO 00000KT 10SM OVC080 M08/M17 A3063 RMK AO2
KFYJ 280135Z AUTO 00000KT 10SM CLR M05/M08 A3058 RMK AO2 T10511078
KFYM 280135Z AUTO 01010KT 10SM CLR M03/M12 RMK
KFYV 280053Z 02003KT 2SM -SN BR OVC050 M07/M09 A3048 RMK AO2 SLP341 P0000 T10721089
KFZG 280135Z AUTO 08003KT 10SM CLR 09/04 A3038 RMK AO2 T00860035 PWINO
KFZY 280054Z AUTO 23007KT 10SM OVC037 M12/M19 A3057 RMK AO2 SLP364 T11221189
KGAD 280135Z 01004KT 10SM CLR 01/M08 A3043 RMK AO1
KGAG 280121Z AUTO 10006KT 10SM BKN017 OVC055 M10/M13 A3034 RMK AO2 T11001128
KGAI 280135Z AUTO 32007G16KT 310V010 10SM CLR M05/M17 A3060 RMK AO1
KGAO 280135Z AUTO 33005KT 10SM CLR 09/03 A3035 RMK AO2 T00910029
KGBD 280135Z AUTO 15010KT 10SM OVC024 M09/M15 A3041 RMK AO1
KGBG 280135Z AUTO 00000KT 10SM CLR M18/M21 A3064 RMK AO2 T11771209
KGBK 280135Z AUTO 04028KT 10SM BKN035 OVC043 17/13 A3019 RMK A01
KGCC 280053Z AUTO 18004KT 10SM CLR M07/M13 A2988 RMK AO2 SLP184 T10721128 TSNO
KGCD 280135Z AUTO 28004KT 10SM -RA SCT007 BKN020 OVC030 03/02 A2966 RMK AO2 T00310022
KGCK 280104Z 15014KT 10SM BKN019 OVC055 M11/M14 A3026 RMK AO2 T11111144
KGCM 280135Z AUTO 02004KT 5SM -SN CLR M07/M09 A3056 RMK AO2
KGCN 280111Z 00000KT 9SM FEW024 OVC046 01/M01 A2972 RMK AO2 SNE10 P0000 T00111006
KGDB 280133Z AUTO 17006KT 10SM CLR M17/M19 A3049 RMK AO2 T11681195
KGDJ 280135Z AUTO 35004KT 4SM -SN OVC009 M03/M04 A3044 RMK AO2 P0001 T10311045
KGDP 280151Z AUTO 05015KT 2SM BR OVC001 M08/M09 A2993 RMK AO2 SLP182 I1028 T10781094 PWINO FZRANO PNO $
KGDV 280135Z AUTO 29006KT 10SM FEW044 M08/M14 A3002 RMK AO1
KGED 280054Z AUTO 00000KT 10SM CLR M03/M11 A3056 RMK AO2 SLP350 T10331111
KGEG 280053Z 04014KT 10SM FEW060 SCT150 BKN200 07/M07 A2977 RMK AO2 SLP096 T00671072
KGEU 280147Z 17009KT 20SM FEW100 SCT150 BKN200 22/07 A2963
KGEV 280135Z AUTO 01003KT 10SM CLR M05/M11 A3035 RMK AO2 T10551112
KGEY 280053Z AUTO 00000KT 10SM OVC075 M03/M14 A2989 RMK AO2 SLP176 T10281144
KGEZ 280053Z AUTO 00000KT 10SM CLR M11/M18 A3063 RMK AO2 SLP391 T11061178
KGFA 280056Z AUTO 33009KT 10SM -SHSN BKN028 M08/M11 A3007 RMK AO2 SHSNE31SHSNB42 SLP274 T10791112 TSNO $
KGFK 280053Z 18008KT 10SM FEW250 M14/M19 A3035 RMK AO2 SLP307 T11441189
KGFL 280053Z AUTO 00000KT 10SM CLR M16/M19 A3048 RMK AO2 SLP339 T11561194
KGGE 280155Z AUTO 00000KT 10SM CLR 02/02 A3044 RMK AO2
KGGG 280053Z 06006KT 10SM BKN060 OVC085 M01/M07 A3044 RMK AO2 SLP314 T10061072
KGGI 280135Z AUTO 10003KT 10SM CLR M17/M20 A3059 RMK AO2 T11741201
KGGP 280135Z AUTO 25006KT 10SM CLR M17/M21 A3067 RMK AO2
KGGW 280153Z AUTO 32006KT 10SM CLR M11/M16 A3005 RMK AO2 SLP231 T11061161
KGHB 280135Z AUTO 05025G30KT 6SM HZ SCT016 BKN023 OVC028 14/11 A3027 RMK A01
KGHG 280135Z AUTO 25003KT 10SM CLR M11/M15 A3048 RMK AO2
KGHW 280045Z AUTO 18006KT 10SM CLR M16/M19 A3043 RMK AO2
KGIC 280135Z AUTO 04007KT 10SM OVC060 06/00 A2972 RMK AO1 T00600001
KGIF 280105Z AUTO 03010KT 10SM BKN018 OVC031 13/09 A3025 RMK AO2 T01330094
KGJT 280053Z 00000KT 10SM CLR 03/M04 A2973 RMK AO2 SLP069 T00331044
KGKJ 280053Z AUTO 00000KT M14/M21 A3054 RMK AO2 SLP379 T11391206 TSNO $
KGKT 280135Z AUTO 00000KT 10SM CLR M04/M08 A3048 RMK
KGKY 280119Z 03009KT 7SM UP BKN014 BKN021 OVC046 M03/M06 A3043 RMK AO2 SNB01E11B16E19 P0000 T10281061
KGLD 280053Z AUTO 17016G24KT 8SM -SN OVC044 M11/M13 A3016 RMK AO2 SNE14B43 SLP268 P0000 T11061133
KGLE 280135Z AUTO 02007KT 5SM -SN SCT013 BKN021 OVC037 M06/M08 A3047 RMK AO2 T10611078
KGLH 280053Z AUTO 02014KT 10SM OVC090 M01/M06 A3051 RMK AO2 SLP343 T10061056
KGLR 280153Z AUTO 23009KT 10SM BKN022 M14/M17 A3044 RMK AO2 SLP348 T11441172
KGLS 280152Z AUTO 06008KT 10SM OVC031 08/03 A3033 RMK AO2 SLP271 T00780033
KGLW 280135Z AUTO 05006KT 10SM CLR M05/M14 A3061 RMK AO2 T10521137
KGLY 280155Z AUTO 01003KT 10SM FEW046 M05/M15 A3058 RMK AO2
KGMJ 280135Z AUTO 06003KT 7SM -SN SCT040 BKN110 M06/M08 A3054 RMK AO2
KGMU 280153Z 01008KT 10SM CLR 04/M06 A3041 RMK AO2 SLP304 T00391056
KGNA 280056Z AUTO 30004KT M09/M19 A3035 RMK AO1 SLP304 T10941194
KGNC 280135Z AUTO 10011KT 10SM OVC006 M07/M08 A3019 RMK AO2 T10751085
KGNR 280056Z AUTO VRB06KT M15/M24 A3025 RMK AO1 SLP281 T11501239
KGNT 280135Z AUTO 17010KT 7SM BKN015 BKN024 OVC070 M04/M05 A2982 RMK AO2 T10451055
KGNV 280143Z 04009KT 10SM OVC029 09/04 A3033 RMK AO2 T00890039
KGOK 280053Z AUTO 05005KT 6SM HZ OVC017 M08/M11 A3048 RMK AO2 SLP340 T10781111
KGON 280056Z 32010KT 10SM CLR M06/M17 A3047 RMK AO2 SLP319 T10561172
KGOO 280140Z AUTO 20003KT 10SM CLR 09/04 A2967 RMK AO1
KGOP 280135Z AUTO 00000KT 4SM BR BKN006 OVC010 M01/M02 A3039 RMK AO2
KGOV 280135Z AUTO 00000KT 10SM CLR M19/M21 A3048 RMK AO2 T11861214
KGPH 280155Z AUTO 09006KT 10SM BKN075 OVC085 M08/M16 A3059 RMK AO2
KGPI 280055Z 02020G24KT 10SM CLR M02/M13 A2992 RMK AO2 SLP163 T10171128
KGPM 280135Z AUTO 04009KT 7SM BKN005 BKN012 OVC017 M03/M04 A3044 RMK AO2 T10301043
KGPT 280053Z 36008KT 10SM CLR 09/00 A3034 RMK AO2 SLP272 T00890000
KGPZ 280135Z AUTO 19005KT 10SM CLR M13/M23 A3034 RMK AO1
KGRB 280053Z 23004KT 10SM CLR M11/M18 A3051 RMK AO2 SLP350 T11061183
KGRD 280056Z AUTO 00000KT 10SM CLR 07/M01 A3039 RMK AO2 SLP292 T00671006
KGRF 280133Z AUTO 35010KT 10SM -RA SCT019 BKN039 08/08 A2977 RMK AO2
KGRI 280053Z 16009KT 10SM FEW120 M08/M19 A3039 RMK AO2 SLP340 T10831189
KGRK 280123Z 03009KT 5SM -FZRA OVC008 M02/M03 A3034 RMK A02A
KGRR 280153Z 23008KT 10SM CLR M12/M17 A3059 RMK AO2 SLP381 T11171172
KGRY 280140Z AUTO 08011G28KT 010V110 10SM SCT028 BKN034 OVC041 17/11 A3023 RMK A01
KGSB 280058Z AUTO 01001KT 10SM CLR 05/01 A3045 RMK AO2 SLP315 T00500005 $
KGSH 280153Z AUTO 20004KT 10SM CLR M15/M20 A3062 RMK AO2 SLP393 T11501200 $
KGSO 280054Z 03007KT 10SM CLR 02/M08 A3044 RMK AO2 SLP316 T00221078 $
KGSP 280053Z AUTO 05005KT 10SM CLR 06/M03 A3037 RMK AO2 SLP287 T00611028
KGTB 280148Z AUTO 25009KT 4SM -SN BR FEW006 BKN018 OVC023 M12/M14 A3051 RMK AO2 VIS 2 RWY03 CIG 014V018 CIG 011 RWY03
KGTF 280053Z 35008KT 9SM OVC025 M08/M11 A3004 RMK AO2 SNE13 SLP246 P0000 T10781111
KGTR 280150Z 03008KT 10SM SKC 03/M07 A3048
KGTU 280150Z 03009KT 5SM FZBR BKN008 OVC015 M01/M02 A3035
KGUC 280135Z 16003KT 10SM CLR M05/M12 A2975 RMK AO1
KGUL 280135Z AUTO 9SM BKN020 OVC027 16/12 A3018 RMK A01
KGUP 280137Z AUTO 33005KT 10SM BKN012 BKN016 OVC022 02/M01 A2977 RMK AO2 RAB07E32UPB20E23 P0000 T00221006
KGUR 280135Z AUTO 12007KT 10SM CLR M04/M09 A2992 RMK AO2 T10421094
KGUS 280058Z AUTO 26005KT 10SM CLR M14/M19 A3062 RMK AO2 SLP394 T11441193
KGUY 280150Z AUTO 14008KT 7SM -SN SCT022 OVC049 M09/M12 A3023 RMK AO2 P0000
KGVE 280135Z AUTO 05003KT 10SM OVC060 M03/M11 A3054 RMK AO1 T10301113
KGVL 280153Z AUTO 30005KT 10SM CLR 02/M05 A3040 RMK AO2 SLP301 T00171050
KGVT 280135Z AUTO 05007KT 10SM OVC048 M02/M05 A3046 RMK AO2
KGVX 280135Z AUTO 05025KT 10SM OVC017 10/07 A3029 RMK A01
KGWB 280135Z AUTO 00000KT 10SM CLR M12/M18 A3062 RMK AO2
KGWO 280053Z AUTO A3049 RMK AO2 SLPNO PWINO
KGWR 280155Z AUTO 16009KT 10SM CLR M15/M19 A3036 RMK A01 P000
KGWW 280135Z AUTO 01006KT 10SM CLR 03/M03 A3049 RMK AO2 T00281034
KGXA 280115Z AUTO 26014G21KT 10SM FEW045 13/03 A2970 RMK AO2 SLP066 TSNO $
KGXF 280056Z 22014G18KT 10SM FEW065 BKN250 22/03 A2965 RMK AO2A SLP037 T02200033
KGXY 280135Z AUTO 12009KT 10SM CLR M09/M16 A2996 RMK AO1
KGYB 280135Z AUTO 03008G15KT 10SM OVC029 03/M03 A3037 RMK AO2 T00301031
KGYH 280147Z 00000KT 10SM CLR 05/M07 A3040 RMK LAST
KGYI 280135Z AUTO 04007KT 10SM BKN012 OVC019 M04/M05 A3047 RMK AO2 T10451053
KGYL 280134Z AUTO 16003KT 10SM CLR M14/M18 A3050 RMK AO2 T11441178
KGYR 280147Z 20010G17KT 10SM BKN100 BKN200 22/06 A2963
KGYY 280145Z 26007KT 10SM SKC M12/M21 A3066
KGZH 280053Z AUTO 01004KT 10SM CLR 07/M01 A3035 RMK AO2 SLP279 T00721011
KGZL 280135Z AUTO 07004KT 10SM -SN SCT015 OVC046 M06/M09 A3053 RMK AO2
KH21 280135Z AUTO 00000KT 10SM M07/M16 A3055 RMK AO2
KHAE 280135Z AUTO 00000KT 10SM CLR M12/M20 A3064 RMK AO2
KHAF 280135Z AUTO 31017G23KT 7SM SCT019 SCT027 12/09 A2981 RMK AO2
KHAI 280134Z AUTO 24003KT 10SM CLR M12/M18 A3062 RMK AO2 T11181183
KHAO 280053Z AUTO 36005KT 10SM CLR M13/M18 A3065 RMK AO2 SLP393 T11281183
KHBG 280053Z AUTO 36003KT 10SM CLR 05/01 A3039 RMK AO2 SLP289 T00500006
KHBI 280135Z AUTO 06003KT 10SM CLR 01/M03 A3049 RMK AO2 T00131032
KHBR 280053Z AUTO 09010KT 7SM OVC028 M08/M11 A3040 RMK AO2 SLP319 T10831106
KHBV 280135Z AUTO 36008KT 3SM RA OVC013 A3021 RMK AO2
KHCD 280132Z AUTO 00000KT 10SM CLR M17/M19 A3050 RMK AO2 T11671190
KHCO 280121Z AUTO 19009KT 10SM CLR M14/M18 A3031 RMK AO2
KHDC 280135Z AUTO 00000KT 10SM CLR 07/M01 A3038 RMK AO2
KHDE 280135Z AUTO 13007KT 10SM BKN095 M10/M20 A3033 RMK AO2 T11021200
KHDN 280135Z AUTO 13006KT 10SM CLR M04/M14 A2974 RMK AO1
KHDO 280151Z AUTO 05009KT 3SM -RA BKN007 OVC012 01/ A3031 RMK AO2 CIG 005V009 SLP265 P0000 T0006
KHEF 280145Z 35006KT 10SM CLR M03/M12 A3059
KHEI 280053Z AUTO 15008KT 10SM OVC047 M06/M14 A3004 RMK AO2 SLP227 T10561139
KHEY 280153Z AUTO 02005KT 10SM CLR 09/M02 A3034 RMK AO2 SLP267 T00891017
KHEZ 280135Z AUTO 36008G14KT 10SM FEW110 01/M04 A3043 RMK AO1
KHFD 280053Z AUTO 30005KT 10SM CLR M07/M18 A3050 RMK AO2 SLP327 T10671183
KHFF 280141Z AUTO 02004KT 10SM CLR 03/M02 A3050 RMK AO2
KHFJ 280135Z AUTO 00000KT 4SM -SN OVC080 M08/M10 A3049 RMK AO2
KHGR 280153Z AUTO 31007KT 10SM CLR M07/M17 A3059 RMK AO2 SLP381 T10721167
KHHF 280135Z AUTO 13007KT 10SM -SN SCT016 OVC021 M08/M11 A3033 RMK AO2 T10811108
KHHG 280135Z AUTO 00000KT 10SM CLR M12/M17 A3063 RMK AO2 T11211169
KHHR 280053Z 29007KT 10SM SCT020 OVC050 17/11 A2976 RMK AO2 SLP079 T01670106
KHHV 280135Z AUTO 07030KT SCT017 BKN022 OVC041 17/13 A3016 RMK A01
KHHW 280135Z AUTO 03003KT 10SM BKN008 OVC014 M03/M05 A3047 RMK AO2 T10311051
KHIB 280053Z AUTO 25004KT 10SM CLR M11/M24 A3034 RMK AO2 SLP319 T11061239
KHIE 280052Z AUTO 00000KT 10SM CLR M19/M24 A3037 RMK AO2 SLP321 T11941239
KHIF 280058Z AUTO 21002KT 10SM CLR 05/M09 A2969 RMK AO2 SLP053 T00481092
KHII 280135Z AUTO 17011KT 10SM FEW100 22/M02 A2957 RMK AO2
KHIO 280053Z 17006KT 10SM SCT025 BKN030 OVC110 10/06 A2971 RMK AO2 SLP061 T01000056
KHJH 280135Z AUTO 17003KT 10SM BKN120 M10/M18 A3046 RMK AO2 T11041179
KHJO 280053Z AUTO 02005KT 10SM FEW048 BKN070 BKN090 18/07 A2973 RMK AO2 SLP067 T01830072
KHKA 280053Z AUTO 03013KT 10SM OVC065 M04/M08 A3060 RMK AO2 SLP368 T10391083
KHKS 280053Z 35005KT 10SM CLR 03/M03 A3042 RMK AO2 SLP299 T00281033
KHKY 280053Z AUTO 03006KT 10SM CLR 03/M10 A3041 RMK AO2 SLP297 T00281100
KHLC 280053Z AUTO 17010KT 9SM OVC029 M08/M14 A3035 RMK AO2 SLP317 T10781139
KHLG 280153Z 00000KT 10SM CLR M11/M21 A3059 RMK AO2 SLP388 T11111206
KHLN 280053Z 34010G18KT 10SM OVC037 M06/M12 A2999 RMK AO2 SLP233 T10611122 $
KHLR 280137Z AUTO 04009KT 3SM BR OVC008 M02/M02 A3035 RMK AO2 FZRAE17UPB28E37
KHLX 280135Z AUTO 34005KT 10SM CLR M06/M12 A3039 RMK AO2 T10611122
KHMN 280058Z AUTO 18011KT 10SM CLR 04/M05 A2990 RMK AO2 SLP119 T00411050 $
KHNB 280135Z AUTO 36006KT 10SM CLR M08/M16 A3066 RMK AO1
KHND 280056Z 16011KT 10SM CLR 17/M03 A2960 RMK AO2 SLP016 T01721033
KHNR 280135Z AUTO 00000KT 10SM CLR M14/M18 A3056 RMK AO2
KHNZ 280135Z AUTO 00000KT 10SM CLR M01/M08 A3049 RMK AO2 T10061076
KHOB 280135Z AUTO 10012KT 10SM OVC008 M07/M08 A3015 RMK AO2
KHOE 280135Z AUTO 08003KT 10SM CLR 08/06 A3036 RMK AO2
KHON 280055Z AUTO 14008KT 10SM CLR M10/M17 A3035 RMK AO2 SLP315 T11001172
KHOP 280058Z AUTO 01010KT 10SM BKN120 M05/M12 A3060 RMK AO2 SLP373 T10501117
KHOT 280053Z AUTO 07009KT 10SM OVC070 M02/M13 A3049 RMK AO2 SLP330 T10221133
KHOU 280053Z 06016KT 10SM FEW040 SCT095 08/00 A3028 RMK AO2 PK WND 06026/0008 SLP257 T00780000
KHPN 280056Z 29009KT 10SM CLR M06/M18 A3047 RMK AO2 SLP332 T10561178
KHQI 280135Z AUTO 04028KT 9SM BKN018 BKN026 14/10 A3026 RMK A01
KHQM 280053Z AUTO 04013KT 8SM FEW026 BKN031 OVC100 11/05 A2975 RMK AO2 SLP079 T01060050
KHQU 280135Z AUTO 00000KT 10SM CLR 06/05 A3044 RMK AO1 T00560053
KHQZ 280050Z 03005KT 10SM BKN022 BKN029 OVC045 M03/M06 A3045
KHRI 280053Z AUTO 25008KT 10SM OVC080 08/05 A2970 RMK AO2 SLP060 T00780050
KHRJ 280135Z AUTO 36004KT 10SM CLR 04/M04 A3048 RMK AO2 T00381036
KHRL 280152Z 34007KT 9SM FEW037 OVC050 14/12 A3015 RMK AO2 SLP211 T01390122
KHRO 280116Z AUTO 09007KT 3SM -SN BR BKN036 OVC055 M08/M11 A3049 RMK AO2 P0000 T10831106
KHRT 280058Z AUTO 02004KT 10SM CLR 08/01 A3030 RMK AO2 SLP263 T00770009 $
KHRX 280135Z AUTO 14010KT 10SM BKN015 OVC036 M10/M12 A3017 RMK AO2 T10961117
KHSA 280055Z 01007KT 10SM CLR 07/M01 A3035
KHSB 280135Z AUTO 02005KT 10SM SCT120 M07/M12 A3067 RMK AO2 T10661118
KHSE 280151Z AUTO 02010G17KT 10SM CLR 02/00 A3049 RMK AO2 SLP325 T00220000 TSNO
KHSI 280053Z AUTO 18006KT 10SM CLR M09/M19 A3038 RMK AO2 SLP331 T10891194
KHSP 280135Z AUTO 33005KT 10SM CLR M11/M16 A3031 RMK AO2 T11151163
KHST 280058Z AUTO 34007KT 10SM CLR 21/18 A3013 RMK AO2 SLP206 T02070180
KHSV 280053Z 01008KT 10SM FEW250 00/M08 A3046 RMK AO2 SLP321 T00001078
KHTL 280053Z AUTO 24006KT 10SM CLR M12/M19 A3048 RMK AO2 SLP357 T11221194
KHTO 272050Z 30008KT 10SM SKC M03/M13 A3039
KHTS 280151Z 04004KT 10SM CLR M08/M16 A3062 RMK AO2 SLP382 T10781156
KHUA 280058Z AUTO 01009KT 10SM FEW140 00/M08 A3046 RMK AO2 SLP324 T10011084
KHUF 280053Z 32004KT 10SM CLR M12/M18 A3066 RMK AO2 SLP396 T11171178
KHUL 280153Z AUTO 27006KT 10SM CLR M14/M24 A3032 RMK AO2 SLP283 T11441239
KHUM 280135Z AUTO 03006KT 7SM CLR 07/01 A3034 RMK AO2 T00680012
KHUT 280152Z 10003KT 8SM BKN020 M13/M16 A3046 RMK AO2 SLP338 T11281156
KHVE 280135Z AUTO 18009KT 10SM OVC060 05/M01 A2973 RMK AO2
KHVN 280053Z 34005KT 10SM CLR M06/M17 A3049 RMK AO2 SLP323 T10561172
KHVR 280053Z AUTO 31014KT 10SM FEW042 BKN050 M08/M13 A3009 RMK AO2 SLP243 T10831133
KHVS 280155Z AUTO 05007KT 10SM CLR 05/00 A3045 RMK AO2
KHWD 280054Z 29019G26KT 10SM CLR 14/08 A2977 RMK AO2 PK WND 28027/0028 SLP092 T01440078
KHWO 280128Z 36009KT 10SM OVC015 20/18 A3016 RMK AO2 T02000178
KHWV 280056Z AUTO 00000KT 10SM CLR M07/M15 A3050 RMK AO2 SLP328 T10721150 TSNO
KHWY 280135Z AUTO 36008KT 10SM CLR M03/M10 A3057 RMK AO2 T10261105
KHXD 280150Z 03006KT 10SM CLR 08/04 A3043
KHYA 280056Z 00000KT 10SM CLR M12/M16 A3043 RMK AO2 SLP306 T11171161
KHYI 280135Z 02013KT 10SM OVC022 01/M03 A3034 RMK AO1
KHYR 280053Z AUTO 19004KT 10SM CLR M14/M22 A3043 RMK AO2 SLP346 T11391222
KHYS 280135Z AUTO 16009KT 9SM OVC026 M08/M17 A3037 RMK AO1
KHYW 280135Z AUTO 00000KT 7SM CLR 03/03 A3045 RMK AO2
KHYX 280134Z AUTO 21007KT 10SM CLR M12/M16 A3057 RMK AO2
KHZE 280135Z AUTO 15009KT 10SM FEW041 M10/M16 A3016 RMK AO2
KHZL 280135Z AUTO 34004KT 10SM CLR M08/M18 A3048 RMK AO2
KHZR 280135Z AUTO 35010G15KT 10SM CLR 05/M01 A3039 RMK AO2 T00541012
KHZX 280127Z AUTO 20004KT 10SM CLR M12/M20 A3041 RMK AO2
KHZY 280053Z AUTO 00000KT 10SM CLR M16/M22 A3061 RMK AO2 SLP391 T11611217
KI16 280135Z AUTO 10SM CLR M10/M11 A3056 RMK AO2 T10991114
KI39 280135Z AUTO 00000KT 10SM CLR M08/M15 A3060 RMK AO2
KI67 280135Z AUTO 00000KT 10SM CLR M09/M17 A3066 RMK AO1
KI69 280136Z AUTO 00000KT 10SM CLR M08/M17 A3064 RMK AO1
KI75 280135Z AUTO 15003KT 10SM CLR M14/M18 A3057 RMK AO2 T11371180
KIAB 280058Z AUTO 10005KT 9SM SCT002 OVC050 M09/M12 A3047 RMK AO2 SNE07SNB24E39 CIG 005 RWY19 SLP347 P0000 T10941119
KIAD 280152Z 34009KT 10SM CLR M04/M16 A3059 RMK AO2 SLP364 T10441161
KIAG 280053Z 23012KT 10SM FEW020 M14/M17 A3059 RMK AO2 SLP390 T11391172
KIAH 280053Z 05009KT 10SM OVC050 07/01 A3031 RMK AO2 SLP263 T00720006
KIBM 280135Z AUTO 17012KT 7SM -SN OVC025 M11/M13 A2995 RMK AO2 T11061126
KICL 280135Z AUTO 00000KT 10SM CLR M11/M17 A3056 RMK AO2
KICR 280053Z AUTO 15010KT 10SM CLR M06/M21 A3023 RMK AO2 SLP278 T10611206
KICT 280053Z 12006KT 8SM FEW016 OVC100 M09/M13 A3047 RMK AO2 SNE53 SLP343 P0000 T10891128
KIDA 280053Z 02005KT 10SM SCT035 00/M05 A2973 RMK AO2 SLP092 T00001050
KIDI 280135Z AUTO 00000KT 10SM SCT035 SCT045 M13/M20 A3060 RMK A01
KIDP 280135Z AUTO 00000KT 5SM -SN SCT026 SCT040 SCT055 M07/M11 A3054 RMK AO2
KIEN 280152Z AUTO 18012KT 10SM BKN039 M07/M14 A3006 RMK AO2 SLP239 T10671139
KIER 280135Z AUTO 06008KT 10SM OVC110 02/M05 A3046 RMK AO2 T00231046
KIFA 280135Z AUTO 13003KT 7SM CLR M19/M21 A3057 RMK AO2 T11901215
KIFP 280135Z AUTO 00000KT 10SM CLR 20/M03 A2957 RMK AO2 PWINO
KIGM 280151Z AUTO 17006KT 10SM SCT080 09/M02 A2964 RMK AO2 SLP008 T00941022 TSNO
KIGQ 280135Z AUTO 00000KT 10SM CLR M16/M21 A3066 RMK AO2 T11651206
KIGX 280056Z AUTO 03003KT 10SM CLR 02/M06 A3048 RMK AO2 SLP324 T00171061 TSNO
KIIB 280135Z AUTO 00000KT 10SM CLR M20/M22 A3059 RMK AO2
KIIY 280135Z AUTO 00000KT 10SM CLR 06/05 A3038 RMK AO2
KIJD 280152Z AUTO 32004KT 10SM CLR M07/M20 A3050 RMK AO2 SLP332 T10721200
KIJX 280135Z AUTO 15003KT 10SM CLR M13/M19 A3066 RMK AO2 T11261186
KIKK 280135Z AUTO 00000KT 10SM CLR M17/M20 A3067 RMK AO2 T11751204
KIKT 280135Z AUTO 05011G25KT 10SM SCT028 OVC036 15/09 A3026 RMK A01
KIKV 280135Z AUTO 00000KT 10SM CLR M15/M20 A3060 RMK AO2
KIKW 280133Z AUTO 23006KT 10SM CLR M10/M17 A3056 RMK AO2 T11051170
KILE 280135Z AUTO 03010KT 10SM SCT008 OVC016 M02/M06 A3034 RMK AO1
KILG 280151Z 33004KT 10SM CLR M07/M13 A3059 RMK AO2 SLP358 T10671128
KILM 280153Z 04004KT 10SM CLR 04/01 A3046 RMK AO2 SLP315 T00390011
KILN 280054Z AUTO 05004KT 10SM CLR M13/M19 A3061 RMK AO2 SLP415 T11281194
KIML 280053Z AUTO 17015KT 10SM M08/M14 A3017 RMK AO2 SLP277 T10831144 $
KIMM 280135Z AUTO 02009KT 10SM OVC009 A3020 RMK A01 P000
KIMS 280133Z AUTO 00000KT 10SM CLR M10/M18 A3065 RMK AO1
KIMT 280054Z AUTO 26004KT 10SM CLR M09/M21 A3039 RMK AO2 SLP324 T10941211 TSNO
KIND 280054Z 33005KT 10SM SCT150 M11/M19 A3062 RMK AO2 SLP389 T11111189
KINF 280135Z AUTO 04010KT 10SM OVC020 12/05 A3027 RMK AO2
KINJ 280135Z AUTO 03009KT 10SM SCT011 OVC030 M02/M04 A3040 RMK AO2 T10171041
KINK 280109Z AUTO 08012KT 10SM OVC009 M04/M08 A3017 RMK AO2 T10441078
KINL 280055Z AUTO 24006KT 10SM CLR M13/M23 A3031 RMK AO2 SLP305 T11281228
KINS 280058Z AUTO 11012KT 10SM CLR 15/M06 A2957 RMK AO2 SLP992 T01501064
KINT 280054Z 03008KT 10SM CLR 02/M09 A3045 RMK AO2 SLP318 T00221094
KINW 280056Z AUTO 01007KT 10SM BKN080 OVC095 08/M01 A2971 RMK AO2 SLP056 T00831006
KIOB 280135Z AUTO 00000KT 10SM CLR M09/M14 A3062 RMK AO2
KIOW 280152Z AUTO 15003KT 10SM CLR M18/M20 A3066 RMK AO2 SLP402 T11831200
KIPJ 280135Z AUTO 00000KT 10SM CLR 01/M03 A3043 RMK AO2 T00101030
KIPL 280053Z AUTO 26018G26KT 10SM CLR 22/08 A2961 RMK AO2 PK WND 28028/0027 SLP028 T02170078
KIPN 280135Z AUTO 06021G29KT 10SM BKN028 OVC032 16/09 A3022 RMK A01
KIPT 280054Z 33004KT 10SM CLR M06/M19 A3054 RMK AO2 SLP351 T10611194
KIRK 280055Z AUTO 10006KT 10SM CLR M11/M16 A3059 RMK AO2 SLP388 T11111161
KIRS 280135Z AUTO 00000KT 10SM CLR M13/M18 A3060 RMK AO2
KISM 280050Z 02010G16KT 10SM OVC015 13/11 A3025
KISN 280152Z AUTO 16004KT 10SM OVC055 M06/M14 A3005 RMK AO2 SLP225 T10561139
KISO 280056Z 34004KT 10SM CLR 03/M03 A3047 RMK AO2
KISP 280056Z 26003KT 10SM CLR M05/M13 A3048 RMK AO2 SLP321 T10501128
KISQ 280134Z AUTO 23003KT 10SM CLR M10/M16 A3044 RMK AO2 T11021160
KISW 280054Z AUTO 25004KT 10SM CLR M12/M22 A3052 RMK AO2 SLP363 T11171222
KITH 280056Z 35006KT 10SM CLR M14/M21 A3053 RMK AO2 T11441205 SLP368
KITR 280125Z AUTO 16014KT 10SM FEW009 SCT027 OVC034 M12/M16 A3010 RMK AO2 T11171156 $
KIWA 280147Z 26009KT 20SM BKN200 20/01 A2966
KIWD 280135Z AUTO 22007KT 10SM CLR M12/M22 A3037 RMK AO1
KIWI 280053Z AUTO 00000KT 10SM CLR M14/M18 A3043 RMK AO2 SLP307 T11441183
KIXA 280135Z AUTO 05004KT 10SM CLR 00/M02 A3052 RMK AO2
KIXD 280053Z 07004KT 10SM OVC085 M08/M17 A3054 RMK AO2 SLP363 T10781167
KIYA 280135Z AUTO 34006KT 10SM CLR 05/01 A3037 RMK AO2 T00500012
KIZA 280135Z AUTO 32010G17KT 10SM SCT037 13/08 A2979 RMK AO2
KIZG 280054Z AUTO VRB04KT 10SM CLR M09/M23 A3040 RMK AO2 SLP303 T10891233
KJAC 280053Z 00000KT 8SM SCT021 BKN027 BKN085 M07/M08 A2971
KJAN 280054Z 33008KT 10SM CLR 03/M02 A3041 RMK AO2 SLP301 T00331022
KJAS 280135Z AUTO 02005KT 10SM OVC100 05/M02 A3042 RMK AO2 T00471019
KJAX 280056Z 02007KT 10SM FEW050 BKN220 08/06 A3034 RMK AO2 SLP273 T00830056
KJBR 280053Z AUTO 05011KT 10SM BKN055 OVC065 M05/M09 A3061 RMK AO2 SLP367 T10501094
KJCT 280151Z AUTO 06008KT 4SM BR OVC008 M02/M04 A3029 RMK AO2 CIG 006V011 SLP256 I1002 T10221039
KJDD 280135Z AUTO 09003KT 10SM OVC048 00/M08 A3047 RMK AO2
KJDN 280148Z AUTO 31006KT M11/M15 A3004 RMK AO1 SLP236 T11111150
KJEF 280053Z 04009KT 10SM OVC110 M07/M17 A3061 RMK AO2 SLP365 T10671167
KJER 280053Z AUTO 06011KT 10SM OVC090 06/M04 A2967 RMK AO2 SLP055 T00611039
KJES 280135Z AUTO 00000KT 10SM CLR 07/05 A3039 RMK AO2
KJFK 280151Z 32013KT 10SM FEW250 M03/M17 A3055 RMK AO2 SLP346 T10281172
KJFX 280135Z AUTO 34004KT 10SM CLR 00/M06 A3050 RMK A02 P-128
KJFZ 280135Z AUTO 02004KT 10SM CLR M08/M14 A3042 RMK AO2 T10801140
KJGG 280135Z AUTO 00000KT 10SM CLR M02/M03 A3056 RMK AO1
KJHN 280135Z AUTO 13014KT 5SM -SN SCT010 SCT015 OVC043 M11/M13 A3020 RMK AO2 T11081131
KJHW 280135Z 28003KT 10SM CLR M16/M20 A3050 RMK AO1
KJKA 280135Z AUTO 01003KT 10SM CLR 09/01 A3034 RMK AO2 T00900005
KJKJ 280132Z AUTO 18006KT 10SM CLR M11/M18 A3040 RMK AO2
KJKL 280053Z AUTO 02005KT 10SM CLR M07/M15 A3053 RMK AO2 SLP362 T10671150
KJLN 280153Z 12003KT 5SM -SN OVC044 M07/M11 A3053 RMK AO2 SLP354 P0000 T10721106
KJMR 280135Z AUTO 21006KT 10SM CLR M12/M20 A3047 RMK AO2
KJMS 280056Z AUTO 17010KT 10SM CLR M14/M18 A3027 RMK AO2 SLP297 T11391178
KJNX 280135Z AUTO 36004KT 10SM CLR 02/M03 A3048 RMK AO2
KJOT 280135Z AUTO 00000KT 10SM CLR M16/M20 A3066 RMK AO2 T11581202
KJQF 280051Z 00000KT 10SM CLR 03/M03 A3046
KJSO 280135Z AUTO 05010KT 10SM SCT050 OVC080 00/M05 A3042 RMK AO2 T00001053
KJST 280054Z AUTO 31010KT 10SM CLR M14/M21 A3044 RMK AO2 SLP363 T11391211
KJSV 280135Z AUTO 07003KT 7SM -SN OVC008 M05/M07 A3053 RMK AO2
KJTC 280135Z AUTO 20007KT 10SM FEW023 SCT035 BKN046 05/M03 A2978 RMK AO2
KJVL 280145Z 20010KT 10SM SKC M16/M22 A3061
KJWG 280135Z AUTO 07009KT 10SM -SN OVC021 M08/M10 A3043 RMK AO2 T10851103
KJWY 280135Z AUTO 04008KT 10SM OVC036 M03/M04 A3043 RMK AO2 T10311042
KJXI 280135Z AUTO 07003KT 10SM OVC060 M01/M07 A3046 RMK AO2 T10151074
KJXN 280056Z 23003KT 10SM CLR M12/M18 A3057 RMK AO2 SLP380 T11221183
KJYG 280135Z AUTO 16005KT 10SM CLR M14/M18 A3051 RMK AO2
KJYL 280135Z AUTO 11003KT 10SM CLR 07/04 A3040 RMK AO2 T00670040
KJYM 280135Z AUTO 22004KT 10SM CLR M12/M19 A3057 RMK AO2 T11231188
KJYO 280135Z AUTO 35010G18KT 10SM CLR M03/M14 A3059 RMK AO2
KJYR 280135Z AUTO 17007KT 10SM BKN100 OVC120 M09/M17 A3043 RMK AO2
KJZI 280155Z AUTO 04003KT 10SM CLR 06/03 A3043 RMK A02 P000
KKLS 280135Z 00000KT 10SM BKN029 OVC038 09/06 A2978 RMK AO1 P0016
KL18 280135Z AUTO 22004KT 10SM SCT015 BKN040 OVC048 14/11 A2978 RMK AO2
KL35 280135Z AUTO 23008G16KT 194V264 10SM OVC012 02/00 A2976 RMK AO2
KL38 280135Z AUTO 04006KT 10SM CLR 08/00 A3036 RMK AO2 T00830001
KLAA 280119Z AUTO 13014KT 10SM BKN012 M11/M14 A3010 RMK AO2 T11111139 $
KLAF 280054Z 34003KT 10SM CLR M13/M19 A3066 RMK AO2 SLP398 T11331194
KLAL 280150Z 04013G19KT 10SM BKN017 OVC029 13/10 A3025
KLAM 280135Z AUTO 19009KT 2 1/2SM -SN OVC004 M09/M09 A2984 RMK AO2 T10871087
KLAN 280053Z 25006KT 10SM OVC036 M09/M16 A3057 RMK AO2 SLP377 T10941156
KLAR 280053Z AUTO 17009KT 10SM CLR M12/M16 A2974 RMK AO2 SLP163 T11221161 $
KLAS 280056Z 12007KT 10SM SCT100 SCT250 17/M04 A2954 RMK AO2 SLP995 T01721044
KLAW 280150Z AUTO 07007KT 4SM BR SCT010 SCT034 OVC070 M07/M09 A3043 RMK AO2 SNE01B05E47 P0001
KLAX 280053Z 26014KT 10SM SCT015 BKN020 BKN050 16/11 A2977 RMK AO2 SLP079 T01560106
KLBB 280053Z 10010KT 5SM -SN OVC013 M09/M12 A3021 RMK AO2 SLP268 P0000 T10941122
KLBE 280148Z 00000KT 10SM SKC M12/M18 A3060
KLBF 280053Z AUTO 17010KT 10SM OVC039 M07/M15 A3023 RMK AO2 SLP290 T10721150
KLBL 280135Z AUTO 10011KT 10SM BKN023 OVC050 M10/M14 A3027 RMK AO1
KLBT 280054Z AUTO 05006KT 10SM CLR 07/M01 A3043 RMK AO2 SLP306 T00721011
KLBX 280053Z AUTO 08006KT 10SM CLR 05/02 A3029 RMK AO2 SLP255 T00500017
KLCG 280135Z AUTO 16008KT 10SM CLR M12/M16 A3045 RMK AO2 T11161165
KLCH 280053Z 09007KT 10SM CLR 07/01 A3036 RMK AO2 SLP287 T00720011
KLCI 280135Z AUTO 24003KT 10SM CLR M13/M22 A3040 RMK AO1
KLCK 280135Z AUTO 31003KT 10SM CLR M11/M19 A3064 RMK AO2 T11111191
KLCQ 280135Z AUTO 05006KT 10SM BKN044 07/02 A3034 RMK AO2
KLDJ 280155Z AUTO 00000KT 10SM CLR M02/M15 A3058 RMK AO2 T10241150
KLDM 280135Z AUTO 22009KT 10SM SCT032 M08/M14 A3055 RMK AO2 T10851143
KLEB 280053Z 00000KT 10SM CLR M17/M22 A3042 RMK AO2 SLP326 T11671217
KLEE 280053Z AUTO 03009KT 10SM OVC016 12/08 A3027 RMK AO2 SLP251 T01170078
KLEW 280135Z AUTO 00000KT 10SM CLR M09/M21 A3041 RMK AO1
KLEX 280054Z 00000KT 10SM CLR M07/M17 A3060 RMK AO2 SLP382 T10721172
KLFI 280058Z AUTO 05007KT 10SM CLR M02/M06 A3054 RMK AO2 SLP349 T10171057 $
KLFK 280053Z AUTO 04009KT 10SM OVC095 04/M04 A3039 RMK AO2 SLP292 T00391044
KLFT 280053Z 01008KT 10SM CLR 08/01 A3035 RMK AO2 SLP275 T00780006
KLGA 280151Z 33013G20KT 10SM CLR M04/M16 A3055 RMK AO2 SLP344 T10391156
KLGB 280126Z 29010KT 10SM SCT022 BKN055 17/12 A2976 RMK AO2 T01670117
KLGC 280135Z AUTO 02004KT 10SM CLR 06/M04 A3040 RMK AO2 T00621039
KLGD 280135Z AUTO 35006KT 10SM BKN032 06/M01 A2965 RMK AO1
KLGU 280151Z AUTO 04006KT 10SM OVC065 02/M02 A2973 RMK AO2 SLP080 T00221022
KLHB 280135Z AUTO 02006KT 10SM OVC030 02/M04 A3038 RMK AO2 T00181040
KLHM 280135Z AUTO 16006KT 10SM SCT055 16/07 A2963 RMK AO1
KLHQ 280053Z AUTO 00000KT 10SM CLR M11/M19 A3063 RMK AO2 SLP392 T11111189
KLHW 280058Z AUTO 07002KT 10SM CLR 06/03 A3037 RMK AO2 SLP288 T00640029
KLHX 280053Z AUTO 11010KT 10SM CLR M09/M13 A3001 RMK AO2 SLP211 T10891133
KLHZ 280135Z AUTO 00000KT 10SM CLR M01/M06 A3051 RMK AO2
KLIC 280106Z AUTO 16019KT 4SM -SN BR OVC020 M14/M16 A2996 RMK AO2 P0000 T11391156
KLIT 280053Z 07011G18KT 10SM OVC070 M02/M14 A3055 RMK AO2 SLP351 T10221139
KLJF 280133Z AUTO 00000KT 10SM CLR M16/M19 A3048 RMK AO2
KLKR 280155Z AUTO 06006KT 10SM CLR 04/M02 A3044 RMK AO2
KLKU 280135Z AUTO 05004KT 10SM CLR M03/M11 A3053 RMK AO2
KLKV 280135Z 00000KT 10SM FEW033 02/M01 A2965 RMK AO1 P0001
KLLJ 280055Z AUTO 36004KT 10SM SCT065 OVC090 03/M07 A2965 RMK AO2 SLP050 T00281072
KLLQ 280053Z AUTO 04008KT 10SM OVC080 M02/M08 A3052 RMK AO2 SLP338 T10171078
KLMO 280134Z AUTO 00000KT 10SM CLR M11/M15 A2996 RMK AO2 T11141152
KLMT 280105Z 30010KT 10SM SCT029 BKN045 04/M02 A2966 RMK AO2 T00441017
KLNC 280135Z AUTO 05007KT 10SM -DZ OVC042 M03/M06 A3045 RMK AO2 T10301065
KLND 280153Z AUTO 25007KT 10SM SCT090 M13/M17 A2983 RMK AO2 SLP194 T11331172
KLNK 280054Z 16006KT 10SM CLR M09/M17 A3049 RMK AO2 SLP355 T10941172
KLNL 280135Z AUTO 22003KT 10SM CLR M19/M23 A3038 RMK AO2 T11861230
KLNN 280135Z AUTO 00000KT 10SM CLR M16/M18 A3063 RMK AO1 T11641185
KLNP 280135Z AUTO 03004KT 10SM CLR M09/M14 A3044 RMK AO2
KLNR 280056Z AUTO 23003KT 10SM CLR M14/M21 A3059 RMK AO2 SLP374 T11391211
KLNS 280053Z 29005KT 10SM CLR M07/M15 A3054 RMK AO2 SLP349 T10671150
KLOL 280144Z AUTO 27017KT 10SM FEW050 FEW065 BKN080 06/00 A2960 RMK AO2 WSHFT 0124 T00610000
KLOM 280135Z AUTO 00000KT 10SM CLR M05/M13 A3054 RMK AO1
KLOR 280153Z AUTO 02007KT 10SM CLR 08/M01 A3034 RMK AO2 SLP274 T00831006
KLOT 280135Z AUTO 26004KT 10SM CLR M15/M21 A3064 RMK AO2 T11471206
KLOU 280053Z 02004KT 10SM CLR M06/M17 A3064 RMK AO2 SLP385 T10561167
KLOZ 280053Z AUTO 34006KT 10SM CLR M05/M14 A3054 RMK AO2 SLP360 T10501144
KLPC 280135Z AUTO 30008G18KT 10SM BKN022 BKN038 15/09 A2982 RMK AO1
KLPR 280053Z AUTO 24003KT 10SM CLR M15/M20 A3062 RMK AO2 SLP392 T11501200 TSNO
KLQK 280155Z AUTO 10SM CLR 05/M03 A3038 RMK AO2 T00521031
KLRD 280056Z 35008KT 6SM BR OVC012 03/02 A3025 RMK AO2 T00330016 OVC V BKN SLP240
KLRF 280058Z AUTO 05009KT 10SM CLR M03/M14 A3054 RMK AO2 SLP349 T10321141
KLRJ 280135Z AUTO 14009KT 10SM CLR M14/M18 A3050 RMK AO2
KLRO 280135Z AUTO 00000KT 9SM -RA CLR 04/03 A3043 RMK AO2
KLRU 280135Z AUTO 13015G19KT 10SM CLR 05/M05 A2986 RMK AO2 T00471047
KLSB 280135Z AUTO 14013G18KT 10SM CLR 10/M03 A2977 RMK AO2
KLSE 280153Z 20007KT 10SM CLR M15/M21 A3059 RMK AO2 SLP390 T11501211
KLSF 280058Z AUTO 34007KT 10SM CLR 04/M02 A3035 RMK AO2 SLP282 T00401025
KLSV 280058Z AUTO 11007KT 10SM CLR 17/M03 A2958 RMK AO2 SLP008 T01731034
KLTS 280143Z AUTO 08005KT 4SM -SN BR OVC026 M08/M09 A3042 RMK AO2
KLUA 280135Z AUTO 00000KT 10SM CLR M03/M12 A3054 RMK AO2
KLUD 280135Z AUTO 05007KT 5SM BR OVC008 M06/M07 A3042 RMK AO2 T10611070
KLUF 280058Z AUTO 21011KT 10SM CLR 22/04 A2960 RMK AO2 SLP019 T02240038 $
KLUK 280053Z 05003KT 10SM CLR M09/M17 A3066 RMK AO2 SLP391 T10941172
KLUM 280135Z AUTO 21006KT 10SM CLR M13/M18 A3053 RMK AO2 T11281185
KLUX 280155Z AUTO 09006KT 10SM CLR 05/01 A3041 RMK AO2
KLVJ 280053Z AUTO 07012G21KT 10SM FEW095 08/01 A3030 RMK AO2 PK WND 06028/0007 SLP259 T00780006
KLVK 280100Z 24010KT 10SM BKN028 14/08 A2976 RMK AO2
KLVL 280135Z AUTO 07003KT 10SM CLR M01/M03 A3051 RMK AO1 T10101030
KLVM 280053Z AUTO 09009KT 10SM CLR M04/M11 A2987 RMK AO2 SLP182 T10441111
KLVN 280121Z AUTO 25000KT 10SM CLR M17/M21 A3052 RMK AO2
KLVS 280128Z AUTO 19013KT 1 1/2SM -SN BR OVC019 M13/M16 A2988 RMK AO2 P0000 T11331156
KLWA 280135Z AUTO 00000KT 10SM CLR M14/M18 A3061 RMK AO2 T11391183
KLWB 280135Z AUTO 34004KT 10SM CLR M08/M15 A3046 RMK AO2 T10801152
KLWC 280152Z AUTO 05004KT 10SM OVC075 M08/M17 A3056 RMK AO2 SLP364 T10831167
KLWD 280053Z AUTO 10004KT 10SM CLR M12/M19 A3055 RMK AO2 SLP375 T11171189
KLWM 280056Z 33004KT 10SM CLR M08/M20 A3046 RMK AO2 T10781200
KLWS 280056Z 05003KT 10SM CLR 11/M01 A2969 RMK AO2 SLP062 T01061006
KLWT 280054Z AUTO 30007KT 4SM -SN BKN017 OVC022 M09/M12 A2999 RMK AO2 SLP232 P0000 T10941122
KLWV 280053Z AUTO 01004KT 10SM CLR M08/M16 A3067 RMK AO2 SLP395 T10831156
KLXL 280134Z AUTO 00000KT 10SM CLR M14/M22 A3045 RMK AO2
KLXN 280135Z AUTO 16008KT 10SM CLR M08/M18 A3031 RMK AO2 T10851185
KLXT 280153Z AUTO 08006KT 10SM SCT075 BKN090 M08/M17 A3055 RMK AO2 SLP367 T10781167
KLXV 280142Z AUTO 00000KT 3SM -SN BR OVC023 M11/M12 A2969 RMK AO2 P0001 T11061122
KLXY 280135Z AUTO 10SM UP OVC034 M01/M05 A3039 RMK AO2 T10061053
KLYH 280054Z 35004KT 10SM CLR M02/M13 A3049 RMK AO2 SLP334 T10171128
KLYV 280135Z AUTO 17003KT 10SM CLR M16/M19 A3045 RMK AO2
KLZU 280145Z 00000KT 10SM CLR 03/M07 A3038 RMK SU
KLZZ 280135Z AUTO 04006KT 7SM BKN005 OVC008 M02/M03 A3033 RMK AO2 T10231030
KM19 280056Z AUTO 04013KT 10SM -SN OVC080 M04/M08 A3061 RMK AO2 T10441083 SNB51 P0000 SLP369
KM25 280215Z AUTO 00000KT 10SM OVC100 M05/M11 A3062 RMK AO2
KM30 280135Z AUTO 05006KT 10SM SCT075 OVC080 M05/M11 A3062 RMK AO2 T10521115
KM40 280135Z AUTO 04003KT 10SM SCT120 03/03 A3052 RMK AO2
KM63 280056Z AUTO 04010KT 10SM CLR 03/M05 A2988 RMK AO2 SLP117 T00301052
KM91 280135Z AUTO 04004KT 10SM FEW120 M04/M12 A3058 RMK
KMAE 280053Z AUTO 32005KT 10SM FEW055 BKN090 16/07 A2973 RMK AO2 SLP066 T01610072
KMAF 280055Z 08014KT 3SM -SN OVC004 M07/M08 A3020 RMK AO2 P0000 T10671078
KMAI 280053Z AUTO 08004KT 10SM CLR 10/03 A3031 RMK AO2 SLP265 T01000028
KMAN 280135Z AUTO 14004KT 10SM FEW060 08/00 A2963 RMK AO1
KMAO 280215Z AUTO 00000KT 10SM CLR 05/00 A3046 RMK AO2
KMBG 280052Z AUTO 13014KT 10SM CLR M09/M16 A3018 RMK AO2 SLP264 T10941161
KMBL 280135Z AUTO 00000KT 10SM BKN032 M11/M18 A3053 RMK AO1
KMBS 280053Z 21006KT 10SM CLR M11/M17 A3056 RMK AO2 SLP366 T11061172
KMCB 280053Z AUTO 03006KT 10SM SCT120 07/M02 A3036 RMK AO2 SLP283 T00671022
KMCC 280135Z AUTO 24011KT 10SM BKN055 17/05 A2966 RMK AO2
KMCD 280135Z AUTO 23007KT 10SM CLR M13/M17 A3046 RMK AO2 T11281168
KMCE 280053Z AUTO 01005KT 10SM BKN050 BKN090 17/07 A2971 RMK AO2 SLP061 T01720067
KMCF 280113Z AUTO 06012G19KT 10SM BKN028 BKN110 14/11 A3021 RMK AO2 CIG 028V110 BKN028 V SCT
KMCI 280053Z 12003KT 10SM OVC090 M09/M18 A3055 RMK AO2 SLP365 T10891178
KMCJ 280135Z AUTO 04009KT 10SM SCT050 08/00 A3026 RMK AO1
KMCK 280053Z AUTO 16010KT 10SM OVC036 M07/M14 A3027 RMK AO2 SLP296 T10671139
KMCN 280153Z AUTO 36005KT 10SM CLR 06/M01 A3038 RMK AO2 SLP288 T00611006 TSNO
KMCO 280053Z 02017KT 10SM OVC012 13/11 A3025 RMK AO2 SLP242 T01280106
KMCW 280053Z AUTO 18006KT 10SM CLR M19/M22 A3054 RMK AO2 SLP377 T11941217
KMCX 280135Z AUTO 00000KT 10SM CLR M17/M20 A3066 RMK AO2 T11691201
KMDD 280135Z AUTO 08010KT 3SM BR OVC004 M06/M07 A3021 RMK AO2 T10641075
KMDH 280152Z AUTO 09005KT 10SM OVC100 M06/M13 A3065 RMK AO2 SLP388 T10611128
KMDJ 280135Z AUTO 04024KT 10SM OVC025 13/07 A3032 RMK A01
KMDQ 280135Z AUTO 36008KT 10SM CLR 00/M11 A3049 RMK AO2
KMDS 280130Z AUTO 15008KT 10SM CLR M14/M17 A3038 RMK AO2
KMDT 280056Z 31012KT 10SM CLR M06/M15 A3056 RMK AO2 SLP356 T10611150 $
KMDW 280153Z 25006KT 10SM CLR M13/M20 A3065 RMK AO2 SLP405 T11281200
KMDZ 280135Z AUTO 23003KT 10SM CLR M15/M21 A3045 RMK AO2 T11511206
KMEB 280152Z AUTO 05007KT 10SM CLR 03/M02 A3048 RMK AO2 SLP321 T00281022
KMEH 280147Z AUTO 00000KT 10SM SCT017 BKN024 OVC030 04/02 A2965 RMK AO2 RAE16 P0000 T00390022
KMEI 280058Z 35007KT 10SM CLR 04/M05 A3043 RMK AO2 SLP304 T00391050
KMEM 280054Z 03011KT 10SM OVC110 M02/M10 A3055 RMK AO2 SLP348 T10171100
KMER 280145Z 31010KT 10SM BKN050 16/09 A2972
KMEV 280135Z AUTO 22015G19KT 10SM BKN060 BKN065 06/M04 A2964 RMK AO2
KMEZ 280135Z AUTO 07007KT 5SM OVC046 M03/M06 A3046 RMK AO2
KMFD 280152Z 25003KT 10SM CLR M14/M20 A3059 RMK AO2 SLP391 T11441200
KMFE 280140Z 33008KT 4SM -RA BR OVC009 12/11 A3019 RMK AO2 P0000 T01220106
KMFR 280053Z 09004KT 8SM -RA SCT038 BKN046 09/06 A2972 RMK AO2 SLP067 P0005 T00890061
KMFV 280135Z AUTO 02004KT 7SM CLR M04/M06 A3055 RMK AO2
KMGC 280135Z AUTO 22005KT 10SM CLR M13/M22 A3065 RMK AO2
KMGE 280058Z 32005KT 10SM CLR 02/M06 A3040 RMK AO2A SLP306 T00181064 $
KMGG 280135Z AUTO 00000KT 10SM CLR M13/M18 A3050 RMK AO2 T11271180
KMGJ 280054Z AUTO 30010KT 10SM CLR M07/M19 A3049 RMK AO2 SLP333 T10671194 TSNO
KMGM 280153Z 01008KT 10SM CLR 06/M03 A3040 RMK AO2 SLP294 T00611033
KMGN 280135Z AUTO 23004KT 10SM OVC029 M11/M15 A3048 RMK AO2 T11141154
KMGR 280135Z AUTO 00000KT 10SM CLR 08/06 A3035 RMK AO2
KMGW 280153Z 36003KT 10SM CLR M10/M20 A3059 RMK AO2 SLPNO T11001200
KMGY 280053Z AUTO 00000KT 10SM CLR M10/M17 A3061 RMK AO2 SLP386 T11001172
KMHE 280153Z AUTO 14011KT 10SM CLR M09/M16 A3039 RMK AO2 SLP322 T10941161
KMHK 280152Z 09005KT 10SM OVC060 M09/M15 A3051 RMK AO2 SLP354 T10891150
KMHR 280146Z 24013KT 10SM BKN060 15/08 A2966
KMHS 280056Z AUTO 00000KT 10SM SCT029 BKN035 OVC060 06/03 A2966 RMK AO2 RAB06E43 SLP065 P0004 T00560028
KMHT 280053Z 00000KT 10SM CLR M07/M19 A3043 RMK AO2 SLP327 T10721194
KMHV 280135Z AUTO 23017G25KT 210V270 10SM BKN037 OVC045 12/04 A2969 RMK AO1
KMIA 280053Z 35005KT 10SM OVC010 21/18 A3014 RMK AO2 SLP206 T02110183 $
KMIB 280123Z AUTO 16009KT 9SM CLR M15/M18 A3015 RMK AO2
KMIC 280053Z 22007KT 10SM CLR M11/M18 A3050 RMK AO2 SLP353 T11111178
KMIE 280053Z 00000KT 10SM CLR M13/M18 A3062 RMK AO2 SLP389 T11331183
KMIS 280135Z AUTO 07019G24KT 10SM SCT033 13/05 A3031 RMK A01
KMIV 280054Z AUTO 31008KT 10SM CLR M04/M14 A3055 RMK AO2 SLP345 T10391139
KMIW 280153Z AUTO 13005KT 10SM CLR M19/M22 A3058 RMK AO2 SLP387 T11941222
KMJQ 280133Z AUTO 19007KT 10SM CLR M15/M18 A3047 RMK AO2
KMJX 280135Z AUTO 31006KT 10SM CLR M05/M14 A3055 RMK AO1
KMKC 280054Z 06007KT 10SM FEW100 M07/M17 A3057 RMK AO2 SLP366 T10721167
KMKE 280152Z 23007KT 10SM CLR M13/M21 A3060 RMK AO2 SLP383 T11281211
KMKG 280055Z 22007KT 10SM BKN032 M11/M16 A3058 RMK AO2 SLP372 T11061161
KMKJ 280135Z AUTO 00000KT 10SM CLR M07/M12 A3044 RMK AO2 T10721122
KMKL 280053Z AUTO 01011KT 10SM OVC100 M02/M11 A3056 RMK AO2 SLP355 T10171111
KMKN 280135Z AUTO 04007KT 5SM BR OVC004 M05/M05 A3038 RMK AO2 T10471047
KMKO 280053Z AUTO 03005KT 6SM -SN BR OVC060 M07/M09 A3054 RMK AO2 SLP349 P0000 T10671089
KMKS 280155Z AUTO 00000KT 7SM CLR 05/03 A3042 RMK AO2
KMKT 280135Z AUTO 18006KT 10SM CLR M14/M21 A3051 RMK AO1
KMKY 280135Z AUTO 05011KT 10SM OVC010 16/12 A3017 RMK AO1
KMLB 280149Z 34010KT 2 1/2SM -RA BR BKN005 OVC013 14/13 A3024 RMK AO2 RAB05 P0008
KMLC 280053Z AUTO 05007KT 7SM -SN FEW042 SCT055 OVC080 M06/M09 A3049 RMK AO2 SLP336 P0001 T10611089
KMLE 280135Z AUTO 00000KT 10SM CLR M09/M16 A3052 RMK AO2 T10901163
KMLF 280152Z AUTO 21003KT 10SM CLR 02/M09 A2964 RMK AO2 SLP048 T00221094 TSNO
KMLI 280152Z 00000KT 10SM CLR M20/M24 A3065 RMK AO2 SLP398 T12001244
KMLJ 280135Z AUTO 00000KT 10SM CLR 05/03 A3037 RMK AO2
KMLP 280053Z AUTO VRB03KT 10SM BKN026 M06/M11 A2972 RMK AO2 SLP119 T10611106
KMLS 280053Z AUTO 30004KT 10SM CLR M06/M13 A3000 RMK AO2 SLP209 T10611128
KMLT 280053Z AUTO 27005KT 10SM CLR M12/M23 A3035 RMK AO2 SLP293 T11171228
KMLU 280053Z 04015G19KT 10SM OVC110 01/M04 A3049 RMK AO2 SLP327 T00061039
KMMH 280135Z AUTO 24020G30KT 10SM CLR 02/M13 A2965 RMK AO1
KMMI 280135Z AUTO 00000KT 10SM CLR M04/M09 A3050 RMK
KMMK 280053Z AUTO 00000KT 10SM CLR M09/M17 A3049 RMK AO2 SLP329 T10941167 TSNO
KMML 280135Z AUTO 19005KT 10SM CLR M15/M18 A3046 RMK AO1
KMMT 280058Z 07003KT 10SM SCT250 05/02 A3040 RMK AO2A SLP299 T00490016
KMMU 280145Z 34004KT 10SM SKC M07/M17 A3057
KMMV 280136Z AUTO 30003KT 10SM -RA FEW018 BKN033 OVC042 09/06 A2972 RMK AO2 P0016 T00890061
KMNE 280135Z AUTO 07005KT 10SM OVC085 01/M06 A3046 RMK AO2 T00061059
KMNH 280136Z AUTO 19009KT 10SM CLR M16/M18 A2981 RMK AO2
KMNI 280135Z AUTO 00000KT 10SM CLR 03/03 A3042 RMK AO2
KMNM 280135Z AUTO 25006KT 10SM CLR M11/M21 A3048 RMK AO1
KMNN 280053Z AUTO 00000KT 10SM CLR M15/M21 A3062 RMK AO2 SLP396 T11501211 TSNO
KMNZ 280135Z AUTO 04005KT 5SM BR OVC004 M03/M03 A3037 RMK AO2 T10301030
KMOB 280056Z 35007KT 10SM CLR 07/00 A3035 RMK AO2 SLP279 T00670000
KMOD 280053Z 29018G23KT 10SM CLR 17/04 A2971 RMK AO2 SLP063 T01670044
KMOP 280135Z AUTO 24007KT 10SM CLR M11/M17 A3056 RMK AO2 T11101175
KMOR 280135Z AUTO 36003KT 10SM CLR M03/M11 A3048 RMK
KMOT 280054Z 14005KT 10SM CLR M12/M18 A3015 RMK AO2 SLP257 T11221178
KMOX 280133Z AUTO 17006KT 10SM CLR M16/M20 A3042 RMK AO2
KMPO 280053Z AUTO A3039 RMK AO2 SLPNO PWINO FZRANO
KMPV 280151Z AUTO 00000KT 10SM CLR M17/M23 A3044 RMK AO2 SLP341 T11721233
KMPZ 280135Z AUTO 11005KT 10SM CLR M19/M22 A3064 RMK AO2 T11901225
KMQB 280135Z AUTO 00000KT 10SM CLR M17/M21 A3067 RMK AO2 T11701209
KMQE 280154Z AUTO 31010KT M09/M19 A3041 RMK AO1 SLP322 T10891194
KMQI 280143Z AUTO 02011G16KT 10SM CLR 01/M02 A3052 RMK AO2
KMQJ 280136Z AUTO 00000KT 10SM CLR M15/M23 A3065 RMK AO1
KMQS 280135Z AUTO 32004KT 10SM CLR M07/M13 A3054 RMK AO2
KMQY 280056Z 02012KT 10SM CLR M03/M13 A3057 RMK AO2 T10271133 SLP370
KMRB 280153Z 05004KT 10SM CLR M07/M17 A3059 RMK AO2 SLP369 T10671167
KMRC 280135Z AUTO 03008KT M03/M12 A3054 RMK
KMRF 280135Z AUTO 05013G17KT 10SM OVC003 M04/M05 A3001 RMK AO1
KMRH 280058Z AUTO 05006KT 10SM CLR 03/M01 A3047 RMK AO2 SLP316 T00281011 TSNO
KMRJ 280130Z AUTO 23007KT 10SM CLR M15/M21 A3055 RMK AO2
KMRN 280135Z AUTO 36003KT 10SM CLR M02/M05 A3047 RMK AO2 T10181054
KMRT 280133Z AUTO 00000KT 10SM CLR M19/M23 A3062 RMK AO2 T11871234
KMRY 280114Z 28007KT 10SM SCT018 SCT022 BKN035 13/09 A2983 RMK AO2
KMSL 280053Z AUTO 36005KT 10SM CLR 02/M10 A3052 RMK AO2 SLP338 T00171100
KMSN 280153Z 23003KT 10SM CLR M14/M21 A3058 RMK AO2 SLP378 T11441211
KMSO 280053Z 09015G20KT 10SM BKN075 OVC100 01/M12 A2986 RMK AO2 SLP142 T00111117
KMSP 280053Z 21007KT 10SM CLR M12/M19 A3052 RMK AO2 SLP359 T11171194
KMSS 280053Z AUTO 21008KT 10SM CLR M14/M21 A3050 RMK AO2 SLP341 T11391211
KMSV 280135Z AUTO 31006KT 10SM CLR M12/M21 A3046 RMK AO1
KMSY 280053Z 02013KT 10SM FEW120 FEW200 09/01 A3034 RMK AO2 SLP275 T00890006
KMTC 280055Z 24002KT 12SM CLR M14/M18 A3057 RMK SLP376 T11421180
KMTH 280141Z AUTO 02012G18KT 10SM BKN010 21/20 A3014 RMK AO2 T02110200
KMTJ 280053Z AUTO 15007KT 10SM SCT080 M01/M04 A2977 RMK AO2 SLP089 T10061044
KMTN 280145Z 00000KT 10SM SKC M04/M11 A3061
KMTO 280153Z AUTO 00000KT 10SM CLR M13/M18 A3064 RMK AO2 SLP395 T11281183
KMTP 280154Z AUTO 31011G19KT M04/M16 A3051 RMK AO1 SLP331 T10391161
KMTV 280135Z AUTO 02006KT 10SM CLR M01/M10 A3050 RMK AO2 T10091103
KMTW 280056Z AUTO 22006KT 10SM CLR M12/M18 RMK AO2 SLPNO T11171178 FZRANO $
KMUI 280058Z AUTO 28010KT 10SM CLR M06/M18 A3055 RMK AO2 SLP357 T10561181
KMUO 280148Z AUTO 14009KT 10SM BKN060 OVC080 07/01 A2964 RMK AO2
KMUT 280135Z AUTO 00000KT 10SM CLR M19/M23 A3067 RMK AO2
KMVE 280134Z AUTO 22005KT 10SM CLR M13/M17 A3047 RMK AO2
KMVH 280135Z AUTO 31016G23KT 10SM BKN012 OVC075 M11/M15 A2995 RMK A01
KMVL 280054Z AUTO 17004KT 8SM CLR M17/M23 A3043 RMK AO2 SLP330 T11721228 TSNO
KMVN 280135Z AUTO 05004KT 10SM OVC100 M08/M16 A3067 RMK AO1
KMVY 280053Z AUTO 25005KT 10SM CLR M07/M13 A3043 RMK AO2 SLP306 T10671133
KMWA 280135Z AUTO 08006KT 10SM OVC110 M06/M12 A3065 RMK AO2
KMWC 280145Z AUTO 23007KT 10SM SKC M12/M21 A3059
KMWH 280152Z 02012KT 10SM CLR 08/00 A2980 RMK AO2 SLP097 T00830000
KMWK 280135Z AUTO 34004KT 10SM CLR 00/M09 A3047 RMK AO2 T00001092
KMWL 280149Z AUTO 04007KT 1 3/4SM -SN BR FEW007 BKN038 OVC047 M06/M07 A3040 RMK AO2 UPE04SNB04 P0001
KMWM 280134Z AUTO 00000KT 10SM CLR M15/M18 A3046 RMK AO2
KMWN 280053Z 30034KT 90SM FEW100 SCT140 M24/M28 RMK
KMWO 280135Z AUTO 00000KT 10SM CLR M11/M17 A3067 RMK AO2 T11141172
KMWS 280145Z 23500G00KT MM/05 RMK SNOW DEPTH M
KMWT 280153Z AUTO VRB03KT 7SM -SN OVC034 M04/M08 A3047 RMK AO2 SNE0055B15 SLP335 P0000 T10391083
KMXF 280058Z AUTO 35008KT 340V170 10SM CLR 07/M02 A3038 RMK AO2 SLP292 T00661025
KMXO 280135Z AUTO 00000KT 10SM CLR M23/M26 A3062 RMK AO2
KMYF 280053Z 21007KT 9SM BKN015 BKN023 16/12 A2978 RMK AO2 SLP081 T01610117
KMYL 280151Z AUTO 00000KT 10SM FEW080 BKN120 01/M03 A2963 RMK AO2 SLP055 T00111033
KMYR 280147Z 09005KT 10SM CLR 06/02 A3047
KMYV 280053Z AUTO 18009KT 10SM CLR 17/07 A2964 RMK AO2 LTG DSNT NW SLP040 T01670067
KMYZ 280135Z AUTO 18005KT 10SM OVC120 M07/M15 A3049 RMK AO2
KMZG 280135Z AUTO 05018G27KT 6SM HZ BKN022 16/11 A3018 RMK A01
KMZH 280135Z AUTO 00000KT 10SM CLR M13/M21 A3041 RMK AO2
KMZZ 280135Z AUTO 00000KT 10SM CLR M15/M17 A3065 RMK AO2 T11471174
KN03 280155Z AUTO 00000KT 10SM CLR M17/M21 A3054 RMK AO2
KN38 280135Z AUTO 33006G11KT 10SM CLR M13/M22 A3047 RMK AO2
KN60 280152Z AUTO 14008KT M13/M17 A3015 RMK AO1 SLP265 T11331172
KNAK 280054Z AUTO 31003KT 10SM CLR M04/M11 A3056 RMK AO2 SLP351 T10391111
KNBC 280056Z AUTO 08004KT 10SM CLR 07/03 A3041 RMK AO2 SLP296 T00720028
KNBG 280108Z 01003KT 10SM FEW250 07/01 A3033 RMK AO2 T00720006 $
KNBT 280056Z AUTO A3046 RMK AO2 SLP320 PWINO PNO $
KNCA 280056Z 01005KT 10SM CLR 05/M01 A3045 RMK AO2 SLP314 T00501011
KNDZ 280056Z 01009KT 10SM SCT250 11/00 A3032 RMK AO2 SLP257 T01060000 $
KNEW 280053Z 01016KT 10SM CLR 10/02 A3034 RMK AO2 SLP268 T01000017
KNFE 280056Z AUTO 02007KT 10SM CLR 01/M06 A3053 RMK AO2 SLP341 T00061056
KNFG 280154Z AUTO 23004KT 5SM HZ FEW020 BKN036 BKN049 16/11 A2977 RMK AO2 SLP080 T01560111
KNFL 280056Z 00000KT 10SM SCT025 BKN080 BKN120 08/00 A2961 RMK AO2 SLP011 SH DSNT W-E WR// T00830000
KNFW 280152Z AUTO 03009KT 3SM -SN OVC013 M02/M05 A3049 RMK AO2 VIS 2 N SLP304 P0001 T10221050 $
KNGP 280128Z AUTO 05018KT 5SM -RA BR OVC009 11/10 A3020 RMK AO2 PK WND 06029/0115 RAB21 P0000 T01110100
KNGU 280059Z 04011KT 9SM CLR 00/M05 A3055 RMK AO2 SLP344 T00001050
KNHK 280152Z 02008KT 10SM CLR M03/M10 A3058 RMK AO2 SLP354 T10331100
KNID 280116Z AUTO VRB05G23KT CLR 17/M04 A2958 RMK AO2 PK WND 25038/0058 WSHFT 0056 T01671039 $
KNIP 280153Z 02016KT 10SM BKN020 OVC250 11/05 A3035 RMK AO2 SLP272 T01110050
KNJK 280056Z 25030G34KT 6SM BLDU FEW050 FEW080 SCT250 22/07 A2963 RMK AO2 PK WND 25036/0038 SLP049 ACSL SW T02220067
KNJM 280057Z AUTO 03003KT 10SM CLR 04/M01 A3046 RMK AO2 SLP319 T00441006 $
KNKT 280154Z 07008KT 10SM FEW200 03/M01 A3050 RMK AO2 SLP324 T00281011 $
KNKX 280055Z 22007KT 10SM SCT024 BKN035 16/11 A2977 RMK AO2 SLP078 T01610111 $
KNLC 280056Z 36005KT 10SM BKN075 18/04 A2972 RMK AO2 SLP066 RH/41 T01780039
KNMM 280056Z AUTO 35005KT 10SM CLR 03/M06 A3044 RMK AO2 SLP321 T00331056
KNOG 280149Z AUTO 04010KT 10SM -RA SCT007 OVC012 07/07 A3024 RMK AO2 P0001 T00720067 $
KNPA 280056Z 35005KT 10SM BKN250 10/01 A3031 RMK AO2 SLP265 T01000006 $
KNQA 280150Z 02010KT 10SM OVC075 M04/M09 A3057
KNQI 280134Z AUTO 01009G18KT 8SM OVC010 09/09 A3022 RMK AO2 RAE03 P0000 T00940089 TSNO $
KNQX 280153Z 05013KT 10SM SCT010 BKN033 BKN040 21/18 A3015 RMK AO2 SLP206 T02110183 $
KNRB 280152Z AUTO 02019G24KT 10SM OVC034 11/07 A3034 RMK AO2 SLP273 T01110067 $
KNRS 280056Z 23012KT 10SM FEW015 SCT025 BKN035 17/13 A2980 RMK AO2 RAB10E33 SLP092 P0000 T01720128 $
KNSE 280056Z 01008KT 10SM SCT250 09/M01 A3032 RMK AO2 SLP257 T00891006 $
KNSI 280057Z 29025G35KT 10SM FEW009 SCT013 BKN240 14/11 A2978 RMK AO2 PK WND 30036/0021 SCT V BKN SLP078 T01440106 $
KNTD 280056Z 28016G22KT 10SM FEW020 FEW250 18/12 A2975 RMK AO2 SLP075 T01830117 $
KNTU 280056Z 03010KT 10SM CLR M01/M06 A3053 RMK AO2 SLP339 T10061061
KNUC 272356Z 29012G18KT 9SM SCT016 BKN026 BKN250 17/12 A2981 RMK SLP096 T01670122 10183 20167 58013
KNUI 280153Z AUTO 02003KT 10SM CLR M03/M11 A3057 RMK AO2 SLP352 T10331106
KNUQ 280056Z 29011G20KT 10SM SCT037 14/06 A2980 RMK AO2 SLP093 T01390061
KNUW 280056Z 36006KT 10SM -RA FEW035 BKN060 OVC080 11/07 A2985 RMK AO2 SLP111 P0000 T01060072 VISNO E $
KNXF 280056Z AUTO 25008KT 6SM HZ FEW016 OVC046 17/12 A2977 RMK AO2 SLP166 T01670117
KNXP 280138Z AUTO 30014G21KT 10SM CLR 17/03 A2970 RMK AO2 WSHFT 0118 T01720028
KNY0 280135Z AUTO 29006KT 10SM CLR M13/M19 A3051 RMK AO2 T11351190
KNYC 280151Z AUTO 30006KT 10SM CLR M04/M18 A3056 RMK AO2 SLP342 T10391183
KNYG 280056Z AUTO 03004KT 10SM CLR M02/M11 A3058 RMK AO2 SLP357 T10221111
KNYL 280057Z 23009KT 10SM FEW200 BKN250 24/03 A2962 RMK AO2 SLP027 T02440033 $
KNZY 280152Z 28010KT 9SM FEW020 SCT030 BKN035 16/12 A2978 RMK AO2 SLP084 T01610117 $
KO22 280135Z AUTO 22010G16KT 180V240 10SM FEW022 BKN055 12/07 A2970 RMK AO1
KO54 280135Z AUTO 25005G17KT 10SM FEW033 08/01 A2968 RMK AO1
KO69 280135Z AUTO 27017G22KT 10SM FEW050 12/08 A2975 RMK AO1
KO86 280130Z AUTO 36005KT 320V030 10SM CLR 09/00 A2967 RMK AO1
KOAJ 280135Z AUTO 00000KT 10SM CLR 01/M02 A3047 RMK AO1
KOAK 280053Z 27026G33KT 10SM FEW025 14/08 A2976 RMK AO2 PK WND 27035/2354 SLP076 T01390078
KOBE 280135Z AUTO 36008KT 5SM BR OVC006 13/13 A3022 RMK AO2
KOCF 280135Z AUTO 05009G15KT 360V060 10SM OVC023 11/04 A3029 RMK AO1
KOCH 280135Z AUTO 07006KT 10SM OVC090 01/M07 A3043 RMK AO1
KOCQ 280135Z AUTO 24005KT 10SM CLR M12/M21 A3050 RMK AO1 T11171210
KOCW 280135Z AUTO 05006KT 10SM CLR 01/M03 A3051 RMK AO2 T00071027
KODO 280140Z AUTO 08011KT 3SM BR OVC002 M07/M08 A3020 RMK AO2 I1001 T10721083
KODX 280053Z AUTO 16006KT 10SM CLR M08/M21 A3032 RMK AO2 SLP318 T10781206
KOEB 280134Z AUTO 22005KT 10SM CLR M13/M19 A3060 RMK AO2 T11321190
KOEO 280135Z AUTO 18006KT 10SM CLR M13/M18 A3053 RMK AO2 T11301180
KOFF 280058Z AUTO 10004KT 10SM CLR M11/M16 A3051 RMK AO2 SLP363 T11071165
KOFK 280056Z AUTO 14007KT 10SM CLR M09/M17 A3041 RMK AO2 SLP336 T10891167
KOFP 280054Z AUTO VRB03KT 10SM CLR M02/M09 A3055 RMK AO2 SLP346 T10221089
KOGA 280135Z AUTO 17014G18KT 10SM OVC037 M08/M13 A3016 RMK AO2 T10781131
KOGB 280053Z AUTO 00000KT 10SM CLR 07/02 A3039 RMK AO2 SLP293 T00670017
KOGD 280053Z 07003KT 10SM SCT055 06/M05 A2969 RMK AO2 SLP050 T00561050
KOJA 280135Z AUTO 10008KT 10SM -SN SCT013 OVC035 M08/M11 A3040 RMK AO2
KOJC 280053Z 10004KT 10SM OVC085 M08/M17 A3053 RMK AO2 SLP359 T10781172
KOKB 280152Z AUTO 25006KT 9SM FEW017 BKN035 16/12 A2976 RMK AO2 SLP078 T01610117
KOKC 280152Z 07008KT 10SM BKN015 OVC040 M07/M12 A3045 RMK AO2 SLP330 T10721117
KOKK 280135Z AUTO 28006KT 10SM CLR M13/M18 A3065 RMK AO1
KOKM 280135Z AUTO 05005KT 10SM OVC065 M07/M09 A3051 RMK AO2 T10721095
KOKV 280135Z AUTO 33006G09KT 10SM CLR M04/M18 A3057 RMK AO2
KOLE 280135Z AUTO 27004KT 10SM CLR M17/M21 A3044 RMK AO2
KOLF 280053Z AUTO 32006KT 10SM CLR M07/M14 A3004 RMK AO2 SLP218 T10671139
KOLG 280135Z AUTO 21004KT 10SM CLR M13/M21 A3043 RMK AO1
KOLM 280054Z 02011KT 10SM SCT014 BKN042 OVC070 09/06 A2977 RMK AO2 SLP083 T00890061
KOLS 280054Z AUTO 20018G23KT 10SM CLR 18/M01 A2977 RMK AO2 PK WND 22030/2357 SLP045 T01781006
KOLU 280135Z AUTO 16008KT 10SM CLR M10/M21 A3045 RMK AO1
KOLV 280155Z AUTO 04008KT 10SM BKN080 BKN090 M02/M08 A3055 RMK A01 P000
KOLY 280135Z AUTO 35003KT 10SM CLR M10/M16 A3068 RMK AO2
KOLZ 280135Z AUTO 19004KT 6SM HZ CLR M21/M24 A3059 RMK AO2
KOMA 280152Z 11004KT 10SM CLR M10/M16 A3054 RMK AO2 SLP363 T11001156
KOMH 280135Z AUTO 00000KT 10SM CLR M05/M09 A3056 RMK AO2
KOMK 280053Z AUTO 34010KT 10SM BKN060 OVC080 06/M01 A2988 RMK AO2 SLP128 T00611011
KOMN 272350Z 01010G19KT 5SM BR OVC012 11/09 A3026 RMK LAST
KONA 280136Z AUTO 00000KT 10SM CLR M12/M17 A3059 RMK AO2
KONL 280135Z AUTO 15008KT 10SM CLR M08/M19 A3032 RMK AO2 T10831187
KONM 280135Z AUTO 09003KT 10SM 01/M01 A2988 RMK AO2 T00061014
KONO 280053Z AUTO 16006KT 10SM BKN055 BKN070 OVC120 11/01 A2965 RMK AO2 SLP050 T01060006
KONP 280135Z AUTO 00000KT 3SM RA SCT009 BKN013 OVC024 09/08 A2973 RMK AO2 P0002
KONT 280053Z 25009KT 10SM BKN038 OVC065 15/10 A2975 RMK AO2 SLP074 T01500100
KONX 280135Z AUTO 03008KT 10SM CLR 00/M03 A3054 RMK AO2 T00001030
KONZ 280134Z AUTO 18004KT 10SM CLR M17/M21 A3061 RMK AO2
KOOA 280135Z AUTO 08004KT 10SM CLR M17/M20 A3062 RMK AO2 T11671202
KOPF 280100Z 35007KT 10SM OVC010 21/18 A3015 RMK AO2 T02110178
KOPL 280135Z AUTO 01008KT 10SM CLR 04/M01 A3039 RMK AO2 T00401007 PWINO
KOPN 280135Z AUTO 36004KT 10SM CLR 06/M04 A3039 RMK AO2
KOQT 280153Z AUTO 04003KT 10SM CLR M02/M13 A3053 RMK AO2 SLP359 T10221128
KOQU 280050Z 31005KT 10SM SKC M07/M16 A3044
KORB 280153Z AUTO 00000KT 10SM CLR M13/M26 A3031 RMK AO2
KORC 280135Z AUTO 14004KT 10SM CLR M14/M18 A3047 RMK AO2
KORD 280151Z 24005KT 10SM CLR M14/M21 A3063 RMK AO2 SLP391 T11441211
KORE 280152Z AUTO 00000KT 10SM CLR M11/M20 A3047 RMK AO2 SLP331 T11061200
KORF 280151Z 03010KT 10SM CLR M01/M06 A3054 RMK AO2 SLP342 T10111061
KORG 280135Z AUTO 11003KT 10SM CLR 07/02 A3038 RMK AO2 T00720021
KORH 280054Z 29009KT 10SM CLR M09/M21 A3038 RMK AO2 SLP310 T10891206
KORL 272253Z 01014KT 10SM OVC016 13/09 A3023 RMK AO2 SLP243 T01330089
KORS 280155Z AUTO 05010G15KT 060V030 10SM CLR 11/M02 A2987 RMK AO2
KOSA 280135Z AUTO 07005KT 10SM OVC060 M01/M08 A3049 RMK AO1 T10071076
KOSC 280133Z AUTO 21005KT 10SM CLR M12/M18 A3051 RMK AO2 T11201181
KOSH 280153Z 21006KT 10SM CLR M12/M19 A3054 RMK AO2 SLP374 T11171194
KOSU 280053Z 33004KT 10SM CLR M12/M19 A3062 RMK AO2 SLP390 T11171194
KOTG 280135Z AUTO 19008KT 10SM CLR M07/M21 A3046 RMK AO1
KOTH 280135Z 30005KT 8SM SCT007 BKN013 OVC019 10/09 A2975 RMK AO1 VCSH P0010
KOTM 280053Z AUTO 13005KT 10SM CLR M16/M20 A3060 RMK AO2 SLP387 T11611200
KOUN 280135Z AUTO 05006KT 10SM OVC017 M08/M10 A3047 RMK AO2
KOVE 280143Z AUTO VCTS A2965 RMK AO2 PWINO $
KOVL 280133Z AUTO 17004KT 10SM CLR M15/M18 A3048 RMK AO2
KOVS 280153Z AUTO 21005KT 10SM CLR M16/M22 A3061 RMK AO2 SLP387 T11561217
KOWA 280135Z AUTO 17005KT 10SM CLR M16/M20 A3051 RMK AO2
KOWB 280056Z 02005KT 10SM CLR M05/M13 A3065 RMK AO2 T10501127 SLP385
KOWD 280053Z 00000KT 10SM CLR M14/M21 A3045 RMK AO2 SLP310 T11441206
KOWP 280135Z AUTO 04005KT 10SM -SN OVC065 M07/M10 A3052 RMK AO2 T10681096
KOXB 280153Z AUTO 01005KT 9SM CLR M05/M08 A3058 RMK AO2 SLP354 T10501083 TSNO
KOXC 280048Z 36005KT 10SM SKC M11/M22 A3044
KOXI 280135Z AUTO 23003KT 10SM M15/M28 A3064 RMK AO1
KOXR 280151Z 26013KT 10SM CLR 17/11 A2973 RMK AO2 SLP066 T01720106
KOXV 280135Z AUTO 10005KT 10SM CLR M15/M20 A3058 RMK AO2
KOZA 280135Z AUTO 4SM BR OVC006 M02/M03 A3025 RMK AO2
KOZR 280058Z AUTO 01006KT 10SM CLR 09/M01 A3032 RMK AO2 SLP271 T00941012
KOZW 280135Z AUTO 21003KT 10SM CLR M12/M19 A3057 RMK AO2 T11201194
KP08 280135Z AUTO 21010KT 10SM CLR 20/01 A2966 RMK AO2
KP28 280056Z AUTO 12004KT M10/M12 A3044 RMK AO1 SLP336 T11001122
KP53 280056Z AUTO 20005KT M15/M19 A3043 RMK AO1 SLP324 T11501189
KP58 280151Z AUTO VRB05KT M12/M19 A3054 RMK AO1 SLP368 T11171189
KP59 280151Z AUTO 00000KT M14/M22 A3038 RMK AO1 SLP312 T11441217
KP60 280056Z AUTO 00000KT M08/M12 A2971 RMK AO1 SLP145 T10781122
KP68 280153Z AUTO 14008KT 01/M02 A2960 RMK AO1 SLP026 T00061017
KP69 280152Z AUTO 00000KT 05/01 A2972 RMK AO1 SLP077 T00500006
KP92 280153Z AUTO 00000KT 07/03 A3036 RMK AO1 SLP279 T00720028
KPAE 280053Z 01006KT 10SM OVC080 09/05 A2980 RMK AO2 SLP093 T00890050
KPAH 280053Z 07008KT 10SM BKN080 OVC090 M05/M13 A3061 RMK AO2 SLP373 T10501128
KPAM 280058Z AUTO 05005KT 10SM CLR 10/04 A3030 RMK AO2 SLP264 T01040040 $
KPAN 280135Z AUTO 23006G12KT 10SM BKN060 BKN070 10/M04 A2976 RMK AO2
KPAO 280047Z 31011KT 10SM BKN027 15/08 A2979
KPBF 280053Z AUTO 04012KT 10SM OVC110 M03/M09 A3054 RMK AO2 SLP345 T10281094
KPBG 280053Z AUTO 00000KT 10SM CLR M14/M21 A3048 RMK AO2 SLP328 T11441211
KPBH 280135Z AUTO 23004KT 10SM CLR M14/M22 A3042 RMK AO2 T11451221
KPBI 280142Z 03009KT 10SM BKN010 OVC016 21/20 A3017 RMK AO2 T02110200
KPBX 280135Z AUTO 02006KT 10SM CLR M07/M14 A3054 RMK AO2 T10741142
KPCM 280135Z AUTO 05010G14KT 10SM SCT017 BKN031 OVC060 A3025 RMK AO2
KPCW 280133Z AUTO 20004KT 10SM CLR M13/M20 A3064 RMK AO2 $
KPCZ 280135Z AUTO 23005KT 10SM CLR M12/M21 A3053 RMK AO2 T11181206
KPDC 280135Z AUTO 23003KT 10SM CLR M16/M22 A3062 RMK AO2 T11611220
KPDK 280153Z 34006KT 10SM CLR 01/M06 A3040 RMK AO2 SLP314 T00111061
KPDT 280053Z 30009KT 10SM -RA OVC050 06/04 A2968 RMK AO2 RAB27 SLP050 P0000 T00610044
KPDX 280053Z 11011KT 10SM FEW030 FEW065 SCT150 BKN260 10/06 A2973 RMK AO2 SLP066 T01000056
KPEA 280135Z AUTO 00000KT 10SM CLR M16/M18 A3062 RMK AO2 T11581182
KPEO 280053Z AUTO 27005KT 10SM CLR M13/M22 A3054 RMK AO2 SLP369 T11331217
KPEQ 280135Z AUTO 08009KT 5SM BR OVC008 M04/M05 A3019 RMK AO2 T10381048
KPEX 280134Z AUTO 13003KT 10SM CLR M15/M20 A3046 RMK AO2 T11491196
KPEZ 280135Z AUTO 02008KT 7SM -SN OVC015 03/00 A3030 RMK AO2 T00310000
KPGA 280053Z AUTO 04004KT 10SM -RA OVC055 06/01 A2971 RMK AO2 SLP051 P0001 T00560011 TSNO
KPGD 280053Z AUTO 05015KT 10SM OVC011 13/12 A3021 RMK AO2 SLP230 T01330117
KPGV 280135Z AUTO 05008KT 10SM CLR 02/M02 A3050 RMK AO2
KPHD 280053Z AUTO 00000KT 10SM CLR M12/M18 A3062 RMK AO2 SLP390 T11171183
KPHF 280054Z AUTO 04005KT 7SM CLR M01/M06 A3054 RMK AO2 SLP340 T10111056 TSNO
KPHL 280054Z 28008KT 10SM CLR M03/M16 A3057 RMK AO2 SLP352 T10331161
KPHN 280139Z AUTO 19003KT 10SM CLR M14/M19 A3060 RMK AO2
KPHP 280055Z AUTO 18010KT 10SM OVC065 M02/M15 A3011 RMK AO2 SLP242 T10221150
KPHT 280135Z AUTO 06006KT 10SM BKN070 M05/M13 A3059 RMK
KPHX 280151Z 23009KT 10SM FEW110 SCT200 BKN250 22/04 A2962 RMK AO2 SLP019 T02220044
KPIA 280054Z 00000KT 10SM CLR M12/M20 A3065 RMK AO2 SLP398 T11221200
KPIB 280135Z AUTO 02007KT 10SM CLR 05/M03 A3041 RMK AO1
KPIE 280053Z 05011KT 10SM OVC026 16/09 A3020 RMK AO2 SLP227 T01560094
KPIH 280053Z 04006KT 10SM FEW032 FEW085 02/M04 A2971 RMK AO2 SLP078 T00221039
KPIL 280150Z AUTO 06006KT 6SM BR SCT028 BKN039 OVC045 16/14 A3015 RMK AO2 RAE21 P0000
KPIR 280053Z AUTO 12009KT 10SM CLR M08/M19 A3021 RMK AO2 SLP271 T10781189
KPIT 280151Z 00000KT 10SM CLR M12/M19 A3059 RMK AO2 SLP395 T11171189
KPKB 280053Z 35005KT 10SM CLR M08/M17 A3063 RMK AO2 SLP389 T10831172
KPKD 280053Z AUTO 21005KT 10SM CLR M15/M22 A3036 RMK AO2 SLP328 T11501217
KPKV 280135Z AUTO 06017KT 7SM BKN016 OVC028 07/04 A3027 RMK AO2 T00650035
KPLN 280054Z AUTO 21003KT 10SM OVC027 M12/M16 A3048 RMK AO2 SLP347 T11221161
KPLU 280135Z AUTO 00000KT 10SM OVC006 09/09 A2977 RMK AO2
KPMD 280053Z AUTO 23016KT 10SM CLR 13/07 A2973 RMK AO2 PK WND 23027/0006 SLP061 T01280067
KPMP 280053Z 34007KT 10SM OVC007 21/18 A3015 RMK AO2 SLP209 T02110183
KPMV 280135Z AUTO 14003KT 10SM SCT095 M10/M18 A3051 RMK AO2 T10981182
KPNA 280135Z AUTO 28004KT 7SM SCT026 SCT032 OVC080 M12/M13 A2974 RMK AO2
KPNC 280053Z AUTO 08004KT 8SM BKN047 OVC095 M08/M12 A3050 RMK AO2 SNE35 SLP344 P0000 T10831117
KPNE 280054Z 31007KT 10SM CLR M03/M17 A3057 RMK AO2 SLP352 T10331167
KPNM 280134Z AUTO 19004KT 10SM CLR M13/M19 A3047 RMK AO2
KPNS 280053Z AUTO 01006KT 10SM CLR 11/00 A3031 RMK AO2 SLP267 T01060000
KPNT 280135Z AUTO 14004KT 10SM CLR M17/M20 A3067 RMK AO2 T11741205
KPOB 280132Z AUTO 04005KT 10SM CLR 02/M04 A3047 RMK AO2
KPOC 280047Z 24005KT 10SM OVC036 14/10 A2979
KPOE 280058Z AUTO 03006KT 10SM CLR 04/M03 A3038 RMK AO2 SLP293 T00421030
KPOF 280053Z AUTO 05007KT 10SM OVC090 M06/M13 A3062 RMK AO2 SLP379 T10561133
KPOU 280053Z 29004KT 10SM CLR M09/M18 A3051 RMK AO2 SLP331 T10941183
KPOV 280136Z AUTO 00000KT 10SM CLR M15/M21 A3058 RMK AO2 T11481210
KPOY 280135Z AUTO 32006KT 10SM BKN060 M10/M14 A2985 RMK AO2
KPPA 280135Z AUTO 14010KT 7SM -SN OVC013 M10/M12 A3024 RMK AO2 T11041122
KPPF 280152Z AUTO 06003KT 10SM OVC070 M07/M14 A3054 RMK AO2 SLP359 T10671139
KPPO 280135Z AUTO 27004KT 10SM CLR M13/M19 A3063 RMK AO2 T11351190
KPPQ 280135Z AUTO 13003KT 10SM CLR M12/M18 A3066 RMK AO2 T11161177
KPQI 280135Z AUTO 25008KT 10SM CLR M13/M26 A3030 RMK AO1
KPQL 280053Z 36006KT 10SM CLR 07/01 A3034 RMK AO2 SLP276 T00670006
KPQN 280134Z AUTO 17007KT 10SM CLR M15/M18 A3040 RMK AO2
KPRB 280053Z AUTO 34009KT 10SM BKN046 17/05 A2976 RMK AO2 SLP074 T01670050 TSNO
KPRC 280053Z 21008KT 10SM BKN070 11/M04 A2970 RMK AO2 SLP027 T01061044
KPRG 280135Z AUTO 00000KT 10SM CLR M15/M18 A3066 RMK AO2 T11521184
KPRN 280056Z AUTO 01005KT 10SM CLR 06/M02 A3035 RMK AO2 SLP279 T00611017
KPRO 280135Z AUTO 13004KT 10SM M14/M17 A3056 RMK AO2 T11441170
KPRS 280135Z AUTO 05017G22KT 10SM CLR 04/M02 A2999 RMK AO2 T00351020
KPRX 280135Z 05005KT 5SM FEW013 SCT024 OVC030 M03/M07 A3048 RMK AO1
KPSC 280053Z 03013KT 10SM OVC110 13/M01 A2971 RMK AO2 SLP063 T01331011
KPSF 280054Z AUTO 31011KT 10SM CLR M12/M19 A3041 RMK AO2 SLP331 T11171189
KPSK 280135Z AUTO 36004KT 10SM CLR M05/M12 A3046 RMK AO2 T10531120
KPSM 280058Z 32006KT 10SM CLR M09/M21 A3042 RMK AO2A SLP307 T10931207
KPSN 280135Z AUTO 04008G14KT 10SM OVC046 00/M05 A3041 RMK AO2 T00031051
KPSO 280135Z AUTO 08003KT 5SM -SN BKN007 OVC013 M03/M03 A2976 RMK AO2 T10281030
KPSP 280053Z 31008G21KT 10SM SCT080 BKN110 21/06 A2962 RMK AO2 PK WND 32033/0002 SLP029 T02110056
KPSX 280148Z AUTO 03010KT 9SM BKN020 06/02 A3028 RMK AO2
KPTB 280135Z AUTO 07004KT 10SM CLR M01/M04 A3055 RMK AO2 T10101045
KPTK 280053Z 23003KT 10SM FEW050 M11/M19 A3055 RMK AO2 SLP371 T11111189
KPTN 280135Z AUTO 09005KT 10SM CLR 08/01 A3036 RMK AO1
KPTS 280135Z AUTO 11006KT 10SM -SN SCT022 BKN028 OVC037 M06/M14 A3053 RMK AO2 T10611136
KPTT 280135Z AUTO 14008KT 10SM -SN SCT013 OVC085 M10/M12 A3040 RMK AO2
KPTV 280135Z AUTO 28004KT 10SM SCT080 BKN100 16/09 A2972 RMK AO1
KPTW 280054Z AUTO 00000KT 10SM CLR M07/M15 A3055 RMK AO2 SLP348 T10721150
KPUB 280145Z 09011KT 3SM -SN BR FEW023 OVC031 M09/M11 A2999 RMK AO2 P0000 T10891111
KPUC 280053Z AUTO 29003KT 10SM OVC060 01/M04 A2971 RMK AO2 SLP102 T00061044
KPUJ 280135Z AUTO 01006KT 10SM CLR 01/M06 A3040 RMK AO2
KPUW 280053Z AUTO 04007KT 10SM FEW070 08/M03 A2971 RMK AO2 SLP075 T00781028
KPVB 280135Z AUTO 20007KT 10SM CLR M17/M22 A3058 RMK AO1 T11751222
KPVC 280135Z 25007KT 10SM CLR M06/M16 A3045 RMK AO1
KPVD 280151Z 30007KT 10SM CLR M06/M19 A3048 RMK AO2 SLP323 T10611189
KPVE 280135Z AUTO 02006KT 10SM OVC100 M03/M12 A3055 RMK
KPVF 280135Z AUTO 20007KT 10SM BKN014 BKN023 OVC045 09/06 A2970 RMK AO1
KPVG 280135Z AUTO 05004KT 10SM CLR M02/M06 A3057 RMK AO1
KPVJ 280135Z AUTO 06004KT 4SM -SN BKN031 BKN041 OVC065 M07/M10 A3047 RMK AO2 T10721100
KPVU 272353Z VRB04KT 15SM SCT065 BKN110 04/M02 A2972
KPVW 280135Z AUTO 12006KT 7SM -SN BKN011 OVC017 M09/M12 A3022 RMK AO2 T10951116
KPWA 280132Z 07007KT 9SM FEW016 OVC041 M08/M11 A3047 RMK AO2
KPWC 280134Z AUTO 00000KT 10SM CLR M13/M19 A3041 RMK AO2
KPWG 280135Z AUTO 04013KT 7SM M02/M06 A3040 RMK AO1
KPWK 280152Z 24005KT 10SM CLR M13/M20 A3065 RMK AO2 SLP397 T11331200
KPWM 280151Z 32005KT 10SM CLR M09/M16 A3045 RMK AO2 SLP312 T10941161
KPWT 280135Z AUTO 36009KT 10SM FEW060 SCT080 BKN090 08/06 A2983 RMK AO1
KPXE 280135Z AUTO 02004KT 10SM CLR 10/01 A3037 RMK AO2 T01020008
KPYM 280152Z AUTO 00000KT 10SM CLR M14/M17 A3046 RMK AO2 SLP317 T11391167
KPYX 280135Z AUTO 13011KT 10SM SCT022 BKN045 OVC050 M09/M12 A3026 RMK AO2 T10951121
KPZQ 280134Z AUTO 24003KT 10SM CLR M15/M18 A3051 RMK AO2 T11531179
KQAJ 280155Z 25005KT 9999 SKC 10/00 A3005 RMK SLP175 T01000004
KQAY 280055Z AUTO 24006KT 8000 HZ CLR 13/01 A3004 RMK AO2 SLP172 T01290010 $
KQAZ 280145Z AUTO 09002KT 9999 CLR 17/M07 A2999 RMK CDP03565 CLR
KQBF 280055Z AUTO 03002KT 7SM CLR 21/M10 A3014 RMK AO2 SLP191 T02141103
KQBL 280056Z AUTO 02001KT 10SM CLR 10/01 A3032 RMK AO2 SLP273 T00970010
KQEI 280150Z AUTO 33003KT 9999 CLR 00/M11 A3039 RMK A02 TSNO
KQEJ 280150Z AUTO 05001KT 9999 CLR 01/M11 A3036 RMK A02 TSNO
KQEL 280150Z AUTO 26002KT 9999 CLR 01/M09 A3045 RMK A02 TSNO
KQEN 280150Z AUTO 9999 CLR M04/M13 / RMK A02 TSNO
KQEP 280150Z AUTO 17003KT 9999 CLR 02/M12 A3035 RMK A02 TSNO
KQEQ 280150Z AUTO 06003KT 9999 CLR 01/M07 A3026 RMK A02 TSNO
KQER 280150Z AUTO 8000 /CLR M06/M11 / RMK A02 TSNO
KQES 280150Z AUTO 9999 CLR 03/M08 A3040 RMK A02 TSNO
KQEV 280150Z AUTO 12002KT 9999 CLR 01/M09 A3040 RMK A02 TSNO
KQEW 280150Z AUTO 31001KT 9999 CLR 01/M11 A3041 RMK A02 TSNO
KQEX 280150Z AUTO 02002KT 9999 CLR 01/M10 A3045 RMK A02 TSNO
KQEY 280150Z AUTO 14002KT 9999 SCT120 M01/M10 A3036 RMK A02 TSNO
KQFA 280055Z AUTO VRB05KT 9999 FEW120 SCT180 02/M09 A3037 RMK AO2 SLP290 T00211090 400331057 $
KQFB 280150Z AUTO 32004KT 9999 BKN047 02/M07 A3044 RMK A02 TSNO
KQFG 280055Z AUTO VRB01KT 9999 SCT090 BKN110 08/04 A3013 RMK AO2 SLP207 T00800036
KQFQ 280055Z AUTO 08003KT 6SM FEW120 SCT180 02/M09 A3037 RMK AO2 SLP290 T00211087 $
KQFT 280150Z AUTO 35002KT 9999 FEW033 BKN038 02/M11 A3039 RMK A02 TSNO
KQFU 280150Z AUTO 31006G11KT 9999 CLR 03/M11 A3039 RMK A02 TSNO
KQFV 280150Z AUTO 17002KT 9999 CLR 01/M11 A3036 RMK A02 TSNO
KQFX 280150Z AUTO 00000KT 9999 FEW029 BKN033 01/M10 A3041 RMK A02 TSNO
KQGA 280059Z AUTO 06006KT 4000 HZ CLR 19/M09 A2999 RMK CDP03659 CLR
KQGV 280055Z 25007KT 9999 CLR 09/00 A3005 RMK SLPNO QNH1017 PA +345
KQGX 280058Z COR 36006KT 9999 CLR 16/08 A2998 RMK AO2ASLP155 $ COR 0101
KQHN 280055Z VRB03KT 9999 SCT100 04/01 A3003 RMK SLP191 Q1017 DA2749
KQHY 280056Z AUTO 03003KT 10SM CLR 10/01 A3032 RMK AO2 SLP274 T00960010
KQIR 280135Z 33005KT 0200 FG VV001 13/13 A3001 RMK AO2A RVRNO
KQL5 280055Z 24002KT 9999 FEW200 08/05 A3010 RMK SLP196 T00810046
KQQY 280055Z AUTO 30001KT 9999 FEW130 SCT150 27/20 A2992 RMK AO2 SLP112 T02660197 $
KQRB 280050Z AUTO 10002KT 8000 BR CLR 24/23 A2987 RMK AO2 SLP113 T02390231
KQRH 280056Z AUTO 18001KT 9000 FEW019 23/18 A2993 RMK AO2 SLP128 T02290182
KQSA 280058Z 18002KT 9000 HZ FEW120 01/M02 A3011 RMK AO2A SLP166 T00051020 VISNO RWY21 CHINO RWY21 $
KQSF 280055Z AUTO 11001KT 3200 BR SCT065 00/M03 A3016 RMK AO2 SLP278 T00011026
KQTC 280135Z AUTO 02002KT 5SM CLR 15/M18 A2990 RMK AO2 SLP100 $
KQTF 280055Z AUTO 13001KT 5SM BR CLR 11/10 A3011 RMK AO2 SLP195 T01090097 $
KQTH 280055Z AUTO 24001KT 9999 CLR 12/M05 A3007 RMK AO2 SLP169 T01221055 402940122 $
KQTM 280059Z AUTO 05008KT 9999 CLR 17/M03 A2978 RMK CDP03569 CLR
KQTZ 280055Z 28002KT 9999 SCT250 10/02 A3002 RMK SLP165 WND DATA ESTMD ALSTG/SLP ESTMD
KQVF 280136Z AUTO 10001KT 9999 FEW014 25/23 A2982 RMK AO2 SLP097 $
KQWM 280056Z 27006KT 9999 CLR 12/01 A3006 RMK SLP176 QNH1017
KQXT 280055Z 20007KT 9999 CLR 04/M03 A3010 RMK SLP207 WND DATA ESTMD ALSTG/SLP ESTMD Q1019
KRAC 280153Z AUTO 23007KT 10SM CLR M14/M22 A3063 RMK AO2 SLP389 T11391217
KRAL 280053Z 28005KT 10SM BKN039 OVC065 16/10 A2975 RMK AO2 SLP065 T01610100
KRAP 280152Z 17011KT 10SM BKN043 M08/M13 A3002 RMK AO2 SLP236 T10831128
KRAS 280135Z AUTO 05020G27KT 7SM OVC009 11/09 A3021 RMK AO2 T01060091
KRBD 280111Z AUTO 06007KT 5SM UP BR SCT015 OVC042 M03/M06 A3042 RMK AO2 P0000 T10331056
KRBG 280053Z AUTO 15004KT 10SM -RA BKN049 OVC060 09/06 A2974 RMK AO2 RAE30B35 SLP072 P0000 T00940061
KRBL 280054Z AUTO 30009KT 10SM OVC070 17/02 A2964 RMK AO2 LTG DSNT E SLP037 T01720022
KRBO 272335Z AUTO 04011G15KT 10SM OVC017 11/07 A3020 RMK AO2 T01100070
KRBW 280135Z AUTO 11004KT 10SM CLR 06/03 A3043 RMK AO2
KRCA 280113Z AUTO 17011KT 10SM SCT020 BKN027 M07/M12 A3000 RMK AO2 CIG 020V027 $
KRCE 280135Z AUTO 07007KT 10SM -SN M08/M10 A3046 RMK AO2
KRCM 280135Z AUTO 03005KT 10SM OVC080 M07/M15 A3058 RMK AO2
KRCR 280135Z AUTO 25004KT 10SM CLR M11/M18 A3065 RMK AO2
KRCV 280135Z AUTO 00000KT 10SM SCT060 OVC110 M08/M11 A2976 RMK AO2 T10791106
KRCX 280135Z AUTO 21004KT 10SM CLR M14/M20 A3048 RMK AO2 T11401205
KRCZ 280135Z AUTO 05003KT 10SM 04/M03 A3045 RMK AO2 T00371026
KRDD 280053Z 26011KT 10SM CLR 17/02 A2961 RMK AO2 SLP026 CB N AND NE T01720017
KRDG 280054Z AUTO 26005KT 10SM CLR M06/M16 A3053 RMK AO2 SLP351 T10611161
KRDK 280135Z AUTO 00000KT 10SM CLR M12/M16 A3054 RMK AO2
KRDM 280138Z 22003KT 10SM BKN023 BKN027 BKN037 04/02 A2967 RMK AO2 T00440017
KRDR 280058Z AUTO 18009KT 10SM CLR M14/M19 A3034 RMK AO2 SLP307 T11401187
KRDU 280151Z 03004KT 10SM FEW250 02/M08 A3050 RMK AO2 SLP331 T00171078
KREO 280152Z AUTO 00000KT 03/01 A2961 RMK AO1 SLP039 T00330006
KRFD 280054Z 20005KT 10SM CLR M16/M22 A3063 RMK AO2 SLP397 T11561217
KRFI 280135Z AUTO 07006KT 10SM SCT060 OVC085 00/M06 A3044 RMK AO2 T10011061
KRGK 280131Z AUTO 25005KT 10SM CLR M14/M19 A3054 RMK AO2
KRHI 280153Z AUTO 22005KT 10SM CLR M17/M22 A3041 RMK AO2 SLP348 T11671222
KRHP 280135Z AUTO 00000KT 10SM CLR M03/M05 A3041 RMK AO2 T10301046
KRHV 280152Z 31018KT 10SM BKN045 14/07 A2978
KRIC 280054Z 05003KT 10SM CLR M01/M08 A3053 RMK AO2 SLP345 T10111083
KRIL 280053Z AUTO 30008KT 10SM OVC085 01/M06 A2973 RMK AO2 SLP083 T00111061
KRIV 280058Z AUTO 33004KT 10SM SCT031 BKN055 14/09 A2976 RMK AO2 SLP076 T01440090
KRIW 280053Z AUTO 18004KT 10SM SCT085 M12/M16 A2982 RMK AO2 SLP195 T11171156
KRKD 280135Z AUTO 00000KT 10SM CLR M14/M21 A3041 RMK AO1
KRKP 280053Z AUTO 06020G24KT 7SM OVC013 09/06 A3022 RMK AO2 PK WND 05026/0009 SLP236 T00940056
KRKR 280135Z AUTO 02004KT 2 1/2SM -SN OVC034 M06/M08 A3053 RMK AO2 T10561077
KRKS 280054Z AUTO 17003KT 10SM BKN055 M03/M09 A2971 RMK AO2 SLP124 T10331094
KRME 280053Z 30009KT 10SM OVC038 M13/M17 A3057 RMK AO2 UPE42 SLP364 P0000 T11281172
KRMG 280053Z AUTO 02004KT 10SM CLR 01/M08 A3044 RMK AO2 SLP312 T00061078
KRMN 280135Z AUTO 36006KT 10SM CLR M02/M15 A3062 RMK AO2 T10251154
KRMY 280133Z AUTO 21003KT 10SM CLR M16/M19 A3058 RMK AO2 T11591195
KRNC 280135Z AUTO 03007KT 10SM CLR M03/M12 A3051 RMK
KRND 280058Z AUTO 02014KT 10SM OVC014 01/M03 A3028 RMK AO2 SLP259 T00101026
KRNH 280135Z AUTO 20008KT 10SM CLR M14/M19 A3051 RMK AO2 T11401189
KRNM 280113Z AUTO 21008KT 10SM FEW015 BKN034 OVC040 13/09 A2977 RMK AO2 T01330094
KRNO 280055Z 31008G19KT 10SM -RA FEW025 BKN055 BKN110 05/02 A2965 RMK AO2 PK WND 28034/0014 RAB17 SLP031 MTN TOPS OBSCD SW-W P0001 T00500017 $
KRNP 280135Z AUTO 23003KT 10SM CLR M11/M17 A3058 RMK AO2 T11151170
KRNT 280053Z 32006KT 10SM BKN090 BKN110 10/M02 A2978 RMK AO2 SLP090 T01001017
KRNV 280135Z AUTO 03014G21KT 10SM OVC090 M01/M04 A3053 RMK AO2 T10131045
KROA 280054Z 01007KT 10SM CLR M03/M13 A3051 RMK AO2 SLP344 T10281133
KROC 280054Z 24011KT 10SM CLR M14/M18 A3058 RMK AO2 SLP374 T11391183
KROG 280057Z 05005KT 6SM -SN BR SCT025 OVC060 M08/M10 A3049 RMK AO2 SLP348 P0000 T10831100
KROS 280135Z AUTO 21004KT 10SM CLR M12/M19 A3048 RMK AO2 T11201190
KROW 280151Z 11009KT 10SM OVC013 M06/M08 A3011 RMK AO2 SLP219 T10561083
KROX 280134Z AUTO 21008KT 10SM CLR M13/M17 A3031 RMK AO2
KRPD 280135Z AUTO 20004KT 10SM CLR M13/M19 A3049 RMK AO2 T11341192
KRPH 280135Z AUTO 04003KT 1 1/2SM -SN OVC009 M06/M06 A3040 RMK AO2 P0001 T10621065
KRPJ 280135Z AUTO 18005KT 10SM CLR M23/M26 A3064 RMK AO2 T12311260
KRQB 280134Z AUTO 00000KT 10SM CLR M14/M18 A3053 RMK AO2 T11371181
KRQE 280149Z AUTO 19003KT 3SM -SN BR BKN030 OVC055 01/M01 A2976 RMK AO2 P0002 TSNO
KRQO 280135Z AUTO 07006KT BKN016 OVC038 M07/M11 A3044 RMK AO2 PWINO
KRRL 280135Z AUTO 26003KT 10SM CLR M15/M21 A3046 RMK AO2 T11501210
KRRT 280133Z AUTO 21006KT 10SM CLR M14/M18 A3031 RMK AO2
KRSL 280053Z AUTO 15008KT 10SM CLR M09/M13 A3039 RMK AO2 SLP328 T10941133
KRSN 280135Z AUTO 03009KT 10SM OVC090 01/M05 A3051 RMK AO2 T00111053
KRSP 280054Z AUTO 10SM CLR M09/M19 RMK AO2 SLPNO T10941189 $
KRST 280054Z 20007KT 10SM CLR M19/M22 A3051 RMK AO2 SLP376 T11941222
KRSV 280135Z AUTO 36003KT 10SM CLR M11/M17 A3069 RMK AO2 T11071171
KRSW 280053Z AUTO 05012KT 10SM OVC012 15/12 A3019 RMK AO2 SLP219 T01500117
KRTN 280053Z AUTO 17011KT 3SM -SN BR OVC013 M12/M13 A2991 RMK AO2 SLP200 P0000 T11171133
KRTS 280135Z AUTO 29013KT 10SM CLR 04/M03 A2962 RMK AO2
KRUE 280053Z AUTO 06007KT 7SM -SN SCT033 OVC120 M04/M08 A3053 RMK AO2 SLP340 P0000 T10441083
KRUG 280135Z AUTO 17010KT 10SM CLR M14/M18 A3020 RMK AO2
KRUQ 280135Z AUTO 02004KT 10SM CLR 01/M04 A3045 RMK AO2 T00061038
KRUT 280135Z 26004KT 10SM CLR M11/M21 A3043 RMK AO1
KRVS 280153Z 04006KT 10SM BKN014 OVC060 M07/M10 A3054 RMK AO2 SNE18 SLP356 P0000 T10721100
KRWF 280053Z AUTO 18005KT 10SM CLR M13/M18 A3048 RMK AO2 SLP350 T11331178
KRWI 280153Z AUTO 05008KT 10SM CLR 02/M05 A3051 RMK AO2 SLP334 T00171050
KRWL 280053Z AUTO 26005KT 10SM CLR M04/M14 A2972 RMK AO2 SLP133 T10391144
KRWV 280135Z AUTO 36009KT 10SM OVC029 02/M03 A3039 RMK AO2
KRXE 280053Z AUTO 07004KT 10SM CLR 00/M05 A2973 RMK AO2 SLP096 T00001050
KRYN 280145Z 23009KT 10SM 20/02 A2972
KRYT 272053Z AUTO VRB04KT 10SM FEW041 M03/M14 A3042 RMK AO2 SLP322 T10331144 53012 $
KRYV 280135Z AUTO 22004KT 10SM CLR M14/M20 A3057 RMK AO2 T11421198
KRYW 280135Z AUTO 05007KT 4SM UP OVC003 M01/M01 A3032 RMK AO2 T10071015
KRYY 280152Z 33003KT 10SM SKC 01/M07 A3043
KRZL 280135Z AUTO 24004KT 10SM CLR M15/M18 A3067 RMK AO2
KRZN 280130Z AUTO 20004KT 10SM CLR M16/M21 A3047 RMK AO2 T11601211
KRZR 280155Z AUTO 02003KT 10SM CLR M04/M07 A3048 RMK
KRZT 280135Z AUTO 00000KT 10SM CLR M15/M21 A3065 RMK AO2
KS25 280135Z AUTO 16008KT 10SM CLR M07/M14 A3004 RMK AO2
KS39 280140Z AUTO 30006KT 10SM OVC026 05/02 A2967 RMK AO2
KSAA 280135Z AUTO 21007KT 10SM CLR M06/M12 A2974 RMK AO2
KSAC 280053Z AUTO 23016G20KT 10SM FEW075 17/08 A2966 RMK AO2 SLP044 T01720083
KSAD 280151Z AUTO 09006KT 10SM CLR 15/M01 A2968 RMK AO2 SLP030 T01501011
KSAF 280140Z AUTO 15015KT 1SM -SN BR VV012 M08/M11 A2987 RMK AO2 P0000 T10831106
KSAN 280151Z 29011KT 10SM SCT019 SCT025 BKN033 17/11 A2980 RMK AO2 SLP091 T01720111
KSAR 280135Z AUTO 05005KT 10SM SCT070 OVC090 M08/M13 A3066 RMK AO2 T10761134
KSAT 280151Z 02011G18KT 5SM BR OVC007 01/M01 A3031 RMK AO2 SLP262 T00061011
KSAV 280053Z 08006KT 10SM SCT180 BKN250 07/02 A3040 RMK AO2 SLP295 T00670017
KSAW 280145Z 00000KT 10SM SKC M17/M20 A3037
KSAZ 280133Z AUTO 21003KT 10SM CLR M15/M21 A3040 RMK AO2
KSBA 280053Z 10SM CLR 18/07 A2975 RMK AO2 PK WND 02036/0050 SLP072 T01830067
KSBD 280149Z 00000KT 7SM OVC027 13/08 A2976
KSBM 280153Z AUTO 22006KT 10SM CLR M14/M19 A3056 RMK AO2 SLP368 T11391194
KSBN 280054Z 24006KT 10SM CLR M12/M19 A3063 RMK AO2 SLP392 T11221194
KSBO 280135Z AUTO 00000KT 10SM CLR 08/03 A3040 RMK AO2
KSBP 280056Z 30015G23KT 10SM BKN020 14/10 A2979 RMK AO2 PK WND 32027/0025 SLP089 T01440100
KSBS 280135Z AUTO 00000KT 10SM CLR M05/M14 A2975 RMK AO1 T10511144
KSBY 280054Z 35004KT 10SM CLR M02/M10 A3055 RMK AO2 SLP349 T10221100
KSCD 280135Z AUTO 03004KT 10SM CLR 02/M05 A3043 RMK AO2 T00211051
KSCH 272150Z 28014G21KT 10SM CLR M07/M18 A3042
KSCK 280055Z 24020G24KT 10SM CLR 16/07 A2971 RMK AO2 PK WND 24027/0029 SLP061 T01560067
KSCR 280135Z AUTO 03004KT 10SM CLR M02/M03 A3047 RMK AO2 T10221035
KSDA 280135Z AUTO 15005KT 10SM CLR M11/M17 A3055 RMK AO2
KSDB 280153Z AUTO 22007KT 3/4SM HZ BKN003 BKN009 08/05 A2975 RMK AO2 VIS M1/4V4 T00780050
KSDF 280056Z 02006KT 10SM BKN250 M05/M16 A3064 RMK AO2 SLP383 T10501161
KSDL 280053Z 25007G16KT 10SM CLR 22/M01 A2964 RMK AO2 SLP022 T02221011
KSDM 280100Z AUTO 21009KT 10SM SCT018 BKN023 OVC030 16/11 A2979 RMK AO2 T01560111
KSDY 280135Z AUTO 18004KT 10SM OVC050 M04/M13 A3007 RMK AO1
KSEA 280053Z 36011KT 10SM FEW009 BKN070 OVC085 09/07 A2979 RMK AO2 SLP093 T00940067
KSEE 280147Z 20008KT 7SM FEW024 BKN035 16/12 A2980
KSEG 280053Z AUTO VRB04KT 10SM CLR M07/M17 A3055 RMK AO2 SLP353 T10671172
KSEM 280135Z AUTO 02007KT 10SM 05/M05 A3040 RMK AO2
KSEP 280135Z AUTO 03006KT 3SM OVC006 M04/M06 A3040 RMK AO2 T10451056
KSET 280054Z AUTO 05004KT 10SM CLR M11/M19 A3066 RMK AO2 SLP392 T11061189
KSEZ 280135Z AUTO 19009G17KT 10SM BKN070 OVC085 11/M03 A2970 RMK AO2
KSFB 280153Z 02009KT 10SM OVC011 12/09 A3027 RMK AO2 SLP250 T01220094
KSFF 280053Z 05012G19KT 10SM CLR 08/M07 A2980 RMK AO2 SLP101 T00781067
KSFM 280135Z AUTO 36004KT 10SM CLR M10/M22 A3043 RMK AO1
KSFO 280056Z 28020G25KT 10SM FEW016 SCT026 SCT150 14/09 A2978 RMK AO2 PK WND 28032/0031 SLP085 T01390094
KSFQ 280135Z AUTO 04005KT 10SM CLR M02/M05 A3055 RMK AO2 T10171050
KSFY 280135Z AUTO 00000KT 10SM CLR M19/M22 A3065 RMK AO2 T11901222
KSFZ 280135Z 29006KT 10SM CLR M08/M21 A3043 RMK AO1
KSGF 280152Z 19008KT 10SM OVC060 M07/M12 A3050 RMK AO2 SLP350 T10671122
KSGH 280056Z AUTO 04004KT 8SM CLR M13/M19 A3062 RMK AO2 T11331194 SLP394
KSGJ 280119Z 01017G21KT 10SM FEW016 OVC028 12/09 A3032 RMK AO2
KSGR 280053Z 06007KT 10SM CLR 07/00 A3030 RMK AO2 SLP261 T00670000
KSGS 280131Z AUTO 20003KT 10SM CLR M12/M19 A3053 RMK AO2 T11231186
KSGT 280135Z AUTO 04012KT 10SM BKN100 OVC120 M03/M09 A3056 RMK AO1
KSGU 280135Z AUTO 23003KT 10SM CLR 13/M04 A2964 RMK AO1
KSHD 280135Z AUTO 03008KT 10SM CLR M04/M13 A3052 RMK AO2 T10451133
KSHL 280135Z AUTO 15009KT 10SM CLR M16/M20 A3046 RMK AO2
KSHM 280143Z AUTO 12005KT 7SM -SN FEW008 OVC020 M14/M16 A2991 RMK AO2
KSHN 280053Z AUTO 02009G17KT 10SM -RA BKN043 OVC050 08/05 A2977 RMK AO2 RAE2357B23 SLP082 P0000 T00780050
KSHR 280053Z AUTO 29006KT 10SM FEW075 M12/M17 A2992 RMK AO2 SLP227 T11171167
KSHV 280056Z 07008KT 10SM OVC085 01/M07 A3044 RMK AO2 SLP310 T00061067
KSIF 280135Z AUTO 04003KT 10SM CLR 00/M09 A3049 RMK AO2 T00031092
KSIK 280155Z AUTO 36004KT 10SM SCT080 OVC090 M04/M11 A3064 RMK AO2 PWINO
KSIY 280053Z AUTO 04008KT 10SM FEW031 BKN070 OVC080 07/03 A2971 RMK AO2 RAE2355B32E46 SLP076 P0000 T00670028
KSJC 280053Z 26015KT 10SM FEW016 SCT038 BKN044 14/06 A2979 RMK AO2 SLP087 T01440056
KSJN 280054Z AUTO 22012KT 10SM BKN065 OVC085 10/M04 A2970 RMK AO2 PK WND 21028/0007 SLP031 T01001039
KSJS 280135Z AUTO 02004KT 10SM CLR M08/M14 A3057 RMK AO2 T10771141
KSJT 280151Z 07010KT 10SM BKN005 OVC013 M04/M06 A3029 RMK AO2 SLP280 I1001 T10441056
KSJX 280136Z AUTO 22006KT 10SM CLR M11/M16 A3047 RMK AO2 T11121158
KSKA 280058Z AUTO 03014KT 10SM CLR 06/M06 A2977 RMK AO2 SLP099 T00561060
KSKF 280058Z 03009KT 10SM OVC009 01/00 A3026 RMK AO2A SLP252 $
KSKX 280135Z AUTO 26004KT 3SM OVC023 M07/M09 A2983 RMK AO1
KSLB 280135Z AUTO 16008KT 10SM CLR M17/M21 A3050 RMK AO2
KSLC 280053Z 21005KT 10SM FEW070 FEW140 SCT210 06/M02 A2970 RMK AO2 SLP055 T00561022
KSLE 280056Z 16008KT 10SM FEW018 OVC044 10/07 A2970 RMK AO2 RAB2358E09 SLP058 P0000 T01000072
KSLG 280135Z AUTO 05005KT 5SM OVC037 M08/M12 A3049 RMK AO1
KSLH 280138Z AUTO 00000KT 10SM SCT026 M15/M17 A3048 RMK AO2 T11541177
KSLI 280058Z 23008KT 10SM SCT035 BKN055 17/12 A2976 RMK AO2A SLP081 T01650122
KSLK 280151Z AUTO 22003KT 7SM FEW015 OVC023 M16/M20 A3038 RMK AO2 SLP334 T11561200
KSLN 280053Z 16010KT 10SM BKN055 OVC070 M08/M14 A3048 RMK AO2 SLP343 T10781139
KSLO 280135Z AUTO 00000KT 10SM SCT120 M09/M16 A3066 RMK AO2 T10901162
KSLR 280135Z AUTO 06005KT 5SM HZ OVC050 M02/M05 A3049 RMK AO2 T10201055
KSME 280135Z AUTO 03006KT 10SM CLR M07/M13 A3061 RMK AO2
KSMF 280053Z 25010KT 10SM SCT065 18/05 A2965 RMK AO2 SLP039 T01780050
KSMN 280135Z AUTO 05003KT 10SM OVC050 02/M07 A2972 RMK AO1
KSMO 280151Z VRB04KT 10SM OVC044 16/11 A2976 RMK AO2 SLP075 T01610111
KSMQ 280053Z AUTO 31003KT 10SM CLR M06/M17 A3052 RMK AO2 SLP338 T10561172 TSNO
KSMS 280135Z AUTO 00000KT 10SM CLR 04/03 A3043 RMK AO2
KSMX 280151Z 31012G19KT 10SM SCT020 13/09 A2981 RMK AO2 SLP096 T01330094
KSNA 280145Z 24004KT 10SM FEW021 SCT028 BKN055 18/11 A2976 RMK AO2
KSNC 280135Z AUTO 32006KT 10SM CLR M06/M17 A3049 RMK AO2
KSNH 280135Z AUTO 01008KT 10SM BKN110 M01/M12 A3054 RMK
KSNK 280135Z AUTO 07008KT 7SM BKN010 OVC035 M09/M11 A3029 RMK AO2 T10871106 TSNO
KSNL 280135Z AUTO 05004KT 10SM SCT012 OVC044 M06/M07 A3049 RMK AO2
KSNS 280053Z AUTO 26018G24KT 10SM BKN039 16/08 A2981 RMK AO2 PK WND 26026/0010 SLP101 T01610078 TSNO $
KSNT 280151Z AUTO 00000KT M01/M08 A2964 RMK AO1 SLP030 T10061083
KSNY 280053Z AUTO 17017KT 10SM OVC031 M09/M14 A3004 RMK AO2 SLP245 T10941144
KSOA 280135Z AUTO 07008KT 10SM BKN008 OVC012 M02/M03 A3028 RMK AO2
KSOP 280135Z AUTO 00000KT 10SM CLR 01/M04 A3047 RMK AO1
KSOW 280135Z AUTO 23012G17KT 10SM SCT060 06/M06 A2976 RMK AO2
KSPA 280155Z AUTO 02004KT 10SM CLR 06/M02 A3041 RMK AO2
KSPB 280053Z AUTO 09006KT 10SM BKN040 BKN047 OVC055 11/06 A2972 RMK AO2 SLP065 T01060061 $
KSPD 280056Z AUTO 16020G24KT M12/M14 A3005 RMK AO1 SLP235 T11221139
KSPF 280135Z AUTO 19007KT 10SM CLR M12/M15 A2995 RMK AO2
KSPG 280110Z 07014KT 10SM BKN028 BKN100 16/11 A3021 RMK AO2 T01560106
KSPI 280052Z 14003KT 10SM CLR M12/M19 A3065 RMK AO2 SLP397 T11221189
KSPL 280135Z AUTO 12004KT 1SM BKN034 OVC044 16/15 A3015 RMK AO1
KSPR 280135Z AUTO 06022G29KT 9SM OVC027 12/06 A3030 RMK A01
KSPS 280152Z AUTO 07009KT 3SM -SN BR OVC065 M07/M09 A3042 RMK AO2 SLP315 P0000 T10721094
KSPW 280053Z AUTO 18007KT 10SM CLR M17/M21 A3049 RMK AO2 SLP366 T11721211 TSNO
KSQE 280135Z AUTO 06024G30KT 10SM BKN019 OVC025 14/11 A3026 RMK A01
KSQI 280135Z AUTO 00000KT 10SM CLR M16/M20 A3064 RMK AO1
KSQL 280048Z 26014G23KT 10SM BKN027 14/07 A2980
KSRB 280135Z AUTO 04006KT 10SM CLR M04/M12 A3051 RMK
KSRC 280056Z AUTO 05013KT 10SM BKN065 BKN085 OVC100 M04/M10 A3058 RMK AO2 SLP362 T10391100 FZRANO TSNO
KSRQ 280124Z AUTO 07010KT 10SM BKN019 OVC055 14/10 A3019 RMK AO2 T01440100
KSRR 280135Z AUTO M1/4SM FZFG OVC001 M10/M11 A2993 RMK AO2
KSSC 280103Z AUTO 04003KT 10SM SCT055 05/01 A3039 RMK AO2
KSSF 280120Z 04010G18KT 9SM OVC014 02/M02 A3029 RMK AO2 T00171017
KSSI 280053Z AUTO 03007KT 10SM CLR 08/03 A3037 RMK AO2 SLP284 T00830033
KSTC 280053Z 20008KT 10SM CLR M12/M19 A3046 RMK AO2 SLP353 T11221189
KSTE 280135Z AUTO 00000KT 10SM CLR M15/M21 A3050 RMK AO2 T11541214
KSTF 280135Z AUTO 01004KT 10SM BKN120 02/M06 A3048 RMK AO2
KSTJ 280053Z AUTO 17005KT 10SM OVC100 M07/M17 A3057 RMK AO2 SLP368 T10721167
KSTK 280130Z AUTO 17010KT 10SM BKN037 M10/M13 A3006 RMK AO2
KSTL 280151Z 07006KT 10SM SCT110 BKN250 M09/M18 A3066 RMK AO2 SLP404 T10891178
KSTP 280053Z 22006KT 10SM CLR M12/M19 A3054 RMK AO2 SLP358 T11171189
KSTS 280053Z COR 33013G20KT 10SM SCT055 13/05 A2973 RMK AO2 SLP061 T01330050
KSUA 280135Z AUTO 05010KT 7SM SCT008 BKN014 OVC018 19/18 A3020 RMK AO2 P0001
KSUE 280135Z AUTO 24007KT 10SM CLR M11/M21 A3051 RMK AO1
KSUN 280147Z 00000KT 10SM SCT080 BKN120 01/M04 A2969
KSUS 280054Z 05007KT 10SM FEW100 SCT120 M09/M18 A3064 RMK AO2 SLP392 T10891178
KSUT 280135Z AUTO 00000KT 10SM CLR 04/02 A3045 RMK AO2 T00420016
KSUU 280058Z AUTO 24020G26KT 10SM CLR 15/09 A2967 RMK AO2 PK WND 26027/48 SLP054 T01510086 $
KSUW 280135Z AUTO 22008KT 10SM CLR M11/M20 A3045 RMK AO2 T11061200
KSUX 280152Z 14010KT 10SM CLR M12/M17 A3050 RMK AO2 SLP359 T11171167
KSVC 280135Z AUTO 15009KT 10SM CLR 07/M04 A2983 RMK AO2
KSVH 280135Z AUTO 03005KT 10SM CLR 02/M06 A3044 RMK AO2 T00201058
KSVN 280058Z AUTO 06004KT 10SM CLR 07/02 A3037 RMK AO2 SLP288 T00710022
KSWF 280145Z 31012KT 10SM SKC M08/M17 A3053
KSWO 280053Z 06007KT 10SM OVC060 M08/M12 A3049 RMK AO2 SNE2358 SLP341 P0000 T10831122
KSWW 280135Z AUTO 06010KT 4SM OVC003 M08/M08 A3031 RMK AO2 T10801083
KSXS 280056Z AUTO 34003KT 10SM CLR 08/01 A3034 RMK AO2 SLP279 T00820005
KSXT 280146Z AUTO 31004KT 10SM BKN007 OVC013 02/01 A2969 RMK AO2 T00170011
KSYF 280135Z AUTO 16013G20KT 10SM OVC046 M09/M14 A3017 RMK AO2 T10951139
KSYI 280135Z AUTO 36007KT 10SM CLR M03/M11 A3055 RMK
KSYM 280130Z AUTO 35005KT 10SM CLR M08/M17 A3062 RMK AO2
KSYN 280134Z AUTO 19004KT 10SM CLR M18/M21 A3052 RMK AO2 T11771213
KSYR 280054Z 27009KT 10SM BKN037 M12/M18 A3058 RMK SLP361 BKN V SCT SNE023 T11171179
KSZL 280058Z 03007KT 10SM OVC090 M07/M16 A3055 RMK AO2A SLP367 T10751157 $
KSZT 280135Z AUTO 02012G16KT 10SM BKN095 03/M07 A2988 RMK AO2
KT20 280135Z AUTO 03007KT 10SM OVC022 05/00 A3030 RMK AO2 T00480000
KT35 280135Z AUTO 01007KT 10SM UP SCT010 OVC028 00/M01 A3038 RMK AO2 T00031009
KT65 280135Z AUTO 35007KT 7SM OVC006 12/10 A3017 RMK AO2 T01200100
KT82 280135Z AUTO 06008KT 7SM OVC008 M02/M03 A3027 RMK AO2 T10251032
KTAD 280054Z AUTO 31009KT 10SM CLR M11/M13 A2990 RMK AO2 SLP193 T11061133
KTAN 280152Z AUTO 00000KT 10SM CLR M15/M17 A3047 RMK AO2 SLP318 T11501167
KTAZ 280135Z AUTO 00000KT 10SM CLR M13/M16 A3066 RMK AO2
KTBN 280058Z AUTO 10006KT 10SM OVC040 M06/M16 A3051 RMK AO2 SLP358 T10651161
KTBR 280135Z AUTO 00000KT 10SM CLR 05/05 A3040 RMK AO2 T00450045
KTCC 280121Z AUTO 18011KT 10SM BKN018 OVC031 M09/M12 A3010 RMK AO2 T10891122
KTCL 280153Z 36010KT 10SM CLR 03/M07 A3049 RMK AO2 SLP325 T00281067
KTCM 280113Z AUTO 01007KT 10SM SCT012 OVC050 09/09 A2977 RMK AO2
KTCS 280153Z AUTO 12008KT 10SM CLR 05/M03 A2983 RMK AO2 SLP089 T00501033 TSNO
KTDF 280135Z AUTO 01004KT 10SM CLR 00/M08 A3051 RMK AO2
KTDR 280056Z AUTO 03008KT 10SM BKN220 10/05 A3030 RMK AO2 SLP264 T00990049
KTDZ 280053Z AUTO 22005KT 10SM CLR M13/M20 A3063 RMK AO2 SLP390 T11331200 TSNO
KTEB 280151Z 32008KT 10SM CLR M05/M18 A3055 RMK AO2 SLP344 T10501183
KTEW 280134Z AUTO 00000KT 10SM CLR M14/M19 A3058 RMK AO2 T11411192
KTEX 280135Z AUTO 14003KT 7SM SCT024 SCT031 OVC060 M05/M06 A2973 RMK AO2 T10521062
KTFP 280135Z AUTO 05015G20KT 10SM OVC010 10/07 A3021 RMK AO2 T00990067
KTGI 280135Z AUTO 02009KT 10SM CLR M02/M05 A3056 RMK AO1
KTHA 280135Z AUTO 36006KT 10SM CLR M04/M12 A3050 RMK
KTHV 280053Z AUTO 31007KT 10SM CLR M07/M17 A3056 RMK AO2 SLP359 T10721167
KTIF 280135Z AUTO 17007KT 10SM CLR M08/M14 A3021 RMK AO2 T10771145
KTIK 280122Z 07006KT 10SM OVC015 M08/M11 A3045 RMK AO2A
KTIP 280135Z AUTO 02005KT 10SM CLR M13/M17 A3064 RMK AO2 T11351175
KTIW 280053Z 36013KT 10SM FEW010 OVC060 08/06 A2977 RMK AO2 RAB2355E13 SLP083 P0000 T00830061
KTIX 280150Z 35010KT 5SM BR OVC007 13/12 A3026 RMK LAST
KTKC 280133Z AUTO 21006KT 10SM CLR M13/M18 A3045 RMK AO2 T11331177
KTKI 280053Z 06007KT 10SM FEW021 OVC055 M03/M06 A3045 RMK AO2 SLP331 T10331056
KTKV 280135Z AUTO 00000KT 10SM CLR M15/M21 A3043 RMK AO2 T11511209
KTLH 280053Z 04004KT 10SM BKN160 BKN250 12/04 A3032 RMK AO2 SLP265 T01170039 $
KTMA 280135Z AUTO 00000KT 10SM CLR 08/04 A3035 RMK AO2 T00770039
KTMB 280131Z 36008KT 10SM OVC009 20/18 A3016 RMK AO2 T02000178
KTME 280135Z AUTO 05004KT 10SM BKN033 OVC044 05/01 A3032 RMK AO2
KTMK 280135Z AUTO 00000KT 10SM SCT050 SCT080 OVC110 09/07 A2973 RMK AO2
KTNB 280135Z AUTO 27005KT 10SM CLR M05/M10 A3037 RMK AO2 T10531102
KTNU 280135Z AUTO 09005KT 10SM CLR M17/M21 A3060 RMK AO2
KTOA 280147Z 29010KT 10SM SCT020 BKN050 16/13 A2978
KTOB 280133Z AUTO 20007KT 10SM SCT080 SCT100 M21/M23 A3050 RMK AO2
KTOC 280135Z AUTO 29003KT 10SM CLR 05/M03 A3038 RMK AO2 T00451035
KTOI 280053Z AUTO 35007KT 10SM CLR 07/M02 A3036 RMK AO2 SLP281 T00671017
KTOL 280152Z 19006KT 10SM CLR M14/M20 A3063 RMK AO2 SLP392 T11391200
KTOP 280053Z 08003KT 10SM OVC080 M07/M18 A3055 RMK AO2 SLP362 T10721178
KTOR 280053Z AUTO 15014KT 10SM FEW028 M08/M14 A2994 RMK AO2 SLP205 T10781139
KTPA 280150Z 06007KT 10SM OVC028 15/08 A3024 RMK AO2 CIG 026V033
KTPF 280135Z AUTO 06013G19KT 10SM BKN029 OVC035 15/11 A3023 RMK AO2
KTPH 280107Z AUTO 30021G29KT 10SM -RA BKN040 OVC050 05/M01 A2964 RMK AO2 PK WND 31029/0106 WSHFT 0047 RAB01 P0000 T00501011
KTPL 280135Z AUTO 01007KT 6SM BKN016 OVC025 M02/M04 A3037 RMK AO1
KTQE 280054Z AUTO 11007KT 10SM CLR M10/M14 A3051 RMK AO2 SLP355 T11001144
KTQH 280135Z AUTO 00000KT 3SM -SN OVC008 M07/M08 A3051 RMK AO2
KTRI 280153Z 00000KT 10SM FEW035 M05/M10 A3048 RMK AO2 SLP330 T10501100
KTRK 280135Z AUTO 09005KT 10SM -RA SCT004 SCT010 BKN045 M01/M01 A2966 RMK AO2 P0001
KTRL 280053Z AUTO 05007KT 7SM OVC045 M02/M06 A3045 RMK AO2 SLP314 T10171061
KTRM 280152Z AUTO 34016G25KT 10SM CLR 21/07 A2960 RMK AO2 SLP023 T02060072 TSNO
KTSP 280155Z AUTO 29018G23KT 7SM FEW024 BKN029 08/04 A2974 RMK AO2
KTTA 280135Z AUTO 00000KT 10SM CLR 00/M03 A3049 RMK AO2 T10051026
KTTD 280053Z 10011KT 10SM CLR 09/04 A2973 RMK AO2 SLP066 T00940039
KTTF 280133Z AUTO 00000KT 10SM CLR M14/M20 A3061 RMK AO2
KTTN 280053Z 29006KT 10SM CLR M04/M16 A3053 RMK AO2 SLP335 T10441161
KTTS 280058Z AUTO 36010KT 5SM -RA BR OVC005 14/13 A3022 RMK AO2 RAE06DZB06E11RAB11 SLP237 P0002 T01360125 $
KTUL 280119Z 03004KT 4SM -SN BR OVC070 M08/M10 A3054 RMK AO2 P0000 T10781100
KTUP 280153Z 03011KT 10SM OVC110 01/M09 A3053 RMK AO2 SLP339 T00111089
KTUS 280053Z 24015KT 10SM CLR 22/M01 A2971 RMK AO2 PK WND 25026/0005 SLP035 T02171006
KTVC 280053Z 17003KT 10SM SCT030 M12/M17 A3050 RMK AO2 SLP347 T11221167
KTVF 280135Z AUTO 20008KT 10SM CLR M16/M19 A3034 RMK AO1
KTVI 280135Z AUTO 07005KT 10SM CLR 09/05 A3035 RMK AO2
KTVK 280135Z AUTO 10003KT 10SM CLR M13/M18 A3060 RMK AO2
KTVL 280140Z AUTO 21004KT 8SM BKN032 OVC075 01/M02 A2965 RMK AO2 SNE39 P0003 T00111022
KTVR 280053Z AUTO 01018G23KT 10SM OVC110 02/M03 A3047 RMK AO2 SLP324 T00171028
KTWF 280053Z 07013KT 10SM SCT048 OVC070 07/M02 A2966 RMK AO2 SLP030 T00671022
KTWM 280134Z AUTO 25006KT 10SM CLR M10/M21 A3036 RMK AO2
KTXK 280053Z 07007G15KT 10SM OVC060 M01/M09 A3045 RMK AO2 SLP315 T10111094
KTYQ 280135Z AUTO 00000KT 10SM CLR M14/M19 A3064 RMK AO2 T11371186
KTYR 280053Z AUTO 06010KT 10SM OVC050 M01/M08 A3043 RMK AO2 SLP307 T10061078 $
KTYS 280153Z 01009KT 10SM CLR M02/M11 A3050 RMK AO2 SLP339 T10221111
KTZR 280135Z AUTO 30004KT 10SM CLR A3064 RMK AO2
KU16 280058Z AUTO 11007KT 10SM CLR 05/M04 A2966 RMK AO2 SLP684 T00501044 $
KU68 280135Z AUTO 32003KT 10SM OVC070 M03/M12 A2991 RMK AO2
KUAO 280053Z AUTO 19006KT 10SM SCT037 BKN060 10/07 A2972 RMK AO2 SLP066 T01000067
KUBE 280135Z AUTO 21008KT 10SM CLR M15/M20 A3046 RMK AO2
KUCP 280056Z AUTO 00000KT 10SM CLR M13/M21 A3060 RMK AO2 T11331205 SLP407
KUCY 280135Z AUTO 04006KT 10SM OVC050 M06/M11 A3059 RMK
KUDG 280135Z AUTO 04007KT 10SM CLR 06/M01 A3046 RMK AO1
KUES 280045Z 23009KT 10SM SKC M14/M21 A3057
KUGN 280055Z 23005KT 10SM CLR M14/M21 A3060 RMK AO2 SLP395 T11391206
KUIL 280053Z AUTO 05010G23KT 9SM BKN095 09/04 A2979 RMK AO2 SLP089 T00940044
KUIN 280054Z AUTO 06003KT 10SM FEW120 M13/M19 A3063 RMK AO2 SLP391 T11281194
KUKF 280135Z AUTO 00000KT 10SM CLR 00/M10 A3049 RMK AO2
KUKI 280056Z AUTO VRB06G23KT 10SM FEW033 BKN060 12/04 A2977 RMK AO2 SLP076 T01170039
KUKT 280135Z AUTO 00000KT 10SM CLR M09/M16 A3054 RMK AO1
KULM 280133Z AUTO 18005KT 10SM CLR M16/M20 A3050 RMK AO2
KUNI 280135Z AUTO 00000KT 10SM CLR M10/M18 A3064 RMK AO2 T11001185
KUNO 280053Z AUTO 10003KT 10SM OVC065 M06/M17 A3052 RMK AO2 SLP358 T10611167
KUNU 280135Z AUTO 20007KT 10SM CLR M14/M20 A3057 RMK AO2 T11401196
KUNV 280153Z 28012KT 10SM SKC M11/M20 A3055
KUOX 280135Z AUTO 01009G15KT 10SM CLR M01/M09 A3053 RMK AO2 PWINO PNO
KUSE 280135Z AUTO 21005KT 10SM CLR M14/M20 A3062 RMK AO2
KUTA 280135Z AUTO 01012KT 10SM CLR M02/M05 A3056 RMK AO2
KUTS 280053Z AUTO 07009KT 10SM OVC046 04/M03 A3033 RMK AO2 SLP273 T00441028
KUUU 280053Z AUTO 30005KT 10SM CLR M06/M15 A3043 RMK AO2 SLP307 T10561150
KUVA 280135Z AUTO 05006KT 5SM DZ SCT004 SCT011 OVC018 01/01 A3030 RMK AO2 T00140008
KUXL 280135Z AUTO 08006KT 10SM CLR 07/02 A3038 RMK AO2 T00690017
KUYF 280155Z AUTO 35004KT 10SM CLR M13/M19 A3062 RMK AO2
KUZA 280054Z AUTO 08003KT 10SM CLR 06/M03 A3041 RMK AO2 SLP307 T00561028
KVAD 280058Z AUTO 06004KT 10SM CLR 09/04 A3033 RMK AO2 SLP274 T00850040 $
KVAF 280135Z AUTO 07028KT 5SM HZ BKN020 15/12 A3017 RMK A01
KVAY 280054Z AUTO VRB05KT 10SM CLR M04/M16 A3055 RMK AO2 SLP347 T10391156
KVBG 280055Z COR 30015KT 10SM FEW012 SCT017 BKN250 15/11 A2982 RMK AO2 SLP089 T01500106 LAST COR 0056
KVBS 280135Z AUTO 11011KT 10SM OVC036 09/03 A3035 RMK A01
KVBT 280135Z AUTO 05005KT 3SM BKN030 OVC035 M08/M11 A3049 RMK AO1
KVBW 280135Z AUTO 03003KT 10SM CLR M05/M14 A3051 RMK AO2 T10521141
KVCB 280053Z AUTO 28010KT 10SM CLR 17/04 A2969 RMK AO2 SLP054 T01720039
KVCT 280051Z 05015KT 8SM OVC017 07/03 A3027 RMK AO2 SLP249 T00670028
KVCV 280135Z AUTO 28011G17KT 10SM BKN048 OVC060 14/04 A2973 RMK AO2
KVDF 280155Z AUTO 06010G18KT 10SM SCT019 BKN029 OVC033 15/10 A3025 RMK AO2
KVDI 280135Z AUTO 00000KT 10SM CLR 07/04 A3038 RMK AO2
KVEL 280053Z AUTO 15006KT 10SM CLR 02/M10 A2973 RMK AO2 SLP088 T00171100
KVER 280135Z AUTO 08006KT 10SM OVC100 M07/M15 A3059 RMK AO2 T10721154
KVES 280135Z AUTO 00000KT 10SM CLR M13/M16 A3062 RMK AO2
KVGT 280053Z 12007KT 10SM CLR 17/M05 A2958 RMK AO2 SLP026 T01671050
KVIH 280053Z AUTO 10005KT 10SM CLR M07/M17 A3053 RMK AO2 SLP363 T10671167
KVIS 280135Z AUTO 33004KT 10SM FEW050 SCT070 BKN090 17/07 A2971 RMK AO1
KVJI 280135Z AUTO 00000KT 10SM CLR M06/M11 A3044 RMK AO2 T10601108
KVKY 280135Z AUTO 07022KT 10SM CLR 13/04 A3031 RMK A01
KVLD 280053Z 05005KT 10SM SCT040 09/04 A3034 RMK AO2 SLP281 T00890039
KVLL 280135Z AUTO 00000KT 10SM CLR M09/M19 A3061 RMK AO2 T10941186
KVNC 280135Z AUTO 06016G20KT 10SM FEW016 BKN045 13/12 A3020 RMK AO2
KVNY 280151Z 20005KT 10SM OVC044 15/09 A2974 RMK AO2 SLP068 T01500089
KVOA 280135Z AUTO 06021KT 10SM SCT032 15/05 A3029 RMK A01
KVOK 280058Z AUTO 23006KT 10SM CLR M12/M20 A3053 RMK AO2 SLP368 T11211205
KVPC 280153Z AUTO 35004KT 10SM CLR 01/M08 A3045 RMK AO2 SLP314 T00061083
KVPS 280055Z 02005KT 10SM FEW200 BKN300 09/01 A3030 RMK AO2A SLP263 T00940013 $
KVPZ 280056Z AUTO 27007KT 10SM CLR M15/M21 A3063 RMK AO2 SLP393 T11501211 TSNO
KVQQ 280135Z AUTO 02008KT 10SM OVC036 08/04 A3035 RMK AO2
KVQT 280135Z AUTO 06016G21KT 9SM OVC022 12/08 A3030 RMK A01
KVRB 280053Z 02004KT 2SM -RA BR OVC004 17/16 A3021 RMK AO2 RAB39 SLP227 P0000 T01670156
KVSF 280054Z AUTO 34003KT 10SM CLR M14/M21 A3044 RMK AO2 SLP323 T11441206 TSNO
KVTA 280054Z AUTO 00000KT 10SM CLR M15/M19 A3062 RMK AO2 SLP390 T11501194
KVTI 280135Z AUTO 00000KT 10SM CLR M17/M20 A3060 RMK AO2 T11711205
KVTN 280152Z AUTO 17012KT 10SM CLR M07/M16 A3019 RMK AO2 SLP281 T10671161
KVTP 280135Z AUTO 1 1/2SM -SN OVC002 M09/M11 A2972 RMK AO2
KVUJ 280135Z AUTO 02003KT 10SM CLR M01/M02 A3050 RMK AO2 T10101016
KVUO 280053Z AUTO 11009KT 10SM CLR 11/04 A2972 RMK AO2 SLP065 T01110044
KVVG 280135Z AUTO 02007G12KT 6SM HZ 11/07 A3018 RMK A01
KVVV 280134Z AUTO 18005KT 10SM CLR M13/M19 A3043 RMK AO2
KVWU 280129Z AUTO 00000KT 10SM CLR M13/M19 A3034 RMK AO2
KVYS 280135Z AUTO 00000KT 10SM CLR M15/M20 A3066 RMK AO2 T11461198
KW13 280135Z AUTO 36005KT 10SM CLR M05/M13 A3048 RMK AO1 T10501135
KW22 280135Z AUTO 33006KT 10SM CLR M11/M17 A3053 RMK AO2
KW29 280149Z AUTO 36003KT 10SM M03/M10 A3059 RMK AO1
KW31 280135Z AUTO 00000KT 10SM CLR 00/M04 A3050 RMK AO1 T00001038
KW43 280135Z AUTO 20003KT 10SM CLR M08/M13 A2992 RMK AO2
KW63 280135Z AUTO 35003KT 10SM CLR 00/M08 A3049 RMK AO1
KW75 280135Z AUTO 00000KT 10SM CLR M03/M06 A3056 RMK AO1 T10331062
KW78 280135Z AUTO 33004KT 10SM CLR M01/M09 A3051 RMK AO1 T10061094
KW81 280135Z AUTO 00000KT 10SM CLR M01/M05 A3051 RMK AO1 T10101049
KW96 280135Z AUTO 00000KT 10SM CLR M03/M07 A3055 RMK AO1 T10281075
KW99 280130Z AUTO 00000KT 10SM CLR M06/M17 A3057 RMK AO2 T10651168
KWAL 280105Z AUTO 01003KT 4SM BR CLR M04/M05 A3056 RMK AO2 T10441050
KWDG 280050Z 06008KT 7SM -SN SCT005 BKN080 OVC180 M09/M11 A3047
KWDR 280135Z AUTO 32007KT 10SM CLR 05/M02 A3042 RMK AO1
KWHP 280147Z 15005KT 10SM OVC040 14/09 A2978
KWJF 280056Z 23018G23KT 10SM SCT045 12/07 A2972 RMK AO2 PK WND 23029/0019 SLP062 T01220072
KWLD 280054Z AUTO 09007KT 9SM OVC055 M08/M12 A3050 RMK AO2 SLP352 T10831122
KWMC 280146Z AUTO 36006KT 10SM BKN019 BKN048 OVC065 03/01 A2962 RMK AO2 T00280011
KWRB 280058Z AUTO 05002KT 10SM CLR 09/02 A3031 RMK AO2 SLP268 T00870023
KWRI 280058Z AUTO 30006KT 10SM CLR M05/M14 A3052 RMK AO2 SLP341 T10501142
KWRL 280053Z AUTO 04003KT 10SM FEW085 BKN120 M04/M11 A2987 RMK AO2 SLP180 T10391111
KWST 280053Z AUTO 30004KT 10SM CLR M05/M17 A3047 RMK AO2 SLP318 T10501172
KWVI 280053Z AUTO 28006KT 10SM SCT040 16/07 A2980 RMK AO2 SLP089 T01610072
KWVL 280135Z 28003KT CLR M10/M23 A3038 RMK AO1
KWWD 280135Z AUTO 33007KT 10SM CLR M03/M13 A3058 RMK AO1
KWWR 280135Z AUTO 10007KT 10SM SCT013 BKN055 OVC075 M09/M12 A3038 RMK AO2
KXBP 280135Z AUTO 05005KT 5SM -SN OVC017 M06/M06 A3046 RMK AO2 T10561058
KXIH 280135Z AUTO 07020KT 10SM OVC032 09/03 A3031 RMK A01
KXLL 280135Z AUTO 34004KT 10SM CLR M05/M16 A3056 RMK AO2
KXMR 280142Z AUTO 35009KT 6SM R13/5000FT -RA BR CLR 15/14 A3023 RMK AO2 DZB0058E02RAB02E28DZB28E35RAB35
KXNA 280053Z 05005KT 4SM -SN BR OVC060 M08/M10 A3048 RMK AO2 SLP342 P0000 T10781100
KXPY 280135Z AUTO 06011KT 10SM CLR 10/04 A3036 RMK A01
KXSA 280135Z AUTO 00000KT 10SM CLR M03/M07 A3057 RMK AO2 T10271071
KXVG 280156Z AUTO 22004KT 10SM CLR M13/M21 A3038 RMK AO2
KY19 280135Z AUTO 14008KT 10SM FEW048 M12/M17 A3019 RMK AO2
KY23 280135Z AUTO 19005KT 10SM CLR M15/M19 A3049 RMK AO2 T11471195
KY49 280135Z AUTO 23005KT 10SM CLR M12/M22 A3036 RMK AO2 T11251221
KY50 280056Z AUTO 22005KT 10SM CLR M12/M21 A3053 RMK AO2 TSNO T11221211 SLP362
KY51 280135Z AUTO 23004KT 10SM CLR M16/M21 A3052 RMK AO1 T11631210
KY63 280135Z AUTO 17007KT 10SM CLR M17/M20 A3041 RMK AO2 T11681205
KY70 280133Z AUTO 24006KT 10SM CLR M12/M17 A3057 RMK AO2 T11221166
KYIP 280053Z AUTO VRB05KT 10SM CLR M12/M19 A3060 RMK AO2 SLP378 T11221194 TSNO
KYKM 280053Z 33008G18KT 300V010 10SM OVC095 11/00 A2977 RMK AO2 SLP082 T01060000
KYKN 280135Z AUTO 15008KT 10SM CLR M10/M16 A3044 RMK AO1
KYNG 280151Z 00000KT 10SM CLR M14/M20 A3059 RMK AO2 SLP390 T11441200
KZPH 280135Z AUTO 00000KT 10SM BKN017 OVC029 12/08 A3026 RMK AO2
KZZV 280053Z AUTO 00000KT 10SM BKN037 M10/M16 A3061 RMK AO2 SLP386 T11001156 TSNO